Provisional Data: North Branch Muddy Creek near Muddy Creek Forks, PA


Please select a monitoring station.
Please select start date.
Please select start date.

Toggle Unit: C/F Toggle Unit: C/F
Sample Time Temperature (C) Temperature (F) Specific Conductivity (mS/cm) pH   Turbidity (NTU+) DO (mg/L)
3/7/2021 12:00:00 AM 4.32 39.776 0.154 7.23 64.42 12.56
3/7/2021 12:15:00 AM 4.27 39.686 0.154 7.24 52.84 12.57
3/7/2021 12:30:00 AM 4.21 39.578 0.154 7.23 64.42 12.6
3/7/2021 12:45:00 AM 4.15 39.47 0.154 7.23 57.03 12.62
3/7/2021 1:00:00 AM 4.09 39.362 0.154 7.23 117.8 12.65
3/7/2021 1:15:00 AM 4.03 39.254 0.154 7.24 61.32 12.64
3/7/2021 1:30:00 AM 3.96 39.128 0.154 7.23 75.67 12.7
3/7/2021 1:45:00 AM 3.9 39.02 0.154 7.24 83.6 12.72
3/7/2021 2:00:00 AM 3.84 38.912 0.155 7.23 83.82 12.75
3/7/2021 2:15:00 AM 3.77 38.786 0.154 7.23 113.4 12.76
3/7/2021 2:30:00 AM 3.71 38.678 0.155 7.24 67.03 12.8
3/7/2021 2:45:00 AM 3.65 38.57 0.155 7.23 81.04 12.83
3/7/2021 3:00:00 AM 3.58 38.444 0.155 7.22 67.46 12.86
3/7/2021 3:15:00 AM 3.52 38.336 0.155 7.22 115 12.88
3/7/2021 3:30:00 AM 3.46 38.228 0.155 7.23 72.02 12.91
3/7/2021 3:45:00 AM 3.4 38.12 0.155 7.24 89.71 12.92
3/7/2021 4:00:00 AM 3.34 38.012 0.155 7.22 57.98 12.95
3/7/2021 4:15:00 AM 3.28 37.904 0.155 7.22 60.9 12.98
3/7/2021 4:30:00 AM 3.22 37.796 0.155 7.22 74.9 13.02
3/7/2021 4:45:00 AM 3.16 37.688 0.155 7.22 73.4 13.04
3/7/2021 5:00:00 AM 3.1 37.58 0.155 7.22 94.67 13.07
3/7/2021 5:15:00 AM 3.04 37.472 0.155 7.22 68.07 13.09
3/7/2021 5:30:00 AM 2.99 37.382 0.155 7.22 81.25 13.12
3/7/2021 5:45:00 AM 2.93 37.274 0.155 7.22 74.36 13.15
3/7/2021 6:00:00 AM 2.87 37.166 0.155 7.22 63.77 13.17
3/7/2021 6:15:00 AM 2.81 37.058 0.155 7.22 76.84 13.19
3/7/2021 6:30:00 AM 2.76 36.968 0.155 7.22 73.56 13.22
3/7/2021 6:45:00 AM 2.71 36.878 0.155 7.22 76.08 13.23
3/7/2021 7:00:00 AM 2.65 36.77 0.155 7.22 84.58 13.28
3/7/2021 7:15:00 AM 2.61 36.698 0.155 7.23 65.18 13.31
3/7/2021 7:30:00 AM 2.57 36.626 0.155 7.22 69.28 13.36
3/7/2021 7:45:00 AM 2.52 36.536 0.155 7.22 78.33 13.39
3/7/2021 8:00:00 AM 2.5 36.5 0.155 7.22 79.68 13.43
3/7/2021 8:15:00 AM 2.48 36.464 0.155 7.22 72.01 13.48
3/7/2021 8:30:00 AM 2.46 36.428 0.155 7.22 88.18 13.52
3/7/2021 8:45:00 AM 2.47 36.446 0.155 7.22 130.9 13.55
3/7/2021 9:00:00 AM 2.49 36.482 0.155 7.22 65.83 13.58
3/7/2021 9:15:00 AM 2.53 36.554 0.155 7.23 57.4 13.64
3/7/2021 9:30:00 AM 2.59 36.662 0.155 7.23 61.67 13.67
3/7/2021 9:45:00 AM 2.69 36.842 0.155 7.22 96.23 13.69
3/7/2021 10:00:00 AM 2.8 37.04 0.155 7.23 71.95 13.71
3/7/2021 10:15:00 AM 2.95 37.31 0.154 7.22 82.4 13.74
3/7/2021 10:30:00 AM 3.12 37.616 0.154 7.23 106.5 13.73
3/7/2021 10:45:00 AM 3.31 37.958 0.154 7.23 96.08 13.71
3/7/2021 11:00:00 AM 3.52 38.336 0.154 7.23 76.71 13.68
3/7/2021 11:15:00 AM 3.76 38.768 0.154 7.22 60.18 13.68
3/7/2021 11:30:00 AM 3.99 39.182 0.154 7.23 64.19 13.65
3/7/2021 11:45:00 AM 4.23 39.614 0.154 7.23 72.68 13.6
3/7/2021 12:00:00 PM 4.45 40.01 0.154 7.23 57.54 13.56
3/7/2021 12:15:00 PM 4.65 40.37 0.153 7.22 90.28 13.55
3/7/2021 12:30:00 PM 4.86 40.748 0.153 7.23 119.5 13.49
3/7/2021 12:45:00 PM 5.05 41.09 0.153 7.23 110.7 13.45
3/7/2021 1:00:00 PM 5.25 41.45 0.153 7.22 61.3 13.4
3/7/2021 1:15:00 PM 5.42 41.756 0.153 7.22 51.03 13.36
3/7/2021 1:30:00 PM 5.58 42.044 0.153 7.22 90.51 13.31
3/7/2021 1:45:00 PM 5.71 42.278 0.153 7.22 61.58 13.25
3/7/2021 2:00:00 PM 5.79 42.422 0.153 7.23 88.38 13.22
3/7/2021 2:15:00 PM 5.86 42.548 0.153 7.22 76.07 13.17
3/7/2021 2:30:00 PM 5.93 42.674 0.153 7.24 68.54 13.1
3/7/2021 2:45:00 PM 5.98 42.764 0.153 7.22 104.4 13.06
3/7/2021 3:00:00 PM 6.01 42.818 0.153 7.24 58.92 13.01
3/7/2021 3:15:00 PM 6.02 42.836 0.153 7.22 100.1 12.97
3/7/2021 3:30:00 PM 6.03 42.854 0.153 7.24 68.65 12.91
3/7/2021 3:45:00 PM 6.01 42.818 0.153 7.24 63.74 12.87
3/7/2021 4:00:00 PM 5.97 42.746 0.153 7.25 75.34 12.84
3/7/2021 4:15:00 PM 5.95 42.71 0.153 7.25 61.65 12.76
3/7/2021 4:30:00 PM 5.92 42.656 0.153 7.26 66.48 12.71
3/7/2021 4:45:00 PM 5.89 42.602 0.153 7.25 89.8 12.67
3/7/2021 5:00:00 PM 5.85 42.53 0.153 7.27 71.05 12.64
3/7/2021 5:15:00 PM 5.82 42.476 0.154 7.27 64.09 12.59
3/7/2021 5:30:00 PM 5.8 42.44 0.154 7.27 58.38 12.54
3/7/2021 5:45:00 PM 5.78 42.404 0.154 7.26 95.41 12.5
3/7/2021 6:00:00 PM 5.76 42.368 0.154 7.26 146.3 12.45
3/7/2021 6:15:00 PM 5.73 42.314 0.154 7.26 76.57 12.4
3/7/2021 6:30:00 PM 5.71 42.278 0.154 7.27 81.14 12.36
3/7/2021 6:45:00 PM 5.69 42.242 0.154 7.26 60.33 12.31
3/7/2021 7:00:00 PM 5.67 42.206 0.154 7.26 71.27 12.29
3/7/2021 7:15:00 PM 5.63 42.134 0.154 7.26 83.84 12.27
3/7/2021 7:30:00 PM 5.59 42.062 0.154 7.26 64.45 12.25
3/7/2021 7:45:00 PM 5.54 41.972 0.154 7.25 63.27 12.25
3/7/2021 8:00:00 PM 5.49 41.882 0.154 7.25 102.9 12.23
3/7/2021 8:15:00 PM 5.45 41.81 0.155 7.26 72.35 12.23
3/7/2021 8:30:00 PM 5.4 41.72 0.154 7.26 78.72 12.23
3/7/2021 8:45:00 PM 5.36 41.648 0.155 7.25 61.9 12.23
3/7/2021 9:00:00 PM 5.32 41.576 0.155 7.24 67.66 12.23
3/7/2021 9:15:00 PM 5.28 41.504 0.155 7.25 58.69 12.23
3/7/2021 9:30:00 PM 5.24 41.432 0.155 7.24 60.77 12.25
3/7/2021 9:45:00 PM 5.2 41.36 0.155 7.24 56.69 12.24
3/7/2021 10:00:00 PM 5.16 41.288 0.155 7.24 66.79 12.28
3/7/2021 10:15:00 PM 5.12 41.216 0.155 7.23 53.29 12.26
3/7/2021 10:30:00 PM 5.08 41.144 0.155 7.23 63.28 12.29
3/7/2021 10:45:00 PM 5.03 41.054 0.155 7.24 59.13 12.3
3/7/2021 11:00:00 PM 4.98 40.964 0.155 7.23 62.05 12.32
3/7/2021 11:15:00 PM 4.92 40.856 0.155 7.23 70.2 12.34
3/7/2021 11:30:00 PM 4.86 40.748 0.155 7.23 62.9 12.37
3/7/2021 11:45:00 PM 4.8 40.64 0.155 7.24 86.52 12.39
3/8/2021 12:00:00 AM 4.72 40.496 0.155 7.24 108 12.42
3/8/2021 12:15:00 AM 4.65 40.37 0.155 7.24 80.35 12.45
3/8/2021 12:30:00 AM 4.58 40.244 0.155 7.24 54.67 12.46
3/8/2021 12:45:00 AM 4.5 40.1 0.155 7.24 51.61 12.52
3/8/2021 1:00:00 AM 4.42 39.956 0.155 7.22 77.56 12.53
3/8/2021 1:15:00 AM 4.34 39.812 0.155 7.23 162.8 12.57
3/8/2021 1:30:00 AM 4.26 39.668 0.155 7.22 66.18 12.6
3/8/2021 1:45:00 AM 4.18 39.524 0.155 7.22 62.74 12.64
3/8/2021 2:00:00 AM 4.09 39.362 0.155 7.22 58.28 12.68
3/8/2021 2:15:00 AM 4.01 39.218 0.155 7.22 71.45 12.71
3/8/2021 2:30:00 AM 3.92 39.056 0.155 7.22 60.63 12.76
3/8/2021 2:45:00 AM 3.83 38.894 0.156 7.21 66.44 12.78
3/8/2021 3:00:00 AM 3.75 38.75 0.156 7.21 55.63 12.82
3/8/2021 3:15:00 AM 3.66 38.588 0.156 7.22 66.66 12.85
3/8/2021 3:30:00 AM 3.57 38.426 0.156 7.22 77.17 12.9
3/8/2021 3:45:00 AM 3.49 38.282 0.156 7.23 56.56 12.95
3/8/2021 4:00:00 AM 3.41 38.138 0.156 7.22 86.65 12.97
3/8/2021 4:15:00 AM 3.32 37.976 0.156 7.22 66.72 13.01
3/8/2021 4:30:00 AM 3.23 37.814 0.156 7.22 78.16 13.05
3/8/2021 4:45:00 AM 3.15 37.67 0.156 7.22 62.94 13.1
3/8/2021 5:00:00 AM 3.06 37.508 0.156 7.23 89.29 13.13
3/8/2021 5:15:00 AM 2.98 37.364 0.156 7.22 114 13.17
3/8/2021 5:30:00 AM 2.9 37.22 0.156 7.22 71.94 13.18
3/8/2021 5:45:00 AM 2.82 37.076 0.156 7.23 99.17 13.23
3/8/2021 6:00:00 AM 2.75 36.95 0.156 7.23 74.98 13.27
3/8/2021 6:15:00 AM 2.67 36.806 0.156 7.22 55.68 13.28
3/8/2021 6:30:00 AM 2.59 36.662 0.156 7.22 85.44 13.33
3/8/2021 6:45:00 AM 2.52 36.536 0.156 7.23 64.4 13.37
3/8/2021 7:00:00 AM 2.45 36.41 0.156 7.23 65.44 13.42
3/8/2021 7:15:00 AM 2.39 36.302 0.156 7.21 149.3 13.47
3/8/2021 7:30:00 AM 2.33 36.194 0.156 7.22 109.6 13.52
3/8/2021 7:45:00 AM 2.28 36.104 0.156 7.22 122.2 13.58
3/8/2021 8:00:00 AM 2.23 36.014 0.156 7.23 58.35 13.62
3/8/2021 8:15:00 AM 2.2 35.96 0.156 7.23 55.56 13.67
3/8/2021 8:30:00 AM 2.18 35.924 0.156 7.22 70.65 13.71
3/8/2021 8:45:00 AM 2.19 35.942 0.156 7.23 87.36 13.75
3/8/2021 9:00:00 AM 2.22 35.996 0.156 7.22 89.4 13.81
3/8/2021 9:15:00 AM 2.26 36.068 0.156 7.22 56.23 13.85
3/8/2021 9:30:00 AM 2.34 36.212 0.156 7.23 96.01 13.88
3/8/2021 9:45:00 AM 2.44 36.392 0.156 7.22 187.4 13.9
3/8/2021 10:00:00 AM 2.56 36.608 0.156 7.22 73.89 13.9
3/8/2021 10:15:00 AM 2.71 36.878 0.156 7.22 65.85 13.92
3/8/2021 10:30:00 AM 2.87 37.166 0.155 7.24 60.42 13.93
3/8/2021 10:45:00 AM 3.06 37.508 0.155 7.23 106.7 13.94
3/8/2021 11:00:00 AM 3.29 37.922 0.155 7.23 73.14 13.89
3/8/2021 11:15:00 AM 3.53 38.354 0.155 7.23 72.32 13.87
3/8/2021 11:30:00 AM 3.79 38.822 0.155 7.22 68.51 13.85
3/8/2021 11:45:00 AM 4.05 39.29 0.154 7.22 95.8 13.8
3/8/2021 12:00:00 PM 4.29 39.722 0.154 7.23 66.99 13.76
3/8/2021 12:15:00 PM 4.53 40.154 0.154 7.23 53.3 13.71
3/8/2021 12:30:00 PM 4.75 40.55 0.154 7.23 61.97 13.66
3/8/2021 12:45:00 PM 4.98 40.964 0.154 7.24 58.04 13.62
3/8/2021 1:00:00 PM 5.19 41.342 0.154 7.23 60.76 13.57
3/8/2021 1:15:00 PM 5.39 41.702 0.154 7.24 100.4 13.51
3/8/2021 1:30:00 PM 5.56 42.008 0.154 7.23 82.93 13.46
3/8/2021 1:45:00 PM 5.72 42.296 0.154 7.23 109.7 13.4
3/8/2021 2:00:00 PM 5.81 42.458 0.154 7.25 103.6 13.33
3/8/2021 2:15:00 PM 5.88 42.584 0.154 7.25 69.59 13.3
3/8/2021 2:30:00 PM 5.96 42.728 0.154 7.25 85.74 13.22
3/8/2021 2:45:00 PM 6.02 42.836 0.154 7.24 85.08 13.18
3/8/2021 3:00:00 PM 6.06 42.908 0.154 7.24 72.69 13.13
3/8/2021 3:15:00 PM 6.09 42.962 0.154 7.25 72.66 13.1
3/8/2021 3:30:00 PM 6.1 42.98 0.154 7.26 94.85 13.02
3/8/2021 3:45:00 PM 6.09 42.962 0.154 7.27 78.95 12.97
3/8/2021 4:00:00 PM 6.07 42.926 0.154 7.27 88.02 12.94
3/8/2021 4:15:00 PM 6.05 42.89 0.154 7.27 71.53 12.88
3/8/2021 4:30:00 PM 6.04 42.872 0.154 7.27 152.7 12.84
3/8/2021 4:45:00 PM 6.05 42.89 0.154 7.27 68.19 12.79
3/8/2021 5:00:00 PM 6.04 42.872 0.154 7.28 54.87 12.73
3/8/2021 5:15:00 PM 6.04 42.872 0.154 7.27 85.99 12.68
3/8/2021 5:30:00 PM 6.05 42.89 0.154 7.27 108.7 12.63
3/8/2021 5:45:00 PM 6.05 42.89 0.154 7.28 77.04 12.56
3/8/2021 6:00:00 PM 6.04 42.872 0.154 7.28 75.49 12.51
3/8/2021 6:15:00 PM 6.04 42.872 0.154 7.29 83.22 12.43
3/8/2021 6:30:00 PM 6.03 42.854 0.154 7.27 63.25 12.37
3/8/2021 6:45:00 PM 6.03 42.854 0.154 7.26 72.98 12.33
3/8/2021 7:00:00 PM 6.02 42.836 0.154 7.26 88.59 12.28
3/8/2021 7:15:00 PM 6 42.8 0.154 7.26 65.94 12.26
3/8/2021 7:30:00 PM 5.97 42.746 0.154 7.26 87.79 12.22
3/8/2021 7:45:00 PM 5.95 42.71 0.154 7.26 102 12.2
3/8/2021 8:00:00 PM 5.92 42.656 0.154 7.24 66.15 12.19
3/8/2021 8:15:00 PM 5.89 42.602 0.154 7.26 67.31 12.18
3/8/2021 8:30:00 PM 5.86 42.548 0.154 7.26 84.37 12.14
3/8/2021 8:45:00 PM 5.84 42.512 0.154 7.26 88.44 12.12
3/8/2021 9:00:00 PM 5.81 42.458 0.154 7.26 74.6 12.13
3/8/2021 9:15:00 PM 5.79 42.422 0.154 7.26 85.4 12.13
3/8/2021 9:30:00 PM 5.76 42.368 0.154 7.25 99.18 12.12
3/8/2021 9:45:00 PM 5.74 42.332 0.155 7.25 104 12.11
3/8/2021 10:00:00 PM 5.73 42.314 0.155 7.25 65.55 12.11
3/8/2021 10:15:00 PM 5.7 42.26 0.155 7.24 84.12 12.1
3/8/2021 10:30:00 PM 5.68 42.224 0.155 7.23 62.29 12.1
3/8/2021 10:45:00 PM 5.65 42.17 0.155 7.24 78.51 12.11
3/8/2021 11:00:00 PM 5.62 42.116 0.155 7.24 84.23 12.12
3/8/2021 11:15:00 PM 5.59 42.062 0.155 7.24 79.04 12.13
3/8/2021 11:30:00 PM 5.55 41.99 0.155 7.23 103 12.15
3/8/2021 11:45:00 PM 5.52 41.936 0.155 7.22 71.77 12.16
3/9/2021 12:00:00 AM 5.47 41.846 0.155 7.23 98.57 12.17
3/9/2021 12:15:00 AM 5.43 41.774 0.155 7.23 91.87 12.19
3/9/2021 12:30:00 AM 5.38 41.684 0.155 7.23 68.47 12.2
3/9/2021 12:45:00 AM 5.33 41.594 0.155 7.22 73.44 12.22
3/9/2021 1:00:00 AM 5.28 41.504 0.155 7.22 90.17 12.25
3/9/2021 1:15:00 AM 5.22 41.396 0.155 7.22 124.3 12.28
3/9/2021 1:30:00 AM 5.16 41.288 0.155 7.22 103 12.29
3/9/2021 1:45:00 AM 5.11 41.198 0.155 7.23 71.72 12.31
3/9/2021 2:00:00 AM 5.05 41.09 0.155 7.22 79.38 12.33
3/9/2021 2:15:00 AM 4.99 40.982 0.155 7.21 126.2 12.36
3/9/2021 2:30:00 AM 4.93 40.874 0.155 7.22 143.8 12.38
3/9/2021 2:45:00 AM 4.87 40.766 0.155 7.22 66.97 12.4
3/9/2021 3:00:00 AM 4.81 40.658 0.156 7.23 108.5 12.41
3/9/2021 3:15:00 AM 4.75 40.55 0.156 7.22 107 12.44
3/9/2021 3:30:00 AM 4.7 40.46 0.156 7.21 83.43 12.48
3/9/2021 3:45:00 AM 4.65 40.37 0.156 7.21 86.72 12.5
3/9/2021 4:00:00 AM 4.6 40.28 0.156 7.21 94.67 12.52
3/9/2021 4:15:00 AM 4.54 40.172 0.156 7.21 99.97 12.54
3/9/2021 4:30:00 AM 4.49 40.082 0.156 7.21 113.6 12.56
3/9/2021 4:45:00 AM 4.44 39.992 0.156 7.21 113.1 12.57
3/9/2021 5:00:00 AM 4.39 39.902 0.156 7.21 112.2 12.61
3/9/2021 5:15:00 AM 4.34 39.812 0.156 7.2 74.89 12.63
3/9/2021 5:30:00 AM 4.3 39.74 0.156 7.21 96.07 12.65
3/9/2021 5:45:00 AM 4.27 39.686 0.156 7.21 87.73 12.68
3/9/2021 6:00:00 AM 4.25 39.65 0.156 7.2 113.7 12.69
3/9/2021 6:15:00 AM 4.21 39.578 0.156 7.2 83.57 12.7
3/9/2021 6:30:00 AM 4.19 39.542 0.156 7.2 100.4 12.72
3/9/2021 6:45:00 AM 4.16 39.488 0.156 7.2 101.6 12.74
3/9/2021 7:00:00 AM 4.13 39.434 0.156 7.2 79.49 12.77
3/9/2021 7:15:00 AM 4.1 39.38 0.156 7.2 105.9 12.8
3/9/2021 7:30:00 AM 4.08 39.344 0.156 7.21 92.82 12.84
3/9/2021 7:45:00 AM 4.06 39.308 0.156 7.21 92.04 12.87
3/9/2021 8:00:00 AM 4.05 39.29 0.156 7.21 95.45 12.93
3/9/2021 8:15:00 AM 4.04 39.272 0.156 7.21 97.55 12.96
3/9/2021 8:30:00 AM 4.04 39.272 0.156 7.21 72.98 13
3/9/2021 8:45:00 AM 4.06 39.308 0.156 7.21 90.38 13.03
3/9/2021 9:00:00 AM 4.1 39.38 0.156 7.21 109.3 13.06
3/9/2021 9:15:00 AM 4.2 39.56 0.156 7.21 81.53 13.11
3/9/2021 9:30:00 AM 4.31 39.758 0.155 7.22 84.53 13.14
3/9/2021 9:45:00 AM 4.44 39.992 0.155 7.23 103.1 13.16
3/9/2021 10:00:00 AM 4.63 40.334 0.155 7.23 84.2 13.19
3/9/2021 10:15:00 AM 4.83 40.694 0.155 7.22 117 13.17
3/9/2021 10:30:00 AM 5.04 41.072 0.155 7.22 105.4 13.16
3/9/2021 10:45:00 AM 5.29 41.522 0.155 7.22 119 13.17
3/9/2021 11:00:00 AM 5.52 41.936 0.155 7.23 89.96 13.14
3/9/2021 11:15:00 AM 5.78 42.404 0.155 7.22 94.89 13.11
3/9/2021 11:30:00 AM 6.06 42.908 0.154 7.21 116.6 13.05
3/9/2021 11:45:00 AM 6.36 43.448 0.154 7.22 108.6 13.01
3/9/2021 12:00:00 PM 6.61 43.898 0.154 7.23 127.9 12.98
3/9/2021 12:15:00 PM 6.83 44.294 0.154 7.23 93.56 12.91
3/9/2021 12:30:00 PM 7.08 44.744 0.154 7.23 97.71 12.89
3/9/2021 12:45:00 PM 7.38 45.284 0.154 7.23 97.47 12.82
3/9/2021 1:00:00 PM 7.62 45.716 0.154 7.22 105.9 12.78
3/9/2021 1:15:00 PM 7.84 46.112 0.154 7.22 143.9 12.72
3/9/2021 1:30:00 PM 7.99 46.382 0.154 7.24 116.8 12.66
3/9/2021 1:45:00 PM 8.15 46.67 0.154 7.23 119.8 12.59
3/9/2021 2:00:00 PM 8.33 46.994 0.154 7.23 145 12.54
3/9/2021 2:15:00 PM 8.5 47.3 0.154 7.24 119.5 12.47
3/9/2021 2:30:00 PM 8.61 47.498 0.154 7.25 116 12.42
3/9/2021 2:45:00 PM 8.72 47.696 0.154 7.24 95.4 12.34
3/9/2021 3:00:00 PM 8.81 47.858 0.154 7.24 102.4 12.28
3/9/2021 3:15:00 PM 8.85 47.93 0.154 7.26 77.32 12.24
3/9/2021 3:30:00 PM 8.9 48.02 0.154 7.26 91.15 12.18
3/9/2021 3:45:00 PM 8.94 48.092 0.154 7.27 84.03 12.1
3/9/2021 4:00:00 PM 8.98 48.164 0.153 7.26 112.6 12.06
3/9/2021 4:15:00 PM 9.02 48.236 0.153 7.28 115.6 12
3/9/2021 4:30:00 PM 9.05 48.29 0.153 7.27 102 11.95
3/9/2021 4:45:00 PM 9.08 48.344 0.153 7.28 84.3 11.87
3/9/2021 5:00:00 PM 9.11 48.398 0.153 7.28 89.26 11.81
3/9/2021 5:15:00 PM 9.14 48.452 0.153 7.29 108.4 11.77
3/9/2021 5:30:00 PM 9.15 48.47 0.153 7.29 91.03 11.69
3/9/2021 5:45:00 PM 9.16 48.488 0.154 7.29 66.04 11.58
3/9/2021 6:00:00 PM 9.15 48.47 0.154 7.29 102.4 11.51
3/9/2021 6:15:00 PM 9.13 48.434 0.154 7.28 99.53 11.43
3/9/2021 6:30:00 PM 9.12 48.416 0.154 7.29 58.96 11.37
3/9/2021 6:45:00 PM 9.12 48.416 0.154 7.28 96.19 11.31
3/9/2021 7:00:00 PM 9.09 48.362 0.154 7.27 118.1 11.28
3/9/2021 7:15:00 PM 9.08 48.344 0.154 7.28 103.5 11.22
3/9/2021 7:30:00 PM 9.05 48.29 0.154 7.26 97.94 11.2
3/9/2021 7:45:00 PM 9.02 48.236 0.154 7.27 106.3 11.18
3/9/2021 8:00:00 PM 9 48.2 0.154 7.26 67.99 11.14
3/9/2021 8:15:00 PM 8.97 48.146 0.154 7.25 102.8 11.12
3/9/2021 8:30:00 PM 8.95 48.11 0.155 7.25 113.3 11.12
3/9/2021 8:45:00 PM 8.91 48.038 0.155 7.25 95.72 11.09
3/9/2021 9:00:00 PM 8.88 47.984 0.155 7.25 111.2 11.07
3/9/2021 9:15:00 PM 8.84 47.912 0.155 7.25 76.42 11.07
3/9/2021 9:30:00 PM 8.8 47.84 0.155 7.23 65.82 11.07
3/9/2021 9:45:00 PM 8.77 47.786 0.155 7.23 117.7 11.08
3/9/2021 10:00:00 PM 8.72 47.696 0.155 7.23 72.35 11.07
3/9/2021 10:15:00 PM 8.68 47.624 0.155 7.23 77.72 11.08
3/9/2021 10:30:00 PM 8.63 47.534 0.155 7.22 84.81 11.1
3/9/2021 10:45:00 PM 8.58 47.444 0.155 7.22 98.5 11.11
3/9/2021 11:00:00 PM 8.53 47.354 0.155 7.21 90.97 11.11
3/9/2021 11:15:00 PM 8.47 47.246 0.155 7.21 95.1 11.14
3/9/2021 11:30:00 PM 8.42 47.156 0.156 7.2 81.53 11.15
3/9/2021 11:45:00 PM 8.36 47.048 0.156 7.19 91.8 11.16
3/10/2021 12:00:00 AM 8.29 46.922 0.156 7.2 113.5 11.19
3/10/2021 12:15:00 AM 8.24 46.832 0.156 7.19 104 11.21
3/10/2021 12:30:00 AM 8.18 46.724 0.156 7.19 121.4 11.24
3/10/2021 12:45:00 AM 8.11 46.598 0.156 7.19 86.67 11.25
3/10/2021 1:00:00 AM 8.04 46.472 0.155 7.19 106.6 11.27
3/10/2021 1:15:00 AM 7.97 46.346 0.156 7.19 113.4 11.31
3/10/2021 1:30:00 AM 7.9 46.22 0.156 7.2 112 11.33
3/10/2021 1:45:00 AM 7.82 46.076 0.156 7.19 99.44 11.35
3/10/2021 2:00:00 AM 7.74 45.932 0.156 7.2 99.4 11.39
3/10/2021 2:15:00 AM 7.66 45.788 0.156 7.19 109.4 11.41
3/10/2021 2:30:00 AM 7.57 45.626 0.156 7.2 118 11.44
3/10/2021 2:45:00 AM 7.49 45.482 0.156 7.19 100 11.47
3/10/2021 3:00:00 AM 7.4 45.32 0.156 7.19 111.6 11.5
3/10/2021 3:15:00 AM 7.32 45.176 0.156 7.19 76.78 11.53
3/10/2021 3:30:00 AM 7.23 45.014 0.156 7.19 107.5 11.55
3/10/2021 3:45:00 AM 7.14 44.852 0.156 7.18 117.6 11.59
3/10/2021 4:00:00 AM 7.06 44.708 0.156 7.18 105 11.62
3/10/2021 4:15:00 AM 6.97 44.546 0.156 7.19 105.2 11.64
3/10/2021 4:30:00 AM 6.89 44.402 0.156 7.2 93.08 11.68
3/10/2021 4:45:00 AM 6.8 44.24 0.156 7.19 97.28 11.72
3/10/2021 5:00:00 AM 6.71 44.078 0.157 7.19 98.15 11.77
3/10/2021 5:15:00 AM 6.62 43.916 0.157 7.18 105.8 11.79
3/10/2021 5:30:00 AM 6.54 43.772 0.157 7.18 81.03 11.82
3/10/2021 5:45:00 AM 6.45 43.61 0.157 7.18 100.3 11.86
3/10/2021 6:00:00 AM 6.36 43.448 0.157 7.18 103.2 11.89
3/10/2021 6:15:00 AM 6.28 43.304 0.157 7.19 97.55 11.92
3/10/2021 6:30:00 AM 6.2 43.16 0.157 7.18 89.82 11.94
3/10/2021 6:45:00 AM 6.11 42.998 0.157 7.18 109.3 11.99
3/10/2021 7:00:00 AM 6.03 42.854 0.157 7.18 106.5 12.04
3/10/2021 7:15:00 AM 5.96 42.728 0.157 7.18 110.1 12.1
3/10/2021 7:30:00 AM 5.89 42.602 0.159 7.17 135.4 12.14
3/10/2021 7:45:00 AM 5.84 42.512 0.157 7.2 114.8 12.21
3/10/2021 8:00:00 AM 5.79 42.422 0.157 7.2 97.35 12.28
3/10/2021 8:15:00 AM 5.74 42.332 0.157 7.18 126.3 12.33
3/10/2021 8:30:00 AM 5.72 42.296 0.157 7.19 102.8 12.4
3/10/2021 8:45:00 AM 5.71 42.278 0.157 7.2 62.17 12.47
3/10/2021 9:00:00 AM 5.72 42.296 0.157 7.19 107.2 12.52
3/10/2021 9:15:00 AM 5.75 42.35 0.159 7.19 100.2 12.56
3/10/2021 9:30:00 AM 5.82 42.476 0.157 7.2 129.2 12.63
3/10/2021 9:45:00 AM 5.93 42.674 0.157 7.19 133.2 12.65
3/10/2021 10:00:00 AM 6.06 42.908 0.157 7.19 68.66 12.69
3/10/2021 10:15:00 AM 6.22 43.196 0.157 7.2 102.9 12.72
3/10/2021 10:30:00 AM 6.38 43.484 0.157 7.2 122.7 12.74
3/10/2021 10:45:00 AM 6.59 43.862 0.156 7.2 117.2 12.75
3/10/2021 11:00:00 AM 6.81 44.258 0.156 7.21 74.8 12.74
3/10/2021 11:15:00 AM 7.07 44.726 0.157 7.21 118.2 12.71
3/10/2021 11:30:00 AM 7.34 45.212 0.157 7.22 138.8 12.7
3/10/2021 11:45:00 AM 7.63 45.734 0.156 7.22 99.37 12.65
3/10/2021 12:00:00 PM 7.89 46.202 0.156 7.22 107.8 12.64
3/10/2021 12:15:00 PM 8.13 46.634 0.156 7.26 111.2 12.57
3/10/2021 12:30:00 PM 8.4 47.12 0.156 7.24 103.8 12.54
3/10/2021 12:45:00 PM 8.64 47.552 0.156 7.23 103.5 12.49
3/10/2021 1:00:00 PM 8.88 47.984 0.156 7.24 68.12 12.45
3/10/2021 1:15:00 PM 9.09 48.362 0.156 7.23 234.6 12.41
3/10/2021 1:30:00 PM 9.27 48.686 0.156 7.24 105.3 12.36
3/10/2021 1:45:00 PM 9.44 48.992 0.156 7.25 106 12.31
3/10/2021 2:00:00 PM 9.55 49.19 0.156 7.24 108.5 12.26
3/10/2021 2:15:00 PM 9.64 49.352 0.156 7.26 116 12.21
3/10/2021 2:30:00 PM 9.72 49.496 0.156 7.25 73.24 12.16
3/10/2021 2:45:00 PM 9.8 49.64 0.156 7.26 78.34 12.1
3/10/2021 3:00:00 PM 9.85 49.73 0.156 7.27 107.4 12.05
3/10/2021 3:15:00 PM 9.88 49.784 0.156 7.28 113.5 12
3/10/2021 3:30:00 PM 9.9 49.82 0.156 7.27 91.94 11.94
3/10/2021 3:45:00 PM 9.9 49.82 0.156 7.27 205.9 11.9
3/10/2021 4:00:00 PM 9.87 49.766 0.156 7.28 116.4 11.83
3/10/2021 4:15:00 PM 9.85 49.73 0.156 7.28 94.81 11.76
3/10/2021 4:30:00 PM 9.82 49.676 0.156 7.28 119.7 11.71
3/10/2021 4:45:00 PM 9.8 49.64 0.156 7.29 117.7 11.65
3/10/2021 5:00:00 PM 9.76 49.568 0.156 7.3 111.3 11.59
3/10/2021 5:15:00 PM 9.72 49.496 0.156 7.29 103.6 11.51
3/10/2021 5:30:00 PM 9.68 49.424 0.156 7.3 128.1 11.45
3/10/2021 5:45:00 PM 9.66 49.388 0.156 7.3 104.3 11.38
3/10/2021 6:00:00 PM 9.63 49.334 0.156 7.29 86.1 11.31
3/10/2021 6:15:00 PM 9.61 49.298 0.156 7.3 70.55 11.26
3/10/2021 6:30:00 PM 9.59 49.262 0.156 7.3 111.1 11.19
3/10/2021 6:45:00 PM 9.58 49.244 0.156 7.31 124.9 11.14
3/10/2021 7:00:00 PM 9.58 49.244 0.156 7.28 120.6 11.1
3/10/2021 7:15:00 PM 9.56 49.208 0.157 7.28 111.1 11.07
3/10/2021 7:30:00 PM 9.54 49.172 0.158 7.27 95.51 11.03
3/10/2021 7:45:00 PM 9.52 49.136 0.157 7.29 113.7 11
3/10/2021 8:00:00 PM 9.48 49.064 0.157 7.28 121.3 10.94
3/10/2021 8:15:00 PM 9.45 49.01 0.157 7.28 103 10.96
3/10/2021 8:30:00 PM 9.41 48.938 0.157 7.25 112.7 10.97
3/10/2021 8:45:00 PM 9.37 48.866 0.158 7.25 122.6 10.95
3/10/2021 9:00:00 PM 9.33 48.794 0.158 7.25 123.4 10.94
3/10/2021 9:15:00 PM 9.29 48.722 0.158 7.25 110.3 10.94
3/10/2021 9:30:00 PM 9.25 48.65 0.158 7.23 126.4 10.94
3/10/2021 9:45:00 PM 9.22 48.596 0.158 7.24 127.8 10.93
3/10/2021 10:00:00 PM 9.18 48.524 0.158 7.25 132.8 10.93
3/10/2021 10:15:00 PM 9.15 48.47 0.158 7.23 132.6 10.94
3/10/2021 10:30:00 PM 9.11 48.398 0.158 7.23 120.2 10.93
3/10/2021 10:45:00 PM 9.08 48.344 0.158 7.22 100.4 10.92
3/10/2021 11:00:00 PM 9.04 48.272 0.159 7.24 103.9 10.94
3/10/2021 11:15:00 PM 9 48.2 0.158 7.22 119.2 10.95
3/10/2021 11:30:00 PM 8.96 48.128 0.158 7.22 97.69 10.96
3/10/2021 11:45:00 PM 8.91 48.038 0.158 7.21 112.6 10.97
3/11/2021 12:00:00 AM 8.86 47.948 0.158 7.21 126.4 10.99
3/11/2021 12:15:00 AM 8.81 47.858 0.158 7.2 149.6 10.99
3/11/2021 12:30:00 AM 8.76 47.768 0.158 7.21 140.2 11.02
3/11/2021 12:45:00 AM 8.71 47.678 0.158 7.2 130.1 11.04
3/11/2021 1:00:00 AM 8.66 47.588 0.159 7.21 159.3 11.05
3/11/2021 1:15:00 AM 8.6 47.48 0.159 7.2 159 11.06
3/11/2021 1:30:00 AM 8.54 47.372 0.159 7.2 132.5 11.09
3/11/2021 1:45:00 AM 8.48 47.264 0.159 7.2 110.7 11.11
3/11/2021 2:00:00 AM 8.41 47.138 0.159 7.2 133.4 11.12
3/11/2021 2:15:00 AM 8.34 47.012 0.159 7.21 118.6 11.16
3/11/2021 2:30:00 AM 8.27 46.886 0.159 7.2 147.4 11.18
3/11/2021 2:45:00 AM 8.19 46.742 0.159 7.2 153.8 11.19
3/11/2021 3:00:00 AM 8.12 46.616 0.159 7.2 114.6 11.23
3/11/2021 3:15:00 AM 8.04 46.472 0.159 7.19 79.78 11.23
3/11/2021 3:30:00 AM 7.98 46.364 0.159 7.2 123.7 11.28
3/11/2021 3:45:00 AM 7.89 46.202 0.159 7.18 177.2 11.3
3/11/2021 4:00:00 AM 7.82 46.076 0.159 7.18 117.7 11.33
3/11/2021 4:15:00 AM 7.74 45.932 0.159 7.19 129.2 11.35
3/11/2021 4:30:00 AM 7.66 45.788 0.159 7.19 157.3 11.37
3/11/2021 4:45:00 AM 7.59 45.662 0.159 7.18 157.6 11.4
3/11/2021 5:00:00 AM 7.51 45.518 0.159 7.19 109.8 11.42
3/11/2021 5:15:00 AM 7.44 45.392 0.159 7.19 161.2 11.46
3/11/2021 5:30:00 AM 7.36 45.248 0.159 7.18 161.4 11.48
3/11/2021 5:45:00 AM 7.28 45.104 0.159 7.19 131.8 11.51
3/11/2021 6:00:00 AM 7.21 44.978 0.159 7.19 139.2 11.55
3/11/2021 6:15:00 AM 7.15 44.87 0.159 7.19 118.5 11.57
3/11/2021 6:30:00 AM 7.09 44.762 0.159 7.19 120.5 11.59
3/11/2021 6:45:00 AM 7.04 44.672 0.159 7.2 160.9 11.62
3/11/2021 7:00:00 AM 6.99 44.582 0.159 7.19 141.4 11.64
3/11/2021 7:15:00 AM 6.95 44.51 0.159 7.19 132.7 11.69
3/11/2021 7:30:00 AM 6.92 44.456 0.159 7.2 114.8 11.74
3/11/2021 7:45:00 AM 6.87 44.366 0.159 7.19 156.2 11.79
3/11/2021 8:00:00 AM 6.85 44.33 0.159 7.19 172.4 11.86
3/11/2021 8:15:00 AM 6.82 44.276 0.159 7.2 140.4 11.95
3/11/2021 8:30:00 AM 6.83 44.294 0.159 7.2 144.9 12.02
3/11/2021 8:45:00 AM 6.89 44.402 0.159 7.21 134.1 12.1
3/11/2021 9:00:00 AM 6.94 44.492 0.159 7.21 181.7 12.15
3/11/2021 9:15:00 AM 6.96 44.528 0.159 7.21 95.94 12.17
3/11/2021 9:30:00 AM 6.99 44.582 0.159 7.21 138.4 12.18
3/11/2021 9:45:00 AM 7.08 44.744 0.159 7.22 125.2 12.22
3/11/2021 10:00:00 AM 7.21 44.978 0.159 7.22 135.3 12.24
3/11/2021 10:15:00 AM 7.37 45.266 0.159 7.22 166.6 12.28
3/11/2021 10:30:00 AM 7.56 45.608 0.159 7.23 149.3 12.29
3/11/2021 10:45:00 AM 7.79 46.022 0.159 7.23 163.7 12.3
3/11/2021 11:00:00 AM 8.02 46.436 0.158 7.23 137.8 12.29
3/11/2021 11:15:00 AM 8.26 46.868 0.158 7.22 123.3 12.28
3/11/2021 11:30:00 AM 8.58 47.444 0.158 7.23 150.1 12.24
3/11/2021 11:45:00 AM 8.9 48.02 0.158 7.23 85.25 12.22
3/11/2021 12:00:00 PM 9.21 48.578 0.158 7.23 132.1 12.17
3/11/2021 12:15:00 PM 9.49 49.082 0.158 7.24 158.6 12.14
3/11/2021 12:30:00 PM 9.76 49.568 0.158 7.25 110.5 12.11
3/11/2021 12:45:00 PM 10.03 50.054 0.158 7.24 173.7 12.05
3/11/2021 1:00:00 PM 10.31 50.558 0.158 7.24 136.4 12.01
3/11/2021 1:15:00 PM 10.55 50.99 0.158 7.25 129.3 11.93
3/11/2021 1:30:00 PM 10.78 51.404 0.158 7.25 127.4 11.91
3/11/2021 1:45:00 PM 10.96 51.728 0.158 7.26 107 11.85
3/11/2021 2:00:00 PM 11.11 51.998 0.158 7.27 143.1 11.79
3/11/2021 2:15:00 PM 11.2 52.16 0.158 7.29 142.4 11.74
3/11/2021 2:30:00 PM 11.3 52.34 0.158 7.28 147.5 11.69
3/11/2021 2:45:00 PM 11.38 52.484 0.158 7.29 145 11.61
3/11/2021 3:00:00 PM 11.43 52.574 0.158 7.29 145.2 11.58
3/11/2021 3:15:00 PM 11.47 52.646 0.158 7.31 149.9 11.53
3/11/2021 3:30:00 PM 11.5 52.7 0.157 7.32 139.4 11.47
3/11/2021 3:45:00 PM 11.48 52.664 0.158 7.33 159.2 11.39
3/11/2021 4:00:00 PM 11.49 52.682 0.158 7.32 142.3 11.35
3/11/2021 4:15:00 PM 11.51 52.718 0.157 7.32 149 11.29
3/11/2021 4:30:00 PM 11.48 52.664 0.157 7.33 132.4 11.24
3/11/2021 4:45:00 PM 11.46 52.628 0.158 7.33 106.1 11.14
3/11/2021 5:00:00 PM 11.46 52.628 0.157 7.33 149.3 11.07
3/11/2021 5:15:00 PM 11.43 52.574 0.157 7.32 142.2 11.03
3/11/2021 5:30:00 PM 11.39 52.502 0.158 7.32 172 10.93
3/11/2021 5:45:00 PM 11.38 52.484 0.158 7.32 136.3 10.85
3/11/2021 6:00:00 PM 11.37 52.466 0.158 7.3 127.7 10.78
3/11/2021 6:15:00 PM 11.36 52.448 0.158 7.31 134.4 10.69
3/11/2021 6:30:00 PM 11.35 52.43 0.158 7.31 118.8 10.64
3/11/2021 6:45:00 PM 11.32 52.376 0.158 7.3 122 10.58
3/11/2021 7:00:00 PM 11.33 52.394 0.158 7.3 114.1 10.53
3/11/2021 7:15:00 PM 11.34 52.412 0.158 7.3 106.5 10.48
3/11/2021 7:30:00 PM 11.34 52.412 0.158 7.29 123 10.46
3/11/2021 7:45:00 PM 11.32 52.376 0.158 7.3 113.6 10.42
3/11/2021 8:00:00 PM 11.3 52.34 0.158 7.28 126.3 10.41
3/11/2021 8:15:00 PM 11.26 52.268 0.158 7.27 121.6 10.37
3/11/2021 8:30:00 PM 11.23 52.214 0.158 7.27 150 10.34
3/11/2021 8:45:00 PM 11.2 52.16 0.158 7.27 117.6 10.35
3/11/2021 9:00:00 PM 11.16 52.088 0.158 7.25 107 10.34
3/11/2021 9:15:00 PM 11.14 52.052 0.158 7.25 126 10.31
3/11/2021 9:30:00 PM 11.1 51.98 0.158 7.25 119.7 10.31
3/11/2021 9:45:00 PM 11.07 51.926 0.158 7.25 103.6 10.32
3/11/2021 10:00:00 PM 11.04 51.872 0.158 7.24 116.1 10.31
3/11/2021 10:15:00 PM 11.02 51.836 0.158 7.23 120.3 10.3
3/11/2021 10:30:00 PM 10.99 51.782 0.158 7.23 123.4 10.31
3/11/2021 10:45:00 PM 10.96 51.728 0.158 7.22 88.86 10.3
3/11/2021 11:00:00 PM 10.93 51.674 0.158 7.23 102.3 10.32
3/11/2021 11:15:00 PM 10.9 51.62 0.158 7.21 120.7 10.32
3/11/2021 11:30:00 PM 10.87 51.566 0.158 7.2 103.9 10.33
3/11/2021 11:45:00 PM 10.83 51.494 0.158 7.2 81.41 10.33
3/12/2021 12:00:00 AM 10.79 51.422 0.158 7.2 94.06 10.34
3/12/2021 12:15:00 AM 10.75 51.35 0.158 7.2 87.78 10.35
3/12/2021 12:30:00 AM 10.72 51.296 0.158 7.19 158.6 10.37
3/12/2021 12:45:00 AM 10.68 51.224 0.158 7.2 116.6 10.38
3/12/2021 1:00:00 AM 10.66 51.188 0.158 7.18 118.6 10.39
3/12/2021 1:15:00 AM 10.63 51.134 0.158 7.18 113.2 10.41
3/12/2021 1:30:00 AM 10.6 51.08 0.158 7.18 143 10.42
3/12/2021 1:45:00 AM 10.56 51.008 0.158 7.18 141.6 10.43
3/12/2021 2:00:00 AM 10.53 50.954 0.159 7.19 130.8 10.44
3/12/2021 2:15:00 AM 10.49 50.882 0.159 7.18 148.6 10.46
3/12/2021 2:30:00 AM 10.45 50.81 0.159 7.19 142.7 10.47
3/12/2021 2:45:00 AM 10.41 50.738 0.159 7.18 156.9 10.48
3/12/2021 3:00:00 AM 10.36 50.648 0.159 7.17 180 10.51
3/12/2021 3:15:00 AM 10.32 50.576 0.159 7.17 161.5 10.52
3/12/2021 3:30:00 AM 10.27 50.486 0.159 7.17 165.2 10.53
3/12/2021 3:45:00 AM 10.23 50.414 0.159 7.17 135.1 10.55
3/12/2021 4:00:00 AM 10.18 50.324 0.159 7.16 155.1 10.56
3/12/2021 4:15:00 AM 10.13 50.234 0.159 7.17 120.9 10.57
3/12/2021 4:30:00 AM 10.08 50.144 0.159 7.17 225.3 10.59
3/12/2021 4:45:00 AM 10.03 50.054 0.159 7.17 145.5 10.61
3/12/2021 5:00:00 AM 9.98 49.964 0.159 7.17 160 10.62
3/12/2021 5:15:00 AM 9.94 49.892 0.159 7.16 179.5 10.63
3/12/2021 5:30:00 AM 9.89 49.802 0.159 7.16 178.1 10.65
3/12/2021 5:45:00 AM 9.84 49.712 0.159 7.16 141.6 10.69
3/12/2021 6:00:00 AM 9.79 49.622 0.159 7.15 191.1 10.69
3/12/2021 6:15:00 AM 9.73 49.514 0.159 7.15 224 10.71
3/12/2021 6:30:00 AM 9.69 49.442 0.159 7.16 187.4 10.73
3/12/2021 6:45:00 AM 9.64 49.352 0.159 7.15 137.4 10.76
3/12/2021 7:00:00 AM 9.61 49.298 0.159 7.15 157 10.8
3/12/2021 7:15:00 AM 9.59 49.262 0.159 7.16 200.9 10.81
3/12/2021 7:30:00 AM 9.57 49.226 0.159 7.16 159.5 10.85
3/12/2021 7:45:00 AM 9.56 49.208 0.159 7.16 126.9 10.91
3/12/2021 8:00:00 AM 9.55 49.19 0.159 7.16 144.5 10.95
3/12/2021 8:15:00 AM 9.56 49.208 0.159 7.17 144.5 11.02
3/12/2021 8:30:00 AM 9.57 49.226 0.159 7.17 121.1 11.1
3/12/2021 8:45:00 AM 9.58 49.244 0.159 7.17 129.7 11.12
3/12/2021 9:00:00 AM 9.59 49.262 0.159 7.18 162 11.13
3/12/2021 9:15:00 AM 9.6 49.28 0.159 7.16 145.4 11.14
3/12/2021 9:30:00 AM 9.63 49.334 0.159 7.16 115.9 11.15
3/12/2021 9:45:00 AM 9.66 49.388 0.159 7.16 115.6 11.19
3/12/2021 10:00:00 AM 9.68 49.424 0.159 7.17 116.6 11.25
3/12/2021 10:15:00 AM 9.69 49.442 0.159 7.18 133.9 11.25
3/12/2021 10:30:00 AM 9.72 49.496 0.159 7.18 144 11.28
3/12/2021 10:45:00 AM 9.76 49.568 0.159 7.18 121.6 11.35
3/12/2021 11:00:00 AM 9.82 49.676 0.158 7.19 118.9 11.4
3/12/2021 11:15:00 AM 9.9 49.82 0.159 7.2 124.3 11.43
3/12/2021 11:30:00 AM 10.1 50.18 0.158 7.2 131.1 11.5
3/12/2021 11:45:00 AM 10.19 50.342 0.158 7.21 115.4 11.52
3/12/2021 12:00:00 PM 10.32 50.576 0.158 7.21 141.5 11.51
3/12/2021 12:15:00 PM 10.54 50.972 0.158 7.22 168.9 11.52
3/12/2021 12:30:00 PM 10.78 51.404 0.158 7.22 122.2 11.52
3/12/2021 12:45:00 PM 10.99 51.782 0.158 7.23 129.6 11.52
3/12/2021 1:00:00 PM 11.24 52.232 0.158 7.23 166.1 11.5
3/12/2021 1:15:00 PM 11.5 52.7 0.158 7.24 129.7 11.49
3/12/2021 1:30:00 PM 11.74 53.132 0.158 7.24 152.1 11.45
3/12/2021 1:45:00 PM 11.95 53.51 0.158 7.23 118.2 11.41
3/12/2021 2:00:00 PM 12.09 53.762 0.158 7.24 100.1 11.39
3/12/2021 2:15:00 PM 12.15 53.87 0.158 7.25 120.5 11.35
3/12/2021 2:30:00 PM 12.24 54.032 0.157 7.25 113.3 11.32
3/12/2021 2:45:00 PM 12.35 54.23 0.157 7.26 154.7 11.27
3/12/2021 3:00:00 PM 12.43 54.374 0.157 7.28 144.6 11.23
3/12/2021 3:15:00 PM 12.46 54.428 0.157 7.27 190.9 11.19
3/12/2021 3:30:00 PM 12.45 54.41 0.157 7.28 131.7 11.15
3/12/2021 3:45:00 PM 12.41 54.338 0.157 7.29 126.8 11.1
3/12/2021 4:00:00 PM 12.38 54.284 0.157 7.3 126.3 11.08
3/12/2021 4:15:00 PM 12.34 54.212 0.157 7.3 147.7 11.05
3/12/2021 4:30:00 PM 12.27 54.086 0.157 7.31 140.7 10.97
3/12/2021 4:45:00 PM 12.19 53.942 0.157 7.33 74.09 10.89
3/12/2021 5:00:00 PM 12.12 53.816 0.157 7.34 101.9 10.83
3/12/2021 5:15:00 PM 12.01 53.618 0.157 7.34 108 10.78
3/12/2021 5:30:00 PM 11.94 53.492 0.157 7.32 99.67 10.73
3/12/2021 5:45:00 PM 11.87 53.366 0.157 7.32 96.86 10.69
3/12/2021 6:00:00 PM 11.83 53.294 0.157 7.32 142.4 10.63
3/12/2021 6:15:00 PM 11.79 53.222 0.157 7.31 92.56 10.56
3/12/2021 6:30:00 PM 11.74 53.132 0.157 7.32 85.64 10.49
3/12/2021 6:45:00 PM 11.68 53.024 0.157 7.32 366.5 10.47
3/12/2021 7:00:00 PM 11.62 52.916 0.158 7.32 102.3 10.42
3/12/2021 7:15:00 PM 11.56 52.808 0.158 7.31 133.8 10.38
3/12/2021 7:30:00 PM 11.49 52.682 0.158 7.3 112.6 10.38
3/12/2021 7:45:00 PM 11.44 52.592 0.158 7.3 95.84 10.36
3/12/2021 8:00:00 PM 11.37 52.466 0.158 7.3 161.3 10.35
3/12/2021 8:15:00 PM 11.31 52.358 0.157 7.29 106.4 10.33
3/12/2021 8:30:00 PM 11.24 52.232 0.157 7.29 134.9 10.34
3/12/2021 8:45:00 PM 11.18 52.124 0.158 7.29 68.07 10.34
3/12/2021 9:00:00 PM 11.12 52.016 0.158 7.27 117.6 10.33
3/12/2021 9:15:00 PM 11.06 51.908 0.158 7.27 109 10.33
3/12/2021 9:30:00 PM 10.99 51.782 0.158 7.27 101 10.33
3/12/2021 9:45:00 PM 10.93 51.674 0.158 7.27 102.9 10.35
3/12/2021 10:00:00 PM 10.87 51.566 0.158 7.26 113.9 10.35
3/12/2021 10:15:00 PM 10.8 51.44 0.158 7.26 85.81 10.36
3/12/2021 10:30:00 PM 10.74 51.332 0.158 7.25 90.41 10.36
3/12/2021 10:45:00 PM 10.68 51.224 0.158 7.24 101.7 10.37
3/12/2021 11:00:00 PM 10.62 51.116 0.158 7.24 98.37 10.39
3/12/2021 11:15:00 PM 10.56 51.008 0.158 7.24 96.82 10.41
3/12/2021 11:30:00 PM 10.49 50.882 0.158 7.24 82.04 10.42
3/12/2021 11:45:00 PM 10.43 50.774 0.158 7.24 106.1 10.45
3/13/2021 12:00:00 AM 10.35 50.63 0.158 7.23 89.53 10.47
3/13/2021 12:15:00 AM 10.26 50.468 0.158 7.24 86.55 10.48
3/13/2021 12:30:00 AM 10.18 50.324 0.158 7.22 83.78 10.52
3/13/2021 12:45:00 AM 10.09 50.162 0.158 7.22 122.9 10.53
3/13/2021 1:00:00 AM 10 50 0.158 7.23 126.7 10.57
3/13/2021 1:15:00 AM 9.91 49.838 0.158 7.23 104.4 10.6
3/13/2021 1:30:00 AM 9.82 49.676 0.158 7.22 103.1 10.63
3/13/2021 1:45:00 AM 9.73 49.514 0.158 7.21 119.9 10.65
3/13/2021 2:00:00 AM 9.64 49.352 0.158 7.21 127.5 10.68
3/13/2021 2:15:00 AM 9.56 49.208 0.158 7.22 105.3 10.72
3/13/2021 2:30:00 AM 9.48 49.064 0.158 7.22 77.91 10.73
3/13/2021 2:45:00 AM 9.4 48.92 0.158 7.22 81.41 10.77
3/13/2021 3:00:00 AM 9.31 48.758 0.158 7.22 93.31 10.81
3/13/2021 3:15:00 AM 9.22 48.596 0.158 7.22 104.5 10.82
3/13/2021 3:30:00 AM 9.12 48.416 0.158 7.21 87.81 10.86
3/13/2021 3:45:00 AM 9.03 48.254 0.159 7.22 78.32 10.9
3/13/2021 4:00:00 AM 8.93 48.074 0.159 7.23 101.2 10.91
3/13/2021 4:15:00 AM 8.84 47.912 0.159 7.23 118.4 10.96
3/13/2021 4:30:00 AM 8.75 47.75 0.159 7.23 97.9 10.99
3/13/2021 4:45:00 AM 8.65 47.57 0.159 7.23 119 11.02
3/13/2021 5:00:00 AM 8.55 47.39 0.159 7.24 73.92 11.04
3/13/2021 5:15:00 AM 8.45 47.21 0.159 7.24 78.31 11.07
3/13/2021 5:30:00 AM 8.35 47.03 0.159 7.23 83.73 11.1
3/13/2021 5:45:00 AM 8.25 46.85 0.159 7.24 83.67 11.15
3/13/2021 6:00:00 AM 8.15 46.67 0.159 7.23 91.58 11.18
3/13/2021 6:15:00 AM 8.05 46.49 0.159 7.24 91.05 11.22
3/13/2021 6:30:00 AM 7.94 46.292 0.159 7.24 92.8 11.26
3/13/2021 6:45:00 AM 7.83 46.094 0.159 7.24 96.09 11.3
3/13/2021 7:00:00 AM 7.74 45.932 0.159 7.23 98.24 11.36
3/13/2021 7:15:00 AM 7.64 45.752 0.159 7.24 84.1 11.43
3/13/2021 7:30:00 AM 7.54 45.572 0.159 7.23 84.25 11.49
3/13/2021 7:45:00 AM 7.45 45.41 0.159 7.23 84.07 11.55
3/13/2021 8:00:00 AM 7.36 45.248 0.159 7.24 86.74 11.61
3/13/2021 8:15:00 AM 7.28 45.104 0.159 7.24 91.33 11.68
3/13/2021 8:30:00 AM 7.2 44.96 0.159 7.24 496.5 11.73
3/13/2021 8:45:00 AM 7.15 44.87 0.159 7.25 88.75 11.84
3/13/2021 9:00:00 AM 7.11 44.798 0.159 7.25 91.35 11.88
3/13/2021 9:15:00 AM 7.09 44.762 0.159 7.26 93.01 11.95
3/13/2021 9:30:00 AM 7.11 44.798 0.159 7.27 91.38 12.03
3/13/2021 9:45:00 AM 7.18 44.924 0.159 7.27 77.97 12.1
3/13/2021 10:00:00 AM 7.27 45.086 0.159 7.28 76.14 12.15
3/13/2021 10:15:00 AM 7.4 45.32 0.158 7.27 79.97 12.17
3/13/2021 10:30:00 AM 7.53 45.554 0.159 7.28 85.36 12.21
3/13/2021 10:45:00 AM 7.69 45.842 0.159 7.27 82.97 12.24
3/13/2021 11:00:00 AM 7.9 46.22 0.159 7.27 109.4 12.25
3/13/2021 11:15:00 AM 8.13 46.634 0.158 7.26 85.23 12.25
3/13/2021 11:30:00 AM 8.39 47.102 0.158 7.27 72.96 12.23
3/13/2021 11:45:00 AM 8.65 47.57 0.158 7.28 78.84 12.22
3/13/2021 12:00:00 PM 8.9 48.02 0.158 7.28 85.08 12.19
3/13/2021 12:15:00 PM 9.12 48.416 0.158 7.29 89.06 12.18
3/13/2021 12:30:00 PM 9.35 48.83 0.158 7.3 86.74 12.15
3/13/2021 12:45:00 PM 9.58 49.244 0.158 7.3 73.55 12.09
3/13/2021 1:00:00 PM 9.79 49.622 0.158 7.3 71.81 12.08
3/13/2021 1:15:00 PM 9.98 49.964 0.158 7.31 83.58 12.05
3/13/2021 1:30:00 PM 10.12 50.216 0.158 7.3 90.75 12.03
3/13/2021 1:45:00 PM 10.23 50.414 0.158 7.31 82.75 11.99
3/13/2021 2:00:00 PM 10.28 50.504 0.158 7.32 85.11 11.97
3/13/2021 2:15:00 PM 10.31 50.558 0.158 7.32 92.87 11.93
3/13/2021 2:30:00 PM 10.34 50.612 0.158 7.33 77.61 11.89
3/13/2021 2:45:00 PM 10.36 50.648 0.158 7.33 74.77 11.86
3/13/2021 3:00:00 PM 10.33 50.594 0.158 7.33 69.66 11.82
3/13/2021 3:15:00 PM 10.31 50.558 0.158 7.35 76.12 11.79
3/13/2021 3:30:00 PM 10.27 50.486 0.158 7.35 70.8 11.73
3/13/2021 3:45:00 PM 10.21 50.378 0.158 7.35 85.67 11.71
3/13/2021 4:00:00 PM 10.12 50.216 0.157 7.35 82.28 11.67
3/13/2021 4:15:00 PM 10.02 50.036 0.157 7.36 78.14 11.63
3/13/2021 4:30:00 PM 9.92 49.856 0.157 7.36 71.47 11.58
3/13/2021 4:45:00 PM 9.84 49.712 0.157 7.37 80.45 11.52
3/13/2021 5:00:00 PM 9.75 49.55 0.157 7.37 74.04 11.48
3/13/2021 5:15:00 PM 9.65 49.37 0.157 7.37 79.77 11.45
3/13/2021 5:30:00 PM 9.56 49.208 0.157 7.37 62.64 11.43
3/13/2021 5:45:00 PM 9.47 49.046 0.157 7.37 76.2 11.39
3/13/2021 6:00:00 PM 9.39 48.902 0.158 7.37 63.55 11.35
3/13/2021 6:15:00 PM 9.31 48.758 0.158 7.37 49.35 11.27
3/13/2021 6:30:00 PM 9.25 48.65 0.158 7.36 90.09 11.24
3/13/2021 6:45:00 PM 9.18 48.524 0.158 7.37 36.46 11.19
3/13/2021 7:00:00 PM 9.13 48.434 0.158 7.36 61.28 11.14
3/13/2021 7:15:00 PM 9.06 48.308 0.158 7.36 50.92 11.12
3/13/2021 7:30:00 PM 8.98 48.164 0.158 7.34 83.34 11.1
3/13/2021 7:45:00 PM 8.9 48.02 0.158 7.35 77.1 11.09
3/13/2021 8:00:00 PM 8.82 47.876 0.158 7.34 77.62 11.1
3/13/2021 8:15:00 PM 8.73 47.714 0.158 7.34 72.56 11.09
3/13/2021 8:30:00 PM 8.64 47.552 0.158 7.34 65.83 11.1
3/13/2021 8:45:00 PM 8.55 47.39 0.158 7.34 62.81 11.11
3/13/2021 9:00:00 PM 8.46 47.228 0.158 7.34 81.38 11.11
3/13/2021 9:15:00 PM 8.37 47.066 0.158 7.33 99.31 11.13
3/13/2021 9:30:00 PM 8.29 46.922 0.158 7.33 74.44 11.14
3/13/2021 9:45:00 PM 8.2 46.76 0.158 7.31 74.77 11.14
3/13/2021 10:00:00 PM 8.12 46.616 0.159 7.32 73.34 11.17
3/13/2021 10:15:00 PM 8.05 46.49 0.158 7.32 72.51 11.18
3/13/2021 10:30:00 PM 7.97 46.346 0.158 7.31 41.01 11.19
3/13/2021 10:45:00 PM 7.9 46.22 0.158 7.29 37.27 11.21
3/13/2021 11:00:00 PM 7.83 46.094 0.158 7.29 53.79 11.24
3/13/2021 11:15:00 PM 7.77 45.986 0.159 7.3 61.26 11.25
3/13/2021 11:30:00 PM 7.7 45.86 0.158 7.29 44.31 11.26
3/13/2021 11:45:00 PM 7.63 45.734 0.158 7.29 46.31 11.28
3/14/2021 12:00:00 AM 7.56 45.608 0.158 7.28 55.31 11.29
3/14/2021 12:15:00 AM 7.49 45.482 0.158 7.29 41.39 11.32
3/14/2021 12:30:00 AM 7.42 45.356 0.158 7.27 54.38 11.35
3/14/2021 12:45:00 AM 7.35 45.23 0.158 7.27 36.64 11.36
3/14/2021 1:00:00 AM 7.27 45.086 0.158 7.27 50.59 11.39
3/14/2021 1:15:00 AM 7.2 44.96 0.158 7.27 51.82 11.42
3/14/2021 1:30:00 AM 7.12 44.816 0.159 7.27 21.32 11.45
3/14/2021 1:45:00 AM 7.05 44.69 0.159 7.26 45.95 11.48
3/14/2021 3:00:00 AM 6.68 44.024 0.159 7.26 29.65 11.61
3/14/2021 3:15:00 AM 6.6 43.88 0.159 7.27 27.65 11.64
3/14/2021 3:30:00 AM 6.53 43.754 0.159 7.27 24.45 11.67
3/14/2021 3:45:00 AM 6.45 43.61 0.159 7.27 25.17 11.7
3/14/2021 4:00:00 AM 6.38 43.484 0.159 7.27 53.37 11.71
3/14/2021 4:15:00 AM 6.31 43.358 0.159 7.26 25.49 11.73
3/14/2021 4:30:00 AM 6.24 43.232 0.159 7.26 29.54 11.78
3/14/2021 4:45:00 AM 6.17 43.106 0.16 7.26 43.69 11.8
3/14/2021 5:00:00 AM 6.1 42.98 0.16 7.27 24.66 11.83
3/14/2021 5:15:00 AM 6.02 42.836 0.16 7.26 61.34 11.87
3/14/2021 5:30:00 AM 5.95 42.71 0.16 7.26 22.33 11.88
3/14/2021 5:45:00 AM 5.88 42.584 0.16 7.26 23.2 11.91
3/14/2021 6:00:00 AM 5.81 42.458 0.16 7.26 9.36 11.94
3/14/2021 6:15:00 AM 5.74 42.332 0.16 7.26 11.36 11.96
3/14/2021 6:30:00 AM 5.67 42.206 0.16 7.26 14.31 12
3/14/2021 6:45:00 AM 5.61 42.098 0.16 7.25 7.59 12.03
3/14/2021 7:00:00 AM 5.55 41.99 0.16 7.25 38.96 12.08
3/14/2021 7:15:00 AM 5.5 41.9 0.16 7.26 13.31 12.11
3/14/2021 7:30:00 AM 5.45 41.81 0.16 7.26 10.15 12.17
3/14/2021 7:45:00 AM 5.41 41.738 0.16 7.26 9 12.24
3/14/2021 8:00:00 AM 5.39 41.702 0.159 7.26 6.64 12.28
3/14/2021 8:15:00 AM 5.37 41.666 0.159 7.26 9.72 12.33
3/14/2021 8:30:00 AM 5.37 41.666 0.159 7.26 14.02 12.38
3/14/2021 8:45:00 AM 5.38 41.684 0.159 7.27 9.98 12.44
3/14/2021 9:00:00 AM 5.42 41.756 0.159 7.28 10.29 12.47
3/14/2021 9:15:00 AM 5.46 41.828 0.159 7.28 13.86 12.53
3/14/2021 9:30:00 AM 5.55 41.99 0.159 7.28 11.09 12.55
3/14/2021 9:45:00 AM 5.68 42.224 0.159 7.28 11.14 12.59
3/14/2021 10:00:00 AM 5.84 42.512 0.159 7.28 8.04 12.62
3/14/2021 10:15:00 AM 6.03 42.854 0.159 7.28 8.14 12.63
3/14/2021 10:30:00 AM 6.23 43.214 0.159 7.29 10.06 12.64
3/14/2021 10:45:00 AM 6.45 43.61 0.158 7.29 8.66 12.62
3/14/2021 11:00:00 AM 6.71 44.078 0.158 7.29 11.51 12.62
3/14/2021 11:15:00 AM 7.01 44.618 0.158 7.27 16.43 12.58
3/14/2021 11:30:00 AM 7.27 45.086 0.158 7.28 24.58 12.56
3/14/2021 11:45:00 AM 7.53 45.554 0.158 7.29 7.56 12.51
3/14/2021 12:00:00 PM 7.83 46.094 0.158 7.28 10.49 12.46
3/14/2021 12:15:00 PM 8.11 46.598 0.158 7.27 38.07 12.41
3/14/2021 12:30:00 PM 8.4 47.12 0.158 7.28 13.58 12.36
3/14/2021 12:45:00 PM 8.67 47.606 0.158 7.28 12.96 12.32
3/14/2021 1:00:00 PM 8.92 48.056 0.158 7.28 17.51 12.26
3/14/2021 1:15:00 PM 9.16 48.488 0.158 7.3 19.27 12.22
3/14/2021 1:30:00 PM 9.33 48.794 0.158 7.31 23.02 12.18
3/14/2021 1:45:00 PM 9.51 49.118 0.158 7.3 13.08 12.12
3/14/2021 2:00:00 PM 9.59 49.262 0.158 7.31 12.22 12.07
3/14/2021 2:15:00 PM 9.65 49.37 0.158 7.31 16.47 12.01
3/14/2021 2:30:00 PM 9.72 49.496 0.158 7.3 22.36 11.98
3/14/2021 2:45:00 PM 9.78 49.604 0.158 7.31 9.66 11.91
3/14/2021 3:00:00 PM 9.8 49.64 0.158 7.31 16.94 11.88
3/14/2021 3:15:00 PM 9.78 49.604 0.158 7.34 19.47 11.82
3/14/2021 3:30:00 PM 9.77 49.586 0.158 7.33 21.8 11.78
3/14/2021 3:45:00 PM 9.76 49.568 0.158 7.34 8.72 11.74
3/14/2021 4:00:00 PM 9.65 49.37 0.158 7.33 12.02 11.68
3/14/2021 4:15:00 PM 9.58 49.244 0.158 7.35 16.51 11.62
3/14/2021 4:30:00 PM 9.49 49.082 0.158 7.36 9.01 11.58
3/14/2021 4:45:00 PM 9.4 48.92 0.158 7.35 30.73 11.53
3/14/2021 5:00:00 PM 9.32 48.776 0.158 7.35 19.78 11.5
3/14/2021 5:15:00 PM 9.23 48.614 0.158 7.36 17.93 11.44
3/14/2021 5:30:00 PM 9.12 48.416 0.158 7.37 17.68 11.4
3/14/2021 5:45:00 PM 9.03 48.254 0.158 7.38 14.21 11.37
3/14/2021 6:00:00 PM 8.94 48.092 0.158 7.38 12.11 11.33
3/14/2021 6:15:00 PM 8.85 47.93 0.158 7.37 44.48 11.3
3/14/2021 6:30:00 PM 8.77 47.786 0.158 7.37 17.63 11.25
3/14/2021 6:45:00 PM 8.7 47.66 0.158 7.37 12.61 11.2
3/14/2021 7:00:00 PM 8.64 47.552 0.158 7.37 43.45 11.18
3/14/2021 7:15:00 PM 8.59 47.462 0.158 7.36 14.82 11.16
3/14/2021 7:30:00 PM 8.53 47.354 0.158 7.36 13.88 11.15
3/14/2021 7:45:00 PM 8.48 47.264 0.158 7.35 20.44 11.15
3/14/2021 8:00:00 PM 8.43 47.174 0.158 7.35 382.9 11.13
3/14/2021 8:15:00 PM 8.36 47.048 0.158 7.34 6.13 11.14
3/14/2021 8:30:00 PM 8.29 46.922 0.158 7.35 27.63 11.14
3/14/2021 8:45:00 PM 8.22 46.796 0.158 7.34 10.45 11.15
3/14/2021 9:00:00 PM 8.15 46.67 0.158 7.34 14.87 11.17
3/14/2021 9:15:00 PM 8.07 46.526 0.158 7.35 9.89 11.18
3/14/2021 9:30:00 PM 7.98 46.364 0.158 7.34 9.5 11.18
3/14/2021 9:45:00 PM 7.89 46.202 0.158 7.34 16.67 11.21
3/14/2021 10:00:00 PM 7.81 46.058 0.158 7.33 25.27 11.23
3/14/2021 10:15:00 PM 7.74 45.932 0.158 7.33 19 11.25
3/14/2021 10:30:00 PM 7.65 45.77 0.158 7.34 16.12 11.26
3/14/2021 10:45:00 PM 7.57 45.626 0.158 7.33 20 11.28
3/14/2021 11:00:00 PM 7.49 45.482 0.158 7.32 13.78 11.32
3/14/2021 11:15:00 PM 7.43 45.374 0.158 7.33 13.44 11.33
3/14/2021 11:30:00 PM 7.36 45.248 0.159 7.3 22.12 11.35
3/14/2021 11:45:00 PM 7.28 45.104 0.159 7.31 15.11 11.39
3/15/2021 12:00:00 AM 7.19 44.942 0.159 7.31 14.55 11.4
3/15/2021 12:15:00 AM 7.11 44.798 0.159 7.31 13.94 11.44
3/15/2021 12:30:00 AM 7.03 44.654 0.159 7.3 14.19 11.46
3/15/2021 12:45:00 AM 6.93 44.474 0.159 7.3 16.23 11.49
3/15/2021 1:00:00 AM 6.85 44.33 0.159 7.29 28.9 11.52
3/15/2021 1:15:00 AM 6.76 44.168 0.159 7.29 22.8 11.57
3/15/2021 1:30:00 AM 6.67 44.006 0.159 7.29 13.51 11.59
3/15/2021 1:45:00 AM 6.58 43.844 0.159 7.3 12.93 11.63
3/15/2021 2:00:00 AM 6.47 43.646 0.159 7.29 25.18 11.67
3/15/2021 2:15:00 AM 6.38 43.484 0.159 7.29 12.63 11.71
3/15/2021 2:30:00 AM 6.28 43.304 0.159 7.29 12.24 11.73
3/15/2021 2:45:00 AM 6.18 43.124 0.159 7.29 15.13 11.76
3/15/2021 3:00:00 AM 6.09 42.962 0.159 7.3 19.48 11.81
3/15/2021 3:15:00 AM 5.99 42.782 0.16 7.29 16.16 11.86
3/15/2021 3:30:00 AM 5.88 42.584 0.16 7.3 25.3 11.88
3/15/2021 3:45:00 AM 5.79 42.422 0.16 7.29 22.98 11.93
3/15/2021 4:00:00 AM 5.69 42.242 0.16 7.29 21.68 11.98
3/15/2021 4:15:00 AM 5.58 42.044 0.16 7.29 21.22 12.01
3/15/2021 4:30:00 AM 5.49 41.882 0.16 7.3 14.44 12.05
3/15/2021 4:45:00 AM 5.39 41.702 0.16 7.29 14.3 12.09
3/15/2021 5:00:00 AM 5.31 41.558 0.16 7.3 20.86 12.11
3/15/2021 5:15:00 AM 5.21 41.378 0.16 7.29 11.15 12.17
3/15/2021 5:30:00 AM 5.12 41.216 0.16 7.29 14.8 12.2
3/15/2021 5:45:00 AM 5.04 41.072 0.16 7.29 19.1 12.26
3/15/2021 6:00:00 AM 4.95 40.91 0.16 7.29 26.74 12.29
3/15/2021 6:15:00 AM 4.85 40.73 0.16 7.29 22.2 12.32
3/15/2021 6:30:00 AM 4.76 40.568 0.16 7.29 12.17 12.39
3/15/2021 6:45:00 AM 4.68 40.424 0.16 7.29 44.61 12.42
3/15/2021 7:00:00 AM 4.59 40.262 0.16 7.29 45.1 12.46
3/15/2021 7:15:00 AM 4.5 40.1 0.16 7.29 58 12.54
3/15/2021 7:30:00 AM 4.42 39.956 0.16 7.29 82.23 12.61
3/15/2021 7:45:00 AM 4.34 39.812 0.16 7.29 21.39 12.66
3/15/2021 8:00:00 AM 4.26 39.668 0.16 7.3 37.61 12.74
3/15/2021 8:15:00 AM 4.17 39.506 0.16 7.31 34.91 12.81
3/15/2021 8:30:00 AM 4.11 39.398 0.16 7.31 19.35 12.87
3/15/2021 9:45:00 AM 4.07 39.326 0.16 7.31 18.28 12.93
3/15/2021 10:00:00 AM 4.04 39.272 0.16 7.32 60.37 12.99
3/15/2021 10:15:00 AM 4.04 39.272 0.16 7.32 30.55 13.06
3/15/2021 10:30:00 AM 4.08 39.344 0.16 7.33 67.35 13.12
3/15/2021 10:45:00 AM 4.16 39.488 0.16 7.32 10.81 13.16
3/15/2021 11:00:00 AM 4.28 39.704 0.16 7.31 40.17 13.19
3/15/2021 11:15:00 AM 4.43 39.974 0.16 7.32 19.26 13.22
3/15/2021 11:30:00 AM 4.57 40.226 0.16 7.32 29.67 13.25
3/15/2021 11:45:00 AM 4.78 40.604 0.16 7.32 40.17 13.24
3/15/2021 12:00:00 PM 4.99 40.982 0.159 7.32 31.28 13.23
3/15/2021 12:15:00 PM 5.22 41.396 0.159 7.33 17.36 13.23
3/15/2021 12:30:00 PM 5.51 41.918 0.159 7.32 33.89 13.2
3/15/2021 12:45:00 PM 5.78 42.404 0.159 7.33 26.55 13.17
3/15/2021 1:00:00 PM 6.05 42.89 0.159 7.32 25.95 13.12
3/15/2021 1:15:00 PM 6.28 43.304 0.159 7.33 15.05 13.08
3/15/2021 1:30:00 PM 6.53 43.754 0.159 7.32 27.25 13.04
3/15/2021 1:45:00 PM 6.76 44.168 0.159 7.33 21.23 13.01
3/15/2021 2:00:00 PM 6.99 44.582 0.159 7.32 67.5 12.97
3/15/2021 2:15:00 PM 7.22 44.996 0.159 7.33 34.33 12.92
3/15/2021 2:30:00 PM 7.41 45.338 0.158 7.34 26.6 12.87
3/15/2021 2:45:00 PM 7.52 45.536 0.158 7.34 31.91 12.85
3/15/2021 3:00:00 PM 7.58 45.644 0.158 7.34 18.01 12.81
3/15/2021 3:15:00 PM 7.61 45.698 0.158 7.33 35.43 12.76
3/15/2021 3:30:00 PM 7.64 45.752 0.158 7.34 72.44 12.74
3/15/2021 3:45:00 PM 7.68 45.824 0.158 7.35 22.61 12.68
3/15/2021 4:00:00 PM 7.67 45.806 0.158 7.35 23.34 12.65
3/15/2021 4:15:00 PM 7.67 45.806 0.158 7.36 22.98 12.63
3/15/2021 4:30:00 PM 7.61 45.698 0.158 7.36 19.63 12.6
3/15/2021 4:45:00 PM 7.52 45.536 0.158 7.36 73.44 12.55
3/15/2021 5:00:00 PM 7.44 45.392 0.158 7.37 11.95 12.53
3/15/2021 5:15:00 PM 7.34 45.212 0.158 7.38 13.08 12.48
3/15/2021 5:30:00 PM 7.26 45.068 0.158 7.38 23.74 12.45
3/15/2021 5:45:00 PM 7.19 44.942 0.158 7.38 16.08 12.43
3/15/2021 6:00:00 PM 7.11 44.798 0.158 7.38 33.26 12.4
3/15/2021 6:15:00 PM 7.03 44.654 0.158 7.39 19.52 12.36
3/15/2021 6:30:00 PM 6.93 44.474 0.158 7.39 14.08 12.35
3/15/2021 6:45:00 PM 6.82 44.276 0.158 7.39 23.21 12.31
3/15/2021 7:00:00 PM 6.74 44.132 0.158 7.4 25.33 12.26
3/15/2021 7:15:00 PM 6.65 43.97 0.158 7.39 41.46 12.21
3/15/2021 7:30:00 PM 6.58 43.844 0.158 7.39 38.13 12.17
3/15/2021 7:45:00 PM 6.53 43.754 0.158 7.39 40.19 12.13
3/15/2021 8:00:00 PM 6.48 43.664 0.158 7.39 23.86 12.09
3/15/2021 8:15:00 PM 6.44 43.592 0.158 7.38 38.11 12.05
3/15/2021 8:30:00 PM 6.4 43.52 0.158 7.38 33.4 12.02
3/15/2021 8:45:00 PM 6.36 43.448 0.158 7.37 17.21 12.03
3/15/2021 9:00:00 PM 6.32 43.376 0.158 7.36 44.4 12.01
3/15/2021 9:15:00 PM 6.27 43.286 0.158 7.37 12.6 12.01
3/15/2021 9:30:00 PM 6.23 43.214 0.159 7.36 20.6 12
3/15/2021 9:45:00 PM 6.18 43.124 0.159 7.35 65.33 12.01
3/15/2021 10:00:00 PM 6.14 43.052 0.159 7.35 29.17 12.01
3/15/2021 10:15:00 PM 6.1 42.98 0.159 7.34 28.29 12.02
3/15/2021 10:30:00 PM 6.07 42.926 0.159 7.34 7.87 12
3/15/2021 10:45:00 PM 6.04 42.872 0.159 7.34 19.72 12
3/15/2021 11:00:00 PM 6.01 42.818 0.159 7.34 30.53 12.01
3/15/2021 11:15:00 PM 5.99 42.782 0.159 7.33 31.4 12.02
3/15/2021 11:30:00 PM 5.96 42.728 0.159 7.33 24.46 12.01
3/15/2021 11:45:00 PM 5.95 42.71 0.159 7.32 30.71 12.01
3/16/2021 12:00:00 AM 5.94 42.692 0.159 7.32 17.03 12.02
3/16/2021 12:15:00 AM 5.92 42.656 0.159 7.33 20.01 12.02
3/16/2021 12:30:00 AM 5.91 42.638 0.159 7.31 38.61 12.01
3/16/2021 12:45:00 AM 5.9 42.62 0.159 7.31 18.15 12.02
3/16/2021 1:00:00 AM 5.88 42.584 0.159 7.31 23.35 12.01
3/16/2021 1:15:00 AM 5.86 42.548 0.159 7.3 22.73 12.02
3/16/2021 1:30:00 AM 5.85 42.53 0.16 7.3 64.01 12.02
3/16/2021 1:45:00 AM 5.82 42.476 0.159 7.3 25.5 12.03
3/16/2021 2:00:00 AM 5.8 42.44 0.159 7.29 15.97 12.05
3/16/2021 2:15:00 AM 5.77 42.386 0.159 7.29 24.16 12.05
3/16/2021 2:30:00 AM 5.74 42.332 0.159 7.29 24.37 12.05
3/16/2021 2:45:00 AM 5.71 42.278 0.159 7.3 31.51 12.07
3/16/2021 3:00:00 AM 5.68 42.224 0.159 7.3 17.43 12.08
3/16/2021 3:15:00 AM 5.65 42.17 0.159 7.3 35.49 12.09
3/16/2021 3:30:00 AM 5.62 42.116 0.159 7.3 24.31 12.11
3/16/2021 3:45:00 AM 5.6 42.08 0.159 7.29 15.2 12.12
3/16/2021 4:00:00 AM 5.56 42.008 0.159 7.28 18.82 12.13
3/16/2021 4:15:00 AM 5.53 41.954 0.16 7.28 16.28 12.15
3/16/2021 4:30:00 AM 5.49 41.882 0.16 7.29 15.79 12.15
3/16/2021 4:45:00 AM 5.47 41.846 0.16 7.29 18.95 12.17
3/16/2021 5:00:00 AM 5.44 41.792 0.16 7.27 30.87 12.18
3/16/2021 5:15:00 AM 5.41 41.738 0.16 7.27 23.62 12.18
3/16/2021 5:30:00 AM 5.38 41.684 0.16 7.27 22.43 12.22
3/16/2021 5:45:00 AM 5.35 41.63 0.16 7.27 37.38 12.22
3/16/2021 6:00:00 AM 5.32 41.576 0.16 7.27 29.92 12.23
3/16/2021 6:15:00 AM 5.28 41.504 0.16 7.27 18.84 12.24
3/16/2021 6:30:00 AM 5.25 41.45 0.16 7.26 14.66 12.26
3/16/2021 6:45:00 AM 5.22 41.396 0.16 7.26 23.65 12.27
3/16/2021 7:00:00 AM 5.19 41.342 0.16 7.27 32.05 12.27
3/16/2021 7:15:00 AM 5.16 41.288 0.16 7.27 14.19 12.28
3/16/2021 7:30:00 AM 5.12 41.216 0.16 7.27 18.09 12.29
3/16/2021 7:45:00 AM 5.09 41.162 0.16 7.26 22.95 12.34
3/16/2021 8:00:00 AM 5.06 41.108 0.16 7.26 17.74 12.34
3/16/2021 8:15:00 AM 5.03 41.054 0.16 7.27 17.4 12.37
3/16/2021 8:30:00 AM 5.01 41.018 0.16 7.26 19.97 12.41
3/16/2021 8:45:00 AM 4.99 40.982 0.16 7.27 23.43 12.45
3/16/2021 9:00:00 AM 4.98 40.964 0.16 7.27 14.67 12.49
3/16/2021 9:15:00 AM 4.97 40.946 0.16 7.28 16.93 12.56
3/16/2021 9:30:00 AM 4.96 40.928 0.16 7.27 13.32 12.6
3/16/2021 9:45:00 AM 4.96 40.928 0.16 7.27 15.16 12.67
3/16/2021 10:00:00 AM 4.96 40.928 0.16 7.29 20.82 12.7
3/16/2021 10:15:00 AM 4.96 40.928 0.16 7.3 23.84 12.74
3/16/2021 10:30:00 AM 4.99 40.982 0.16 7.3 15.5 12.81
3/16/2021 10:45:00 AM 5.01 41.018 0.16 7.28 12.62 12.84
3/16/2021 11:00:00 AM 5.06 41.108 0.16 7.29 19.67 12.87
3/16/2021 11:15:00 AM 5.11 41.198 0.16 7.29 25.67 12.91
3/16/2021 11:30:00 AM 5.15 41.27 0.16 7.3 12.54 12.94
3/16/2021 11:45:00 AM 5.17 41.306 0.16 7.3 17.46 12.94
3/16/2021 12:00:00 PM 5.2 41.36 0.16 7.3 12.8 12.94
3/16/2021 12:15:00 PM 5.24 41.432 0.16 7.3 22.27 12.97
3/16/2021 12:30:00 PM 5.29 41.522 0.16 7.31 22.53 12.97
3/16/2021 12:45:00 PM 5.35 41.63 0.16 7.31 29.59 12.98
3/16/2021 1:00:00 PM 5.41 41.738 0.16 7.32 15.48 12.98
3/16/2021 1:15:00 PM 5.45 41.81 0.16 7.31 11.47 12.98
3/16/2021 1:30:00 PM 5.48 41.864 0.16 7.32 30.1 12.97
3/16/2021 1:45:00 PM 5.51 41.918 0.16 7.33 19.45 12.96
3/16/2021 2:00:00 PM 5.55 41.99 0.16 7.34 12.57 12.95
3/16/2021 2:15:00 PM 5.58 42.044 0.16 7.34 18.79 12.96
3/16/2021 2:30:00 PM 5.6 42.08 0.16 7.34 15.58 12.94
3/16/2021 2:45:00 PM 5.6 42.08 0.159 7.35 17.18 12.92
3/16/2021 3:00:00 PM 5.62 42.116 0.159 7.36 11.07 12.89
3/16/2021 3:15:00 PM 5.62 42.116 0.159 7.36 19.64 12.86
3/16/2021 3:30:00 PM 5.63 42.134 0.159 7.35 29.45 12.85
3/16/2021 3:45:00 PM 5.63 42.134 0.159 7.37 8.76 12.84
3/16/2021 4:00:00 PM 5.63 42.134 0.159 7.37 18.24 12.81
3/16/2021 4:15:00 PM 5.64 42.152 0.159 7.36 32.35 12.79
3/16/2021 4:30:00 PM 5.68 42.224 0.159 7.37 9.97 12.81
3/16/2021 4:45:00 PM 5.7 42.26 0.159 7.38 18.29 12.82
3/16/2021 5:00:00 PM 5.71 42.278 0.159 7.38 17.57 12.78
3/16/2021 5:15:00 PM 5.7 42.26 0.159 7.39 10.74 12.77
3/16/2021 5:30:00 PM 5.7 42.26 0.159 7.38 28.4 12.71
3/16/2021 5:45:00 PM 5.69 42.242 0.159 7.39 11.81 12.7
3/16/2021 6:00:00 PM 5.69 42.242 0.159 7.39 19.48 12.67
3/16/2021 6:15:00 PM 5.68 42.224 0.159 7.39 27.75 12.64
3/16/2021 6:30:00 PM 5.68 42.224 0.159 7.39 23.96 12.6
3/16/2021 6:45:00 PM 5.67 42.206 0.159 7.38 44.44 12.54
3/16/2021 7:00:00 PM 5.66 42.188 0.159 7.39 17.88 12.51
3/16/2021 7:15:00 PM 5.65 42.17 0.159 7.38 13.58 12.45
3/16/2021 7:30:00 PM 5.64 42.152 0.159 7.39 21.46 12.42
3/16/2021 7:45:00 PM 5.63 42.134 0.159 7.38 12.36 12.37
3/16/2021 8:00:00 PM 5.62 42.116 0.159 7.37 13.13 12.34
3/16/2021 8:15:00 PM 5.61 42.098 0.159 7.35 21.2 12.33
3/16/2021 8:30:00 PM 5.6 42.08 0.159 7.36 10.57 12.3
3/16/2021 8:45:00 PM 5.59 42.062 0.159 7.35 10.49 12.28
3/16/2021 9:00:00 PM 5.58 42.044 0.159 7.37 12.61 12.27
3/16/2021 9:15:00 PM 5.57 42.026 0.159 7.35 25.54 12.27
3/16/2021 9:30:00 PM 5.57 42.026 0.159 7.33 19.77 12.25
3/16/2021 9:45:00 PM 5.56 42.008 0.159 7.34 11.95 12.24
3/16/2021 10:00:00 PM 5.56 42.008 0.159 7.34 35.7 12.23
3/16/2021 10:15:00 PM 5.56 42.008 0.159 7.32 11.98 12.2
3/16/2021 10:30:00 PM 5.55 41.99 0.159 7.32 21.88 12.21
3/16/2021 10:45:00 PM 5.55 41.99 0.159 7.33 15.43 12.19
3/16/2021 11:00:00 PM 5.55 41.99 0.159 7.32 24.33 12.19
3/16/2021 11:15:00 PM 5.55 41.99 0.159 7.32 10.23 12.19
3/16/2021 11:30:00 PM 5.55 41.99 0.159 7.32 18.77 12.18
3/16/2021 11:45:00 PM 5.55 41.99 0.159 7.32 39.03 12.16
3/17/2021 12:00:00 AM 5.55 41.99 0.159 7.31 20.24 12.17
3/17/2021 12:15:00 AM 5.55 41.99 0.159 7.31 16.69 12.16
3/17/2021 12:30:00 AM 5.55 41.99 0.159 7.3 17.69 12.16
3/17/2021 12:45:00 AM 5.55 41.99 0.159 7.3 12.83 12.15
3/17/2021 1:00:00 AM 5.55 41.99 0.159 7.3 24.65 12.14
3/17/2021 1:15:00 AM 5.55 41.99 0.159 7.3 13.39 12.15
3/17/2021 1:30:00 AM 5.55 41.99 0.159 7.29 22.72 12.14
3/17/2021 1:45:00 AM 5.55 41.99 0.159 7.29 17.62 12.14
3/17/2021 2:00:00 AM 5.55 41.99 0.159 7.28 20.05 12.15
3/17/2021 2:15:00 AM 5.55 41.99 0.159 7.29 23 12.15
3/17/2021 2:30:00 AM 5.55 41.99 0.159 7.29 45.08 12.14
3/17/2021 2:45:00 AM 5.55 41.99 0.16 7.28 19.41 12.14
3/17/2021 3:00:00 AM 5.55 41.99 0.16 7.28 22.39 12.13
3/17/2021 3:15:00 AM 5.55 41.99 0.16 7.28 21.01 12.13
3/17/2021 3:30:00 AM 5.54 41.972 0.16 7.29 33.66 12.15
3/17/2021 3:45:00 AM 5.54 41.972 0.16 7.27 27.89 12.14
3/17/2021 4:00:00 AM 5.54 41.972 0.16 7.28 29.7 12.14
3/17/2021 4:15:00 AM 5.54 41.972 0.16 7.29 13.83 12.14
3/17/2021 4:30:00 AM 5.53 41.954 0.16 7.27 18.22 12.15
3/17/2021 4:45:00 AM 5.53 41.954 0.16 7.26 20.67 12.14
3/17/2021 5:00:00 AM 5.53 41.954 0.16 7.27 43.99 12.15
3/17/2021 5:15:00 AM 5.52 41.936 0.16 7.26 50.5 12.15
3/17/2021 5:30:00 AM 5.52 41.936 0.16 7.26 19.62 12.15
3/17/2021 5:45:00 AM 5.52 41.936 0.16 7.27 14.37 12.16
3/17/2021 6:00:00 AM 5.51 41.918 0.16 7.26 30.8 12.16
3/17/2021 6:15:00 AM 5.5 41.9 0.16 7.27 13.7 12.15
3/17/2021 6:30:00 AM 5.5 41.9 0.16 7.27 11.94 12.15
3/17/2021 6:45:00 AM 5.49 41.882 0.16 7.26 16.94 12.16
3/17/2021 7:00:00 AM 5.49 41.882 0.16 7.26 18.1 12.17
3/17/2021 7:15:00 AM 5.48 41.864 0.16 7.26 18.91 12.18
3/17/2021 7:30:00 AM 5.48 41.864 0.16 7.26 32.04 12.17
3/17/2021 7:45:00 AM 5.48 41.864 0.16 7.24 34.78 12.18
3/17/2021 8:00:00 AM 5.48 41.864 0.16 7.25 28.7 12.21
3/17/2021 8:15:00 AM 5.49 41.882 0.16 7.24 37.29 12.22
3/17/2021 8:30:00 AM 5.5 41.9 0.16 7.25 25.1 12.27
3/17/2021 8:45:00 AM 5.51 41.918 0.16 7.24 17.28 12.29
3/17/2021 9:00:00 AM 5.52 41.936 0.16 7.25 24.9 12.34
3/17/2021 9:15:00 AM 5.53 41.954 0.16 7.25 41.19 12.35
3/17/2021 9:30:00 AM 5.55 41.99 0.16 7.26 36.27 12.4
3/17/2021 9:45:00 AM 5.57 42.026 0.16 7.26 25.75 12.45
3/17/2021 10:00:00 AM 5.6 42.08 0.16 7.28 14.68 12.48
3/17/2021 10:15:00 AM 5.64 42.152 0.16 7.27 12.36 12.52
3/17/2021 10:30:00 AM 5.68 42.224 0.16 7.27 13.2 12.56
3/17/2021 10:45:00 AM 5.73 42.314 0.16 7.26 18.91 12.58
3/17/2021 11:00:00 AM 5.78 42.404 0.16 7.27 23.29 12.62
3/17/2021 11:15:00 AM 5.84 42.512 0.16 7.27 31.81 12.64
3/17/2021 11:30:00 AM 5.91 42.638 0.159 7.28 9.74 12.65
3/17/2021 11:45:00 AM 5.98 42.764 0.159 7.28 43.63 12.66
3/17/2021 12:00:00 PM 6.05 42.89 0.159 7.3 13.34 12.67
3/17/2021 12:15:00 PM 6.13 43.034 0.159 7.3 27.92 12.69
3/17/2021 12:30:00 PM 6.22 43.196 0.159 7.29 18.52 12.67
3/17/2021 12:45:00 PM 6.32 43.376 0.159 7.3 17.34 12.69
3/17/2021 1:00:00 PM 6.39 43.502 0.159 7.3 15.2 12.67
3/17/2021 1:15:00 PM 6.45 43.61 0.159 7.3 24.07 12.67
3/17/2021 1:30:00 PM 6.5 43.7 0.159 7.31 17.41 12.64
3/17/2021 1:45:00 PM 6.56 43.808 0.159 7.3 25.62 12.64
3/17/2021 2:00:00 PM 6.61 43.898 0.159 7.32 18.93 12.6
3/17/2021 2:15:00 PM 6.67 44.006 0.159 7.32 17.97 12.59
3/17/2021 2:30:00 PM 6.72 44.096 0.159 7.33 24.51 12.59
3/17/2021 2:45:00 PM 6.77 44.186 0.159 7.34 11.43 12.56
3/17/2021 3:00:00 PM 6.8 44.24 0.159 7.35 25.93 12.53
3/17/2021 3:15:00 PM 6.83 44.294 0.159 7.34 47.13 12.5
3/17/2021 3:30:00 PM 6.86 44.348 0.159 7.35 28.14 12.46
3/17/2021 3:45:00 PM 6.9 44.42 0.159 7.35 25.03 12.44
3/17/2021 4:00:00 PM 6.93 44.474 0.159 7.35 17.61 12.43
3/17/2021 4:15:00 PM 6.96 44.528 0.159 7.36 19.35 12.41
3/17/2021 4:30:00 PM 6.99 44.582 0.159 7.36 31.88 12.36
3/17/2021 4:45:00 PM 7.01 44.618 0.158 7.36 30.52 12.36
3/17/2021 5:00:00 PM 7.03 44.654 0.158 7.36 35.26 12.34
3/17/2021 5:15:00 PM 7.04 44.672 0.158 7.37 24.64 12.32
3/17/2021 5:30:00 PM 7.05 44.69 0.158 7.37 29.77 12.29
3/17/2021 5:45:00 PM 7.06 44.708 0.158 7.37 31.74 12.25
3/17/2021 6:00:00 PM 7.06 44.708 0.158 7.37 28.52 12.2
3/17/2021 6:15:00 PM 7.06 44.708 0.158 7.37 9.87 12.14
3/17/2021 6:30:00 PM 7.06 44.708 0.159 7.37 27.41 12.11
3/17/2021 6:45:00 PM 7.07 44.726 0.159 7.35 59.75 12.07
3/17/2021 7:00:00 PM 7.07 44.726 0.159 7.34 37.18 12.03
3/17/2021 7:15:00 PM 7.07 44.726 0.159 7.35 25.57 11.96
3/17/2021 7:30:00 PM 7.07 44.726 0.159 7.35 36.36 11.92
3/17/2021 7:45:00 PM 7.07 44.726 0.159 7.35 56.15 11.89
3/17/2021 8:00:00 PM 7.07 44.726 0.159 7.35 18.63 11.84
3/17/2021 8:15:00 PM 7.06 44.708 0.159 7.34 32.4 11.81
3/17/2021 8:30:00 PM 7.07 44.726 0.159 7.34 23.21 11.78
3/17/2021 8:45:00 PM 7.07 44.726 0.159 7.34 21.66 11.76
3/17/2021 9:00:00 PM 7.07 44.726 0.159 7.34 18.2 11.74
3/17/2021 9:15:00 PM 7.08 44.744 0.159 7.33 30.23 11.73
3/17/2021 9:30:00 PM 7.08 44.744 0.158 7.33 28.84 11.7
3/17/2021 9:45:00 PM 7.08 44.744 0.159 7.32 28.61 11.69
3/17/2021 10:00:00 PM 7.09 44.762 0.158 7.32 32.4 11.67
3/17/2021 10:15:00 PM 7.09 44.762 0.159 7.32 25.34 11.66
3/17/2021 10:30:00 PM 7.1 44.78 0.159 7.31 16.86 11.65
3/17/2021 10:45:00 PM 7.1 44.78 0.159 7.3 24.3 11.64
3/17/2021 11:00:00 PM 7.11 44.798 0.159 7.3 30.79 11.64
3/17/2021 11:15:00 PM 7.12 44.816 0.159 7.29 27.27 11.61
3/17/2021 11:30:00 PM 7.12 44.816 0.159 7.29 30.72 11.62
3/17/2021 11:45:00 PM 7.13 44.834 0.159 7.29 40.15 11.59
3/18/2021 12:00:00 AM 7.13 44.834 0.159 7.28 30.68 11.59
3/18/2021 12:15:00 AM 7.14 44.852 0.159 7.3 19.68 11.59
3/18/2021 12:30:00 AM 7.15 44.87 0.159 7.29 26.09 11.58
3/18/2021 12:45:00 AM 7.15 44.87 0.159 7.28 29.13 11.58
3/18/2021 1:00:00 AM 7.15 44.87 0.159 7.28 32.63 11.58
3/18/2021 1:15:00 AM 7.16 44.888 0.159 7.28 20.58 11.57
3/18/2021 1:30:00 AM 7.16 44.888 0.159 7.27 27.53 11.56
3/18/2021 1:45:00 AM 7.16 44.888 0.159 7.28 14.62 11.56
3/18/2021 2:00:00 AM 7.17 44.906 0.159 7.28 18.82 11.56
3/18/2021 2:15:00 AM 7.17 44.906 0.159 7.27 23.75 11.56
3/18/2021 2:30:00 AM 7.17 44.906 0.159 7.27 36.24 11.55
3/18/2021 2:45:00 AM 7.17 44.906 0.159 7.28 34.66 11.55
3/18/2021 3:00:00 AM 7.18 44.924 0.159 7.27 13.66 11.55
3/18/2021 3:15:00 AM 7.18 44.924 0.159 7.27 27.31 11.55
3/18/2021 3:30:00 AM 7.18 44.924 0.159 7.26 20.79 11.55
3/18/2021 3:45:00 AM 7.18 44.924 0.159 7.27 16.34 11.55
3/18/2021 4:00:00 AM 7.18 44.924 0.159 7.27 23.67 11.54
3/18/2021 4:15:00 AM 7.18 44.924 0.16 7.26 17.08 11.53
3/18/2021 4:30:00 AM 7.17 44.906 0.16 7.26 46.22 11.55
3/18/2021 4:45:00 AM 7.17 44.906 0.16 7.27 22.26 11.54
3/18/2021 5:00:00 AM 7.17 44.906 0.16 7.28 14.75 11.53
3/18/2021 5:15:00 AM 7.17 44.906 0.16 7.27 25.28 11.54
3/18/2021 5:30:00 AM 7.17 44.906 0.16 7.27 30 11.53
3/18/2021 5:45:00 AM 7.17 44.906 0.16 7.28 14.46 11.53
3/18/2021 6:00:00 AM 7.17 44.906 0.16 7.26 20.49 11.54
3/18/2021 6:15:00 AM 7.17 44.906 0.16 7.27 23.28 11.52
3/18/2021 6:30:00 AM 7.16 44.888 0.16 7.27 19.65 11.53
3/18/2021 6:45:00 AM 7.16 44.888 0.16 7.27 24.12 11.52
3/18/2021 7:00:00 AM 7.16 44.888 0.16 7.27 22.91 11.52
3/18/2021 7:15:00 AM 7.16 44.888 0.16 7.27 17.11 11.53
3/18/2021 7:30:00 AM 7.16 44.888 0.16 7.25 19.17 11.53
3/18/2021 7:45:00 AM 7.16 44.888 0.159 7.26 15.95 11.52
3/18/2021 8:00:00 AM 7.16 44.888 0.159 7.25 21.39 11.53
3/18/2021 8:15:00 AM 7.16 44.888 0.159 7.26 19.04 11.55
3/18/2021 8:30:00 AM 7.16 44.888 0.159 7.28 22.77 11.55
3/18/2021 8:45:00 AM 7.17 44.906 0.158 7.28 20.74 11.57
3/18/2021 9:00:00 AM 7.18 44.924 0.158 7.3 18.83 11.58
3/18/2021 9:15:00 AM 7.19 44.942 0.158 7.3 28.46 11.62
3/18/2021 9:30:00 AM 7.2 44.96 0.158 7.31 20.52 11.62
3/18/2021 9:45:00 AM 7.21 44.978 0.158 7.34 10.22 11.64
3/18/2021 10:00:00 AM 7.23 45.014 0.158 7.34 16.23 11.67
3/18/2021 10:15:00 AM 7.24 45.032 0.157 7.34 32.82 11.67
3/18/2021 10:30:00 AM 7.25 45.05 0.157 7.35 26.84 11.69
3/18/2021 10:45:00 AM 7.27 45.086 0.157 7.36 11.23 11.65
3/18/2021 11:00:00 AM 7.29 45.122 0.157 7.37 24.28 11.69
3/18/2021 11:15:00 AM 7.31 45.158 0.157 7.37 21.67 11.73
3/18/2021 11:30:00 AM 7.34 45.212 0.156 7.36 15.06 11.76
3/18/2021 11:45:00 AM 7.37 45.266 0.156 7.37 14.89 11.77
3/18/2021 12:00:00 PM 7.4 45.32 0.156 7.38 15.71 11.76
3/18/2021 12:15:00 PM 7.43 45.374 0.156 7.39 15.99 11.79
3/18/2021 12:30:00 PM 7.45 45.41 0.156 7.39 11.37 11.8
3/18/2021 12:45:00 PM 7.47 45.446 0.156 7.38 15.57 11.78
3/18/2021 1:00:00 PM 7.49 45.482 0.156 7.38 19.64 11.78
3/18/2021 1:15:00 PM 7.52 45.536 0.156 7.39 27.84 11.78
3/18/2021 1:30:00 PM 7.54 45.572 0.156 7.38 16.91 11.79
3/18/2021 1:45:00 PM 7.57 45.626 0.156 7.39 12.01 11.8
3/18/2021 2:00:00 PM 7.59 45.662 0.156 7.38 34.33 11.79
3/18/2021 2:15:00 PM 7.61 45.698 0.155 7.4 21.75 11.76
3/18/2021 2:30:00 PM 7.63 45.734 0.155 7.39 20.87 11.76
3/18/2021 2:45:00 PM 7.66 45.788 0.155 7.4 18.75 11.77
3/18/2021 3:00:00 PM 7.69 45.842 0.155 7.41 14.88 11.77
3/18/2021 3:15:00 PM 7.71 45.878 0.155 7.4 10.3 11.77
3/18/2021 3:30:00 PM 7.74 45.932 0.155 7.4 12.91 11.76
3/18/2021 3:45:00 PM 7.77 45.986 0.154 7.4 28.19 11.77
3/18/2021 4:00:00 PM 7.79 46.022 0.154 7.4 34.76 11.76
3/18/2021 4:15:00 PM 7.82 46.076 0.154 7.39 35.81 11.73
3/18/2021 4:30:00 PM 7.85 46.13 0.154 7.39 11.19 11.72
3/18/2021 4:45:00 PM 7.87 46.166 0.154 7.38 27.2 11.71
3/18/2021 5:00:00 PM 7.9 46.22 0.154 7.39 39.11 11.68
3/18/2021 5:15:00 PM 7.91 46.238 0.154 7.39 12.88 11.64
3/18/2021 5:30:00 PM 7.93 46.274 0.154 7.39 34.86 11.61
3/18/2021 5:45:00 PM 7.94 46.292 0.154 7.39 26.62 11.58
3/18/2021 6:00:00 PM 7.96 46.328 0.154 7.38 14.51 11.56
3/18/2021 6:15:00 PM 7.96 46.328 0.154 7.38 19.98 11.54
3/18/2021 6:30:00 PM 7.97 46.346 0.154 7.37 52 11.5
3/18/2021 6:45:00 PM 7.97 46.346 0.154 7.38 12.35 11.47
3/18/2021 7:00:00 PM 7.97 46.346 0.155 7.38 14.1 11.44
3/18/2021 7:15:00 PM 7.97 46.346 0.155 7.37 26.38 11.42
3/18/2021 7:30:00 PM 7.97 46.346 0.155 7.38 20.27 11.39
3/18/2021 7:45:00 PM 7.97 46.346 0.155 7.38 24.94 11.36
3/18/2021 8:00:00 PM 7.96 46.328 0.155 7.37 10.89 11.33
3/18/2021 8:15:00 PM 7.96 46.328 0.156 7.37 19.29 11.3
3/18/2021 8:30:00 PM 7.95 46.31 0.156 7.37 18.74 11.27
3/18/2021 8:45:00 PM 7.95 46.31 0.156 7.37 20.54 11.27
3/18/2021 9:00:00 PM 7.94 46.292 0.156 7.37 19.45 11.26
3/18/2021 9:15:00 PM 7.94 46.292 0.156 7.35 23.61 11.24
3/18/2021 9:30:00 PM 7.93 46.274 0.156 7.35 17.4 11.23
3/18/2021 9:45:00 PM 7.93 46.274 0.157 7.36 27.22 11.21
3/18/2021 10:00:00 PM 7.92 46.256 0.157 7.36 57.78 11.21
3/18/2021 10:15:00 PM 7.91 46.238 0.157 7.35 20.06 11.2
3/18/2021 10:30:00 PM 7.91 46.238 0.157 7.34 36.84 11.2
3/18/2021 10:45:00 PM 7.9 46.22 0.157 7.33 16.21 11.2
3/18/2021 11:00:00 PM 7.89 46.202 0.157 7.34 51.04 11.2
3/18/2021 11:15:00 PM 7.88 46.184 0.157 7.34 16.66 11.2
3/18/2021 11:30:00 PM 7.87 46.166 0.158 7.33 38.9 11.19
3/18/2021 11:45:00 PM 7.86 46.148 0.158 7.32 54.8 11.22
3/19/2021 12:00:00 AM 7.85 46.13 0.158 7.32 32.14 11.22
3/19/2021 12:15:00 AM 7.84 46.112 0.159 7.32 38.62 11.2
3/19/2021 12:30:00 AM 7.82 46.076 0.159 7.32 36.08 11.21
3/19/2021 12:45:00 AM 7.8 46.04 0.16 7.31 33.06 11.21
3/19/2021 1:00:00 AM 7.78 46.004 0.16 7.3 40.43 11.23
3/19/2021 1:15:00 AM 7.76 45.968 0.161 7.3 44.75 11.23
3/19/2021 1:30:00 AM 7.74 45.932 0.161 7.29 22.97 11.23
3/19/2021 1:45:00 AM 7.72 45.896 0.162 7.29 53.27 11.23
3/19/2021 2:00:00 AM 7.69 45.842 0.162 7.29 21.9 11.24
3/19/2021 2:15:00 AM 7.67 45.806 0.162 7.29 46.45 11.25
3/19/2021 2:30:00 AM 7.63 45.734 0.162 7.29 40.47 11.27
3/19/2021 2:45:00 AM 7.6 45.68 0.162 7.3 36.87 11.27
3/19/2021 3:00:00 AM 7.56 45.608 0.163 7.34 20.02 11.26
3/19/2021 3:15:00 AM 7.52 45.536 0.163 7.34 15.84 11.27
3/19/2021 3:30:00 AM 7.49 45.482 0.163 7.33 26.23 11.26
3/19/2021 3:45:00 AM 7.45 45.41 0.163 7.32 22.73 11.29
3/19/2021 4:00:00 AM 7.41 45.338 0.163 7.32 20.15 11.3
3/19/2021 4:15:00 AM 7.37 45.266 0.163 7.32 21.6 11.31
3/19/2021 4:30:00 AM 7.32 45.176 0.163 7.33 20.48 11.33
3/19/2021 4:45:00 AM 7.27 45.086 0.162 7.31 17.91 11.34
3/19/2021 5:00:00 AM 7.22 44.996 0.162 7.31 16.66 11.38
3/19/2021 5:15:00 AM 7.17 44.906 0.162 7.32 15.73 11.38
3/19/2021 5:30:00 AM 7.11 44.798 0.162 7.33 22.62 11.4
3/19/2021 5:45:00 AM 7.06 44.708 0.162 7.32 23.23 11.43
3/19/2021 6:00:00 AM 7.01 44.618 0.162 7.31 33.21 11.45
3/19/2021 6:15:00 AM 6.96 44.528 0.162 7.33 12.93 11.47
3/19/2021 6:30:00 AM 6.9 44.42 0.162 7.33 20.84 11.48
3/19/2021 6:45:00 AM 6.82 44.276 0.162 7.33 31.34 11.52
3/19/2021 7:00:00 AM 6.74 44.132 0.162 7.33 12.62 11.52
3/19/2021 7:15:00 AM 6.65 43.97 0.162 7.32 39.61 11.56
3/19/2021 7:30:00 AM 6.58 43.844 0.162 7.34 27.68 11.58
3/19/2021 7:45:00 AM 6.51 43.718 0.162 7.34 27.1 11.62
3/19/2021 8:00:00 AM 6.46 43.628 0.162 7.34 20.61 11.67
3/19/2021 8:15:00 AM 6.4 43.52 0.162 7.34 20.97 11.74
3/19/2021 8:30:00 AM 6.35 43.43 0.162 7.34 26.48 11.82
3/19/2021 8:45:00 AM 6.31 43.358 0.162 7.35 34.56 11.88
3/19/2021 9:00:00 AM 6.26 43.268 0.162 7.34 29.03 11.95
3/19/2021 9:15:00 AM 6.23 43.214 0.162 7.34 20.95 12.01
3/19/2021 9:30:00 AM 6.2 43.16 0.162 7.34 14.8 12.11
3/19/2021 9:45:00 AM 6.22 43.196 0.162 7.34 24.5 12.18
3/19/2021 10:00:00 AM 6.22 43.196 0.162 7.35 21.06 12.23
3/19/2021 10:15:00 AM 6.22 43.196 0.161 7.35 21.93 12.27
3/19/2021 10:30:00 AM 6.21 43.178 0.161 7.34 25.58 12.3
3/19/2021 10:45:00 AM 6.27 43.286 0.161 7.35 23.72 12.34
3/19/2021 11:00:00 AM 6.37 43.466 0.161 7.36 23.13 12.38
3/19/2021 11:15:00 AM 6.49 43.682 0.16 7.36 15.61 12.42
3/19/2021 11:30:00 AM 6.63 43.934 0.16 7.37 20.39 12.43
3/19/2021 11:45:00 AM 6.76 44.168 0.16 7.38 11.07 12.45
3/19/2021 12:00:00 PM 6.96 44.528 0.16 7.37 22.3 12.46
3/19/2021 12:15:00 PM 7.14 44.852 0.16 7.38 23.24 12.46
3/19/2021 12:30:00 PM 7.37 45.266 0.16 7.39 17.5 12.44
3/19/2021 12:45:00 PM 7.63 45.734 0.159 7.39 26.35 12.43
3/19/2021 1:00:00 PM 7.89 46.202 0.159 7.41 11.46 12.41
3/19/2021 1:15:00 PM 8.14 46.652 0.159 7.4 36.69 12.38
3/19/2021 1:30:00 PM 8.38 47.084 0.159 7.41 18.17 12.35
3/19/2021 1:45:00 PM 8.62 47.516 0.159 7.41 11.3 12.31
3/19/2021 2:00:00 PM 8.86 47.948 0.159 7.39 19.42 12.29
3/19/2021 2:15:00 PM 9.07 48.326 0.159 7.4 15.02 12.25
3/19/2021 2:30:00 PM 9.26 48.668 0.159 7.4 28.56 12.21
3/19/2021 2:45:00 PM 9.42 48.956 0.159 7.4 23.18 12.18
3/19/2021 3:00:00 PM 9.5 49.1 0.16 7.41 21.26 12.14
3/19/2021 3:15:00 PM 9.56 49.208 0.159 7.42 15.38 12.1
3/19/2021 3:30:00 PM 9.62 49.316 0.159 7.43 15.79 12.05
3/19/2021 3:45:00 PM 9.65 49.37 0.159 7.44 13.78 12.02
3/19/2021 4:00:00 PM 9.65 49.37 0.16 7.46 18.25 11.97
3/19/2021 4:15:00 PM 9.63 49.334 0.16 7.47 33.05 11.93
3/19/2021 4:30:00 PM 9.58 49.244 0.16 7.46 9.1 11.91
3/19/2021 4:45:00 PM 9.52 49.136 0.16 7.46 156.8 11.88
3/19/2021 5:00:00 PM 9.4 48.92 0.16 7.45 17.03 11.86
3/19/2021 5:15:00 PM 9.26 48.668 0.16 7.4 24.42 11.83
3/19/2021 5:30:00 PM 9.17 48.506 0.16 7.43 23.87 11.8
3/19/2021 5:45:00 PM 9.07 48.326 0.16 7.44 32.18 11.76
3/19/2021 6:00:00 PM 8.97 48.146 0.16 7.42 20.49 11.71
3/19/2021 6:15:00 PM 8.85 47.93 0.16 7.43 33.77 11.68
3/19/2021 6:30:00 PM 8.73 47.714 0.16 7.43 26.51 11.64
3/19/2021 6:45:00 PM 8.61 47.498 0.16 7.44 12.55 11.63
3/19/2021 7:00:00 PM 8.5 47.3 0.16 7.42 35.27 11.61
3/19/2021 7:15:00 PM 8.39 47.102 0.16 7.43 43.69 11.57
3/19/2021 7:30:00 PM 8.31 46.958 0.16 7.45 11.2 11.54
3/19/2021 7:45:00 PM 8.22 46.796 0.16 7.43 14.57 11.49
3/19/2021 8:00:00 PM 8.15 46.67 0.16 7.43 22.99 11.48
3/19/2021 8:15:00 PM 8.07 46.526 0.16 7.41 33.89 11.46
3/19/2021 8:30:00 PM 8 46.4 0.16 7.41 22.67 11.45
3/19/2021 8:45:00 PM 7.92 46.256 0.16 7.4 19.97 11.44
3/19/2021 9:00:00 PM 7.85 46.13 0.16 7.42 11.47 11.44
3/19/2021 9:15:00 PM 7.76 45.968 0.16 7.4 19.97 11.43
3/19/2021 9:30:00 PM 7.67 45.806 0.16 7.39 15.57 11.46
3/19/2021 9:45:00 PM 7.58 45.644 0.16 7.39 20.83 11.46
3/19/2021 10:00:00 PM 7.5 45.5 0.161 7.4 9.67 11.48
3/19/2021 10:15:00 PM 7.39 45.302 0.161 7.39 11.75 11.5
3/19/2021 10:30:00 PM 7.3 45.14 0.161 7.38 49.11 11.52
3/19/2021 10:45:00 PM 7.21 44.978 0.161 7.37 18.94 11.54
3/19/2021 11:00:00 PM 7.13 44.834 0.161 7.37 12.05 11.56
3/19/2021 11:15:00 PM 7.04 44.672 0.161 7.37 11.75 11.58
3/19/2021 11:30:00 PM 6.96 44.528 0.161 7.37 13.93 11.59
3/19/2021 11:45:00 PM 6.89 44.402 0.162 7.38 18.86 11.61
3/20/2021 12:00:00 AM 6.8 44.24 0.161 7.37 15.09 11.64
3/20/2021 12:15:00 AM 6.73 44.114 0.161 7.36 16.69 11.66
3/20/2021 12:30:00 AM 6.66 43.988 0.161 7.36 21.3 11.68
3/20/2021 12:45:00 AM 6.61 43.898 0.161 7.37 33.65 11.71
3/20/2021 1:00:00 AM 6.52 43.736 0.161 7.36 16.75 11.72
3/20/2021 1:15:00 AM 6.45 43.61 0.162 7.35 18.93 11.74
3/20/2021 1:30:00 AM 6.38 43.484 0.161 7.34 26.98 11.77
3/20/2021 1:45:00 AM 6.31 43.358 0.161 7.34 29.11 11.8
3/20/2021 2:00:00 AM 6.24 43.232 0.161 7.35 17.32 11.82
3/20/2021 2:15:00 AM 6.17 43.106 0.161 7.34 14.93 11.85
3/20/2021 2:30:00 AM 6.09 42.962 0.161 7.33 46.73 11.89
3/20/2021 2:45:00 AM 6.02 42.836 0.162 7.34 26.61 11.92
3/20/2021 3:00:00 AM 5.94 42.692 0.162 7.33 18.71 11.94
3/20/2021 3:15:00 AM 5.85 42.53 0.162 7.33 18.79 11.98
3/20/2021 3:30:00 AM 5.79 42.422 0.162 7.33 138.9 12.01
3/20/2021 3:45:00 AM 5.7 42.26 0.162 7.32 17.8 12.04
3/20/2021 4:00:00 AM 5.61 42.098 0.162 7.33 33.86 12.07
3/20/2021 4:15:00 AM 5.53 41.954 0.162 7.32 19.06 12.1
3/20/2021 4:30:00 AM 5.45 41.81 0.162 7.32 18.15 12.14
3/20/2021 4:45:00 AM 5.37 41.666 0.162 7.32 13.93 12.15
3/20/2021 5:00:00 AM 5.29 41.522 0.162 7.32 16.73 12.22
3/20/2021 5:15:00 AM 5.21 41.378 0.162 7.32 15.12 12.24
3/20/2021 5:30:00 AM 5.13 41.234 0.162 7.32 15.96 12.28
3/20/2021 5:45:00 AM 5.05 41.09 0.162 7.33 14.25 12.32
3/20/2021 6:00:00 AM 4.96 40.928 0.162 7.32 16.47 12.34
3/20/2021 6:15:00 AM 4.89 40.802 0.162 7.32 13.23 12.37
3/20/2021 6:30:00 AM 4.81 40.658 0.162 7.32 13.95 12.4
3/20/2021 6:45:00 AM 4.73 40.514 0.162 7.32 14.84 12.45
3/20/2021 7:00:00 AM 4.66 40.388 0.162 7.32 13.93 12.48
3/20/2021 7:15:00 AM 4.58 40.244 0.162 7.32 11.25 12.51
3/20/2021 7:30:00 AM 4.49 40.082 0.162 7.32 12.56 12.54
3/20/2021 7:45:00 AM 4.42 39.956 0.162 7.32 17.84 12.6
3/20/2021 8:00:00 AM 4.35 39.83 0.162 7.31 12.47 12.65
3/20/2021 8:15:00 AM 4.28 39.704 0.162 7.31 11.96 12.7
3/20/2021 8:30:00 AM 4.23 39.614 0.162 7.32 13.25 12.77
3/20/2021 8:45:00 AM 4.18 39.524 0.162 7.32 12.33 12.83
3/20/2021 9:00:00 AM 4.14 39.452 0.162 7.33 10.2 12.89
3/20/2021 9:15:00 AM 4.12 39.416 0.162 7.33 12.95 12.95
3/20/2021 9:30:00 AM 4.11 39.398 0.162 7.32 79.16 13.02
3/20/2021 9:45:00 AM 4.12 39.416 0.162 7.33 11.41 13.08
3/20/2021 10:00:00 AM 4.16 39.488 0.162 7.33 14.49 13.12
3/20/2021 10:15:00 AM 4.22 39.596 0.162 7.33 12.06 13.15
3/20/2021 10:30:00 AM 4.32 39.776 0.162 7.33 13.39 13.18
3/20/2021 10:45:00 AM 4.47 40.046 0.162 7.33 11.62 13.22
3/20/2021 11:00:00 AM 4.64 40.352 0.162 7.33 11.76 13.23
3/20/2021 11:15:00 AM 4.87 40.766 0.161 7.33 9.57 13.24
3/20/2021 11:30:00 AM 5.09 41.162 0.161 7.34 14.8 13.23
3/20/2021 11:45:00 AM 5.36 41.648 0.161 7.33 10.98 13.21
3/20/2021 12:00:00 PM 5.62 42.116 0.161 7.34 23.89 13.2
3/20/2021 12:15:00 PM 5.92 42.656 0.161 7.35 10.82 13.18
3/20/2021 12:30:00 PM 6.26 43.268 0.161 7.34 13.96 13.13
3/20/2021 12:45:00 PM 6.62 43.916 0.16 7.34 18.95 13.07
3/20/2021 1:00:00 PM 6.98 44.564 0.16 7.33 13.4 13.01
3/20/2021 1:15:00 PM 7.3 45.14 0.16 7.33 13.68 12.95
3/20/2021 1:30:00 PM 7.63 45.734 0.16 7.34 11.48 12.88
3/20/2021 1:45:00 PM 7.97 46.346 0.16 7.34 28.16 12.83
3/20/2021 2:00:00 PM 8.27 46.886 0.16 7.34 23.09 12.75
3/20/2021 2:15:00 PM 8.56 47.408 0.16 7.34 11.25 12.69
3/20/2021 2:30:00 PM 8.81 47.858 0.16 7.34 13.88 12.63
3/20/2021 2:45:00 PM 9 48.2 0.16 7.34 18.76 12.56
3/20/2021 3:00:00 PM 9.11 48.398 0.16 7.35 18.91 12.5
3/20/2021 3:15:00 PM 9.2 48.56 0.16 7.36 10.74 12.46
3/20/2021 3:30:00 PM 9.29 48.722 0.16 7.37 21.56 12.4
3/20/2021 3:45:00 PM 9.34 48.812 0.16 7.37 16.05 12.34
3/20/2021 4:00:00 PM 9.38 48.884 0.16 7.38 13.92 12.3
3/20/2021 4:15:00 PM 9.38 48.884 0.16 7.38 20.28 12.25
3/20/2021 4:30:00 PM 9.35 48.83 0.16 7.38 21.08 12.21
3/20/2021 4:45:00 PM 9.32 48.776 0.16 7.39 10.99 12.16
3/20/2021 5:00:00 PM 9.24 48.632 0.16 7.4 12.02 12.1
3/20/2021 5:15:00 PM 9.16 48.488 0.16 7.39 19.56 12.04
3/20/2021 5:30:00 PM 9.1 48.38 0.16 7.4 16.31 11.98
3/20/2021 5:45:00 PM 9.04 48.272 0.16 7.42 10.67 11.93
3/20/2021 6:00:00 PM 8.98 48.164 0.16 7.43 15.14 11.86
3/20/2021 6:15:00 PM 8.9 48.02 0.16 7.42 12.94 11.83
3/20/2021 6:30:00 PM 8.83 47.894 0.16 7.43 10.72 11.79
3/20/2021 6:45:00 PM 8.74 47.732 0.16 7.43 14.59 11.73
3/20/2021 7:00:00 PM 8.64 47.552 0.16 7.44 11.32 11.7
3/20/2021 7:15:00 PM 8.56 47.408 0.161 7.43 11.71 11.65
3/20/2021 7:30:00 PM 8.48 47.264 0.161 7.43 12.55 11.58
3/20/2021 7:45:00 PM 8.39 47.102 0.161 7.43 17.52 11.52
3/20/2021 8:00:00 PM 8.32 46.976 0.161 7.42 11.61 11.5
3/20/2021 8:15:00 PM 8.25 46.85 0.161 7.42 14.35 11.48
3/20/2021 8:30:00 PM 8.19 46.742 0.161 7.42 115.8 11.46
3/20/2021 8:45:00 PM 8.13 46.634 0.161 7.41 15.12 11.43
3/20/2021 9:00:00 PM 8.08 46.544 0.161 7.41 52.39 11.41
3/20/2021 9:15:00 PM 8.02 46.436 0.161 7.4 12.78 11.41
3/20/2021 9:30:00 PM 7.95 46.31 0.161 7.4 10.18 11.4
3/20/2021 9:45:00 PM 7.89 46.202 0.161 7.4 36.71 11.41
3/20/2021 10:00:00 PM 7.81 46.058 0.161 7.4 12.44 11.41
3/20/2021 10:15:00 PM 7.73 45.914 0.161 7.39 9.03 11.43
3/20/2021 10:30:00 PM 7.66 45.788 0.16 7.38 41.58 11.44
3/20/2021 10:45:00 PM 7.6 45.68 0.161 7.37 11.06 11.42
3/20/2021 11:00:00 PM 7.51 45.518 0.161 7.37 10.33 11.46
3/20/2021 11:15:00 PM 7.43 45.374 0.161 7.36 11.55 11.47
3/20/2021 11:30:00 PM 7.36 45.248 0.161 7.36 11.78 11.48
3/20/2021 11:45:00 PM 7.3 45.14 0.161 7.35 10.22 11.49
3/21/2021 12:00:00 AM 7.23 45.014 0.161 7.34 11.29 11.51
3/21/2021 12:15:00 AM 7.16 44.888 0.161 7.34 11.47 11.51
3/21/2021 12:30:00 AM 7.1 44.78 0.161 7.34 12.15 11.52
3/21/2021 12:45:00 AM 7.05 44.69 0.161 7.34 9.59 11.54
3/21/2021 1:00:00 AM 6.99 44.582 0.161 7.33 83.1 11.55
3/21/2021 1:15:00 AM 6.94 44.492 0.161 7.33 31.15 11.57
3/21/2021 1:30:00 AM 6.88 44.384 0.161 7.33 14.52 11.6
3/21/2021 1:45:00 AM 6.84 44.312 0.161 7.32 16.41 11.6
3/21/2021 2:00:00 AM 6.78 44.204 0.161 7.32 12.33 11.61
3/21/2021 2:15:00 AM 6.73 44.114 0.161 7.32 39.63 11.63
3/21/2021 2:30:00 AM 6.66 43.988 0.161 7.31 25.07 11.66
3/21/2021 2:45:00 AM 6.6 43.88 0.161 7.32 11.41 11.69
3/21/2021 3:00:00 AM 6.53 43.754 0.161 7.31 12.65 11.7
3/21/2021 3:15:00 AM 6.48 43.664 0.161 7.31 102.8 11.72
3/21/2021 3:30:00 AM 6.41 43.538 0.162 7.31 13.98 11.72
3/21/2021 3:45:00 AM 6.34 43.412 0.162 7.31 14.18 11.73
3/21/2021 4:00:00 AM 6.28 43.304 0.162 7.3 12.98 11.77
3/21/2021 4:15:00 AM 6.21 43.178 0.162 7.3 13.62 11.81
3/21/2021 4:30:00 AM 6.12 43.016 0.162 7.3 22.72 11.83
3/21/2021 4:45:00 AM 6.04 42.872 0.162 7.3 15.47 11.87
3/21/2021 5:00:00 AM 5.97 42.746 0.162 7.3 16.22 11.88
3/21/2021 5:15:00 AM 5.89 42.602 0.162 7.29 15.51 11.91
3/21/2021 5:30:00 AM 5.81 42.458 0.162 7.29 118.9 11.94
3/21/2021 5:45:00 AM 5.66 42.188 0.162 7.28 29.64 12
3/21/2021 6:00:00 AM 5.57 42.026 0.162 7.26 15.33 12.09
3/21/2021 6:15:00 AM 5.49 41.882 0.162 7.26 18.43 12.14
3/21/2021 6:30:00 AM 5.4 41.72 0.162 7.25 33.45 12.17
3/21/2021 6:45:00 AM 5.32 41.576 0.162 7.25 16.94 12.21
3/21/2021 7:00:00 AM 5.24 41.432 0.162 7.25 17.35 12.24
3/21/2021 7:15:00 AM 5.16 41.288 0.162 7.25 22.74 12.27
3/21/2021 7:30:00 AM 5.09 41.162 0.162 7.26 21.18 12.31
3/21/2021 7:45:00 AM 5.01 41.018 0.162 7.27 685.5 12.36
3/21/2021 8:00:00 AM 4.94 40.892 0.162 7.27 26.17 12.41
3/21/2021 8:15:00 AM 4.88 40.784 0.162 7.27 43.62 12.46
3/21/2021 8:30:00 AM 4.81 40.658 0.162 7.28 43.44 12.53
3/21/2021 8:45:00 AM 4.76 40.568 0.162 7.29 19.3 12.57
3/21/2021 9:00:00 AM 4.73 40.514 0.162 7.28 39.23 12.65
3/21/2021 9:15:00 AM 4.7 40.46 0.162 7.29 26.19 12.68
3/21/2021 9:30:00 AM 4.69 40.442 0.162 7.28 40.35 12.75
3/21/2021 9:45:00 AM 4.7 40.46 0.162 7.3 17.11 12.8
3/21/2021 10:00:00 AM 4.74 40.532 0.162 7.29 40.94 12.84
3/21/2021 10:15:00 AM 4.81 40.658 0.162 7.29 53.13 12.89
3/21/2021 10:30:00 AM 4.94 40.892 0.161 7.3 45.81 12.92
3/21/2021 10:45:00 AM 5.11 41.198 0.161 7.3 39.09 12.97
3/21/2021 11:00:00 AM 5.32 41.576 0.161 7.3 59.92 12.98
3/21/2021 11:15:00 AM 5.57 42.026 0.161 7.3 58.06 12.99
3/21/2021 11:30:00 AM 5.84 42.512 0.161 7.3 35.23 12.99
3/21/2021 11:45:00 AM 6.12 43.016 0.161 7.31 33.48 12.96
3/21/2021 12:00:00 PM 6.42 43.556 0.161 7.3 29.08 12.93
3/21/2021 12:15:00 PM 6.75 44.15 0.161 7.31 46.02 12.9
3/21/2021 12:30:00 PM 7.13 44.834 0.161 7.31 39.83 12.85
3/21/2021 12:45:00 PM 7.51 45.518 0.16 7.31 62.92 12.8
3/21/2021 1:00:00 PM 7.88 46.184 0.16 7.32 63.19 12.72
3/21/2021 1:15:00 PM 8.24 46.832 0.16 7.32 41.27 12.65
3/21/2021 1:30:00 PM 8.6 47.48 0.16 7.32 88.94 12.59
3/21/2021 1:45:00 PM 8.97 48.146 0.16 7.33 79.8 12.52
3/21/2021 2:00:00 PM 9.3 48.74 0.16 7.33 59.67 12.44
3/21/2021 2:15:00 PM 9.61 49.298 0.16 7.34 24.62 12.37
3/21/2021 2:30:00 PM 9.87 49.766 0.16 7.34 37.04 12.31
3/21/2021 2:45:00 PM 10.09 50.162 0.16 7.34 57.72 12.25
3/21/2021 3:00:00 PM 10.23 50.414 0.16 7.35 35.7 12.2
3/21/2021 3:15:00 PM 10.32 50.576 0.16 7.36 26.31 12.14
3/21/2021 3:30:00 PM 10.41 50.738 0.16 7.36 28.57 12.08
3/21/2021 3:45:00 PM 10.48 50.864 0.16 7.37 29.21 12.02
3/21/2021 4:00:00 PM 10.52 50.936 0.16 7.37 23.17 11.97
3/21/2021 4:15:00 PM 10.53 50.954 0.16 7.38 25.69 11.91
3/21/2021 4:30:00 PM 10.49 50.882 0.16 7.39 20.21 11.87
3/21/2021 4:45:00 PM 10.47 50.846 0.16 7.39 51.91 11.81
3/21/2021 5:00:00 PM 10.39 50.702 0.16 7.4 25.8 11.77
3/21/2021 5:15:00 PM 10.3 50.54 0.16 7.4 53.89 11.7
3/21/2021 5:30:00 PM 10.24 50.432 0.16 7.41 46.35 11.65
3/21/2021 5:45:00 PM 10.16 50.288 0.16 7.41 23.43 11.61
3/21/2021 6:00:00 PM 10.09 50.162 0.16 7.42 19.43 11.54
3/21/2021 6:15:00 PM 10.01 50.018 0.16 7.42 25.65 11.48
3/21/2021 6:30:00 PM 9.93 49.874 0.159 7.41 14.74 11.45
3/21/2021 6:45:00 PM 9.83 49.694 0.16 7.41 26.3 11.41
3/21/2021 7:00:00 PM 9.73 49.514 0.159 7.41 64.96 11.36
3/21/2021 7:15:00 PM 9.62 49.316 0.159 7.41 15.21 11.32
3/21/2021 7:30:00 PM 9.53 49.154 0.16 7.41 35.8 11.28
3/21/2021 7:45:00 PM 9.44 48.992 0.16 7.41 49 11.23
3/21/2021 8:00:00 PM 9.37 48.866 0.159 7.41 57.97 11.19
3/21/2021 8:15:00 PM 9.3 48.74 0.159 7.4 31.7 11.17
3/21/2021 8:30:00 PM 9.23 48.614 0.159 7.39 20.89 11.12
3/21/2021 8:45:00 PM 9.17 48.506 0.159 7.39 51.55 11.11
3/21/2021 9:00:00 PM 9.11 48.398 0.16 7.38 65.5 11.09
3/21/2021 9:15:00 PM 9.05 48.29 0.16 7.38 54.54 11.08
3/21/2021 9:30:00 PM 8.98 48.164 0.16 7.37 70.95 11.09
3/21/2021 9:45:00 PM 8.92 48.056 0.16 7.38 33.28 11.07
3/21/2021 10:00:00 PM 8.84 47.912 0.16 7.36 34.96 11.09
3/21/2021 10:15:00 PM 8.76 47.768 0.16 7.37 40.28 11.1
3/21/2021 10:30:00 PM 8.68 47.624 0.16 7.35 47.22 11.1
3/21/2021 10:45:00 PM 8.6 47.48 0.16 7.35 35.55 11.12
3/21/2021 11:00:00 PM 8.52 47.336 0.16 7.34 47.66 11.13
3/21/2021 11:15:00 PM 8.44 47.192 0.16 7.34 68.02 11.14
3/21/2021 11:30:00 PM 8.36 47.048 0.161 7.34 58.85 11.16
3/21/2021 11:45:00 PM 8.28 46.904 0.16 7.33 51.53 11.16
3/22/2021 12:00:00 AM 8.21 46.778 0.16 7.33 51.06 11.17
3/22/2021 12:15:00 AM 8.14 46.652 0.161 7.33 37.6 11.21
3/22/2021 12:30:00 AM 8.07 46.526 0.161 7.33 33.31 11.21
3/22/2021 12:45:00 AM 8.01 46.418 0.161 7.33 41.76 11.21
3/22/2021 1:00:00 AM 7.95 46.31 0.161 7.32 24.03 11.23
3/22/2021 1:15:00 AM 7.88 46.184 0.161 7.31 32.91 11.26
3/22/2021 1:30:00 AM 7.83 46.094 0.161 7.31 30.14 11.26
3/22/2021 1:45:00 AM 7.77 45.986 0.161 7.32 37.17 11.29
3/22/2021 2:00:00 AM 7.71 45.878 0.161 7.31 78.56 11.28
3/22/2021 2:15:00 AM 7.65 45.77 0.161 7.31 15.57 11.3
3/22/2021 2:30:00 AM 7.59 45.662 0.161 7.31 42.09 11.32
3/22/2021 2:45:00 AM 7.53 45.554 0.161 7.31 23.3 11.34
3/22/2021 3:00:00 AM 7.47 45.446 0.161 7.3 29.95 11.37
3/22/2021 3:15:00 AM 7.4 45.32 0.162 7.29 37.52 11.4
3/22/2021 3:30:00 AM 7.33 45.194 0.162 7.29 26.13 11.41
3/22/2021 3:45:00 AM 7.26 45.068 0.162 7.29 24.34 11.44
3/22/2021 4:00:00 AM 7.18 44.924 0.162 7.29 23.98 11.46
3/22/2021 4:15:00 AM 7.11 44.798 0.162 7.29 78.04 11.49
3/22/2021 4:30:00 AM 7.02 44.636 0.162 7.29 38.73 11.53
3/22/2021 4:45:00 AM 6.95 44.51 0.162 7.28 53.56 11.56
3/22/2021 5:00:00 AM 6.86 44.348 0.162 7.28 65.15 11.58
3/22/2021 5:15:00 AM 6.78 44.204 0.162 7.29 41.47 11.61
3/22/2021 5:30:00 AM 6.7 44.06 0.162 7.29 28.54 11.65
3/22/2021 5:45:00 AM 6.61 43.898 0.162 7.29 25.42 11.69
3/22/2021 6:00:00 AM 6.53 43.754 0.163 7.29 44.23 11.69
3/22/2021 6:15:00 AM 6.44 43.592 0.163 7.3 27.8 11.73
3/22/2021 6:30:00 AM 6.36 43.448 0.163 7.29 43.52 11.75
3/22/2021 6:45:00 AM 6.27 43.286 0.163 7.29 52.08 11.79
3/22/2021 7:00:00 AM 6.19 43.142 0.163 7.29 44.43 11.84
3/22/2021 7:15:00 AM 6.1 42.98 0.163 7.3 41.85 11.86
3/22/2021 7:30:00 AM 6.02 42.836 0.163 7.29 37.16 11.91
3/22/2021 7:45:00 AM 5.95 42.71 0.163 7.3 30.36 11.96
3/22/2021 8:00:00 AM 5.87 42.566 0.163 7.3 35.32 12.01
3/22/2021 8:15:00 AM 5.8 42.44 0.163 7.3 49.73 12.06
3/22/2021 8:30:00 AM 5.74 42.332 0.163 7.31 35.23 12.12
3/22/2021 8:45:00 AM 5.68 42.224 0.163 7.3 53.59 12.19
3/22/2021 9:00:00 AM 5.64 42.152 0.163 7.31 43.59 12.23
3/22/2021 9:15:00 AM 5.61 42.098 0.163 7.32 40.76 12.3
3/22/2021 9:30:00 AM 5.6 42.08 0.163 7.32 48.13 12.36
3/22/2021 9:45:00 AM 5.61 42.098 0.163 7.32 51.77 12.4
3/22/2021 10:00:00 AM 5.65 42.17 0.163 7.32 41.3 12.47
3/22/2021 10:15:00 AM 5.73 42.314 0.163 7.33 29.65 12.5
3/22/2021 10:30:00 AM 5.85 42.53 0.163 7.33 29.59 12.55
3/22/2021 10:45:00 AM 6.01 42.818 0.163 7.33 36.5 12.59
3/22/2021 11:00:00 AM 6.21 43.178 0.163 7.34 33.9 12.58
3/22/2021 11:15:00 AM 6.46 43.628 0.163 7.33 33.36 12.62
3/22/2021 11:30:00 AM 6.72 44.096 0.162 7.33 29.36 12.6
3/22/2021 11:45:00 AM 7 44.6 0.162 7.33 27.98 12.61
3/22/2021 12:00:00 PM 7.28 45.104 0.163 7.33 28.54 12.59
3/22/2021 12:15:00 PM 7.62 45.716 0.163 7.33 46.39 12.54
3/22/2021 12:30:00 PM 7.98 46.364 0.163 7.33 82.08 12.5
3/22/2021 12:45:00 PM 8.36 47.048 0.162 7.33 29.64 12.45
3/22/2021 1:00:00 PM 8.73 47.714 0.162 7.33 42.52 12.4
3/22/2021 1:15:00 PM 9.09 48.362 0.162 7.33 33.22 12.35
3/22/2021 1:30:00 PM 9.44 48.992 0.162 7.33 32.36 12.27
3/22/2021 1:45:00 PM 9.8 49.64 0.162 7.33 29.33 12.21
3/22/2021 2:00:00 PM 10.14 50.252 0.162 7.34 34.55 12.14
3/22/2021 2:15:00 PM 10.45 50.81 0.162 7.34 43.18 12.07
3/22/2021 2:30:00 PM 10.71 51.278 0.162 7.36 36.44 12
3/22/2021 2:45:00 PM 10.91 51.638 0.162 7.35 40.24 11.96
3/22/2021 3:00:00 PM 11.05 51.89 0.162 7.36 51.25 11.9
3/22/2021 3:15:00 PM 11.14 52.052 0.161 7.36 36.43 11.84
3/22/2021 3:30:00 PM 11.22 52.196 0.161 7.37 36.43 11.8
3/22/2021 3:45:00 PM 11.27 52.286 0.161 7.38 30.07 11.73
3/22/2021 4:00:00 PM 11.3 52.34 0.161 7.39 29.47 11.68
3/22/2021 4:15:00 PM 11.29 52.322 0.161 7.39 32.62 11.63
3/22/2021 4:30:00 PM 11.25 52.25 0.161 7.39 32.26 11.6
3/22/2021 4:45:00 PM 11.19 52.142 0.161 7.39 34.11 11.53
3/22/2021 5:00:00 PM 11.11 51.998 0.161 7.4 32.04 11.51
3/22/2021 5:15:00 PM 11.01 51.818 0.161 7.41 36.42 11.44
3/22/2021 5:30:00 PM 10.93 51.674 0.161 7.41 28.48 11.38
3/22/2021 5:45:00 PM 10.84 51.512 0.161 7.42 31.47 11.32
3/22/2021 6:00:00 PM 10.76 51.368 0.161 7.42 47.24 11.3
3/22/2021 6:15:00 PM 10.68 51.224 0.161 7.41 24.11 11.22
3/22/2021 6:30:00 PM 10.59 51.062 0.161 7.43 21.98 11.19
3/22/2021 6:45:00 PM 10.49 50.882 0.161 7.42 22.19 11.14
3/22/2021 7:00:00 PM 10.38 50.684 0.161 7.42 45.07 11.12
3/22/2021 7:15:00 PM 10.27 50.486 0.161 7.42 21.66 11.07
3/22/2021 7:30:00 PM 10.16 50.288 0.161 7.42 31.5 11.03
3/22/2021 7:45:00 PM 10.07 50.126 0.161 7.41 29.29 10.99
3/22/2021 8:00:00 PM 9.98 49.964 0.161 7.41 27.04 10.94
3/22/2021 8:15:00 PM 9.91 49.838 0.161 7.41 29.58 10.91
3/22/2021 8:30:00 PM 9.83 49.694 0.161 7.4 22.66 10.88
3/22/2021 8:45:00 PM 9.76 49.568 0.161 7.4 35.07 10.87
3/22/2021 9:00:00 PM 9.7 49.46 0.161 7.39 29.77 10.84
3/22/2021 9:15:00 PM 9.63 49.334 0.161 7.39 26.17 10.84
3/22/2021 9:30:00 PM 9.56 49.208 0.161 7.38 36.34 10.82
3/22/2021 9:45:00 PM 9.49 49.082 0.161 7.38 36.14 10.84
3/22/2021 10:00:00 PM 9.41 48.938 0.161 7.37 41.89 10.84
3/22/2021 10:15:00 PM 9.33 48.794 0.161 7.37 24.55 10.86
3/22/2021 10:30:00 PM 9.25 48.65 0.161 7.36 48.24 10.85
3/22/2021 10:45:00 PM 9.16 48.488 0.161 7.35 49.72 10.86
3/22/2021 11:00:00 PM 9.08 48.344 0.161 7.35 24.6 10.88
3/22/2021 11:15:00 PM 9 48.2 0.161 7.34 36.7 10.89
3/22/2021 11:30:00 PM 8.92 48.056 0.161 7.33 46.01 10.91
3/22/2021 11:45:00 PM 8.84 47.912 0.161 7.33 37.52 10.93
3/23/2021 12:00:00 AM 8.77 47.786 0.161 7.33 25.15 10.94
3/23/2021 12:15:00 AM 8.7 47.66 0.161 7.32 30.1 10.96
3/23/2021 12:30:00 AM 8.63 47.534 0.161 7.32 31.71 10.98
3/23/2021 12:45:00 AM 8.57 47.426 0.161 7.31 48.78 10.98
3/23/2021 1:00:00 AM 8.51 47.318 0.161 7.31 38.17 10.99
3/23/2021 1:15:00 AM 8.45 47.21 0.161 7.3 35.19 11.01
3/23/2021 1:30:00 AM 8.4 47.12 0.161 7.31 33.8 11.02
3/23/2021 1:45:00 AM 8.34 47.012 0.161 7.31 107.9 11.03
3/23/2021 2:00:00 AM 8.28 46.904 0.162 7.3 48.12 11.05
3/23/2021 2:15:00 AM 8.23 46.814 0.162 7.3 28 11.07
3/23/2021 2:30:00 AM 8.17 46.706 0.162 7.29 73.93 11.1
3/23/2021 2:45:00 AM 8.11 46.598 0.162 7.3 29.18 11.12
3/23/2021 3:00:00 AM 8.05 46.49 0.162 7.29 89.05 11.11
3/23/2021 3:15:00 AM 7.99 46.382 0.162 7.29 39.81 11.13
3/23/2021 3:30:00 AM 7.92 46.256 0.162 7.28 33.69 11.17
3/23/2021 3:45:00 AM 7.85 46.13 0.162 7.28 26.25 11.18
3/23/2021 4:00:00 AM 7.79 46.022 0.162 7.29 34.04 11.21
3/23/2021 4:15:00 AM 7.71 45.878 0.162 7.28 29.56 11.24
3/23/2021 4:30:00 AM 7.64 45.752 0.162 7.28 28.63 11.26
3/23/2021 4:45:00 AM 7.57 45.626 0.162 7.27 34.46 11.28
3/23/2021 5:00:00 AM 7.5 45.5 0.162 7.28 36.98 11.32
3/23/2021 5:15:00 AM 7.41 45.338 0.162 7.28 34.52 11.35
3/23/2021 5:30:00 AM 7.34 45.212 0.162 7.27 38.17 11.37
3/23/2021 5:45:00 AM 7.27 45.086 0.162 7.28 36.93 11.4
3/23/2021 6:00:00 AM 7.19 44.942 0.162 7.28 27.61 11.42
3/23/2021 6:15:00 AM 7.11 44.798 0.162 7.27 661.5 11.46
3/23/2021 6:30:00 AM 7.03 44.654 0.162 7.27 28.05 11.47
3/23/2021 6:45:00 AM 6.96 44.528 0.162 7.3 37.3 11.49
3/23/2021 7:00:00 AM 6.88 44.384 0.162 7.32 44.87 11.54
3/23/2021 7:15:00 AM 6.81 44.258 0.163 7.31 30.88 11.57
3/23/2021 7:30:00 AM 6.74 44.132 0.163 7.32 25.18 11.6
3/23/2021 7:45:00 AM 6.68 44.024 0.163 7.33 30.87 11.65
3/23/2021 8:00:00 AM 6.62 43.916 0.163 7.33 43.22 11.7
3/23/2021 8:15:00 AM 6.56 43.808 0.163 7.32 46.4 11.75
3/23/2021 8:30:00 AM 6.52 43.736 0.163 7.32 765.5 11.84
3/23/2021 8:45:00 AM 6.49 43.682 0.163 7.31 47.57 11.89
3/23/2021 9:00:00 AM 6.46 43.628 0.163 7.32 31.61 11.97
3/23/2021 9:15:00 AM 6.46 43.628 0.163 7.31 34.83 12.03
3/23/2021 9:30:00 AM 6.47 43.646 0.163 7.31 40.51 12.08
3/23/2021 9:45:00 AM 6.51 43.718 0.163 7.31 39.49 12.14
3/23/2021 10:00:00 AM 6.57 43.826 0.162 7.32 38.57 12.18
3/23/2021 10:15:00 AM 6.66 43.988 0.162 7.32 30.55 12.23
3/23/2021 10:30:00 AM 6.81 44.258 0.162 7.32 28.33 12.27
3/23/2021 10:45:00 AM 6.98 44.564 0.162 7.32 34.96 12.3
3/23/2021 11:00:00 AM 7.18 44.924 0.162 7.33 36.56 12.31
3/23/2021 11:15:00 AM 7.39 45.302 0.162 7.33 46.43 12.32
3/23/2021 11:30:00 AM 7.65 45.77 0.162 7.34 37.36 12.31
3/23/2021 11:45:00 AM 7.93 46.274 0.162 7.34 45.63 12.32
3/23/2021 12:00:00 PM 8.24 46.832 0.162 7.34 32.61 12.29
3/23/2021 12:15:00 PM 8.58 47.444 0.161 7.34 26.36 12.25
3/23/2021 12:30:00 PM 8.91 48.038 0.161 7.34 24.9 12.2
3/23/2021 12:45:00 PM 9.24 48.632 0.161 7.35 23.34 12.16
3/23/2021 1:00:00 PM 9.54 49.172 0.161 7.35 21.61 12.12
3/23/2021 1:15:00 PM 9.84 49.712 0.161 7.36 23.49 12.07
3/23/2021 1:30:00 PM 10.18 50.324 0.161 7.37 66.76 12.02
3/23/2021 1:45:00 PM 10.54 50.972 0.161 7.38 45.72 11.96
3/23/2021 2:00:00 PM 10.89 51.602 0.161 7.39 26.39 11.91
3/23/2021 2:15:00 PM 11.16 52.088 0.161 7.39 21.38 11.85
3/23/2021 2:30:00 PM 11.38 52.484 0.161 7.4 27.95 11.79
3/23/2021 2:45:00 PM 11.48 52.664 0.161 7.42 828.8 11.74
3/23/2021 3:00:00 PM 11.52 52.736 0.161 7.43 25.13 11.67
3/23/2021 3:15:00 PM 11.58 52.844 0.161 7.44 36.57 11.61
3/23/2021 3:30:00 PM 11.62 52.916 0.161 7.45 24.12 11.56
3/23/2021 3:45:00 PM 11.65 52.97 0.16 7.46 20.51 11.51
3/23/2021 4:00:00 PM 11.69 53.042 0.16 7.47 18.42 11.47
3/23/2021 4:15:00 PM 11.76 53.168 0.16 7.48 18.8 11.46
3/23/2021 4:30:00 PM 11.75 53.15 0.16 7.49 25.12 11.39
3/23/2021 4:45:00 PM 11.77 53.186 0.16 7.5 22.92 11.35
3/23/2021 5:00:00 PM 11.72 53.096 0.16 7.51 18.83 11.29
3/23/2021 5:15:00 PM 11.66 52.988 0.16 7.5 24.07 11.26
3/23/2021 5:30:00 PM 11.58 52.844 0.16 7.51 20.61 11.17
3/23/2021 5:45:00 PM 11.54 52.772 0.16 7.51 44.43 11.13
3/23/2021 6:00:00 PM 11.5 52.7 0.16 7.51 20.63 11.1
3/23/2021 6:15:00 PM 11.46 52.628 0.16 7.51 23.68 11.05
3/23/2021 6:30:00 PM 11.41 52.538 0.16 7.51 23.97 11.01
3/23/2021 6:45:00 PM 11.36 52.448 0.16 7.51 27.93 10.94
3/23/2021 7:00:00 PM 11.3 52.34 0.16 7.51 21.53 10.88
3/23/2021 7:15:00 PM 11.22 52.196 0.16 7.51 19.2 10.86
3/23/2021 7:30:00 PM 11.14 52.052 0.161 7.51 21.82 10.78
3/23/2021 7:45:00 PM 11.06 51.908 0.161 7.51 21.81 10.74
3/23/2021 8:00:00 PM 11 51.8 0.161 7.5 20.28 10.68
3/23/2021 8:15:00 PM 10.94 51.692 0.161 7.49 21.76 10.63
3/23/2021 8:30:00 PM 10.89 51.602 0.161 7.48 23.04 10.6
3/23/2021 8:45:00 PM 10.85 51.53 0.161 7.48 23.34 10.58
3/23/2021 9:00:00 PM 10.8 51.44 0.161 7.47 21.46 10.55
3/23/2021 9:15:00 PM 10.75 51.35 0.161 7.46 16.91 10.52
3/23/2021 9:30:00 PM 10.7 51.26 0.161 7.45 19.98 10.52
3/23/2021 9:45:00 PM 10.65 51.17 0.161 7.45 20.36 10.52
3/23/2021 10:00:00 PM 10.6 51.08 0.16 7.44 19.13 10.51
3/23/2021 10:15:00 PM 10.55 50.99 0.16 7.44 18.79 10.49
3/23/2021 10:30:00 PM 10.51 50.918 0.16 7.43 18.08 10.49
3/23/2021 10:45:00 PM 10.46 50.828 0.16 7.43 21.1 10.49
3/23/2021 11:00:00 PM 10.42 50.756 0.16 7.42 29.41 10.5
3/23/2021 11:15:00 PM 10.38 50.684 0.16 7.41 24.72 10.49
3/23/2021 11:30:00 PM 10.34 50.612 0.16 7.41 19.16 10.49
3/23/2021 11:45:00 PM 10.31 50.558 0.16 7.4 27.71 10.48
3/24/2021 12:00:00 AM 10.29 50.522 0.16 7.39 15.23 10.47
3/24/2021 12:15:00 AM 10.28 50.504 0.16 7.39 22.86 10.49
3/24/2021 12:30:00 AM 10.27 50.486 0.161 7.36 23.96 10.48
3/24/2021 12:45:00 AM 10.26 50.468 0.161 7.37 28.52 10.48
3/24/2021 1:00:00 AM 10.25 50.45 0.161 7.37 25.63 10.49
3/24/2021 1:15:00 AM 10.25 50.45 0.161 7.36 23.48 10.47
3/24/2021 1:30:00 AM 10.25 50.45 0.161 7.36 29.98 10.49
3/24/2021 1:45:00 AM 10.25 50.45 0.161 7.36 26.21 10.49
3/24/2021 2:00:00 AM 10.25 50.45 0.161 7.35 23.89 10.49
3/24/2021 2:15:00 AM 10.25 50.45 0.162 7.35 28.47 10.51
3/24/2021 2:30:00 AM 10.25 50.45 0.161 7.35 26.25 10.5
3/24/2021 2:45:00 AM 10.26 50.468 0.161 7.34 25.23 10.5
3/24/2021 3:00:00 AM 10.26 50.468 0.162 7.34 22.73 10.51
3/24/2021 3:15:00 AM 10.26 50.468 0.162 7.34 22.12 10.51
3/24/2021 3:30:00 AM 10.26 50.468 0.161 7.33 26.54 10.51
3/24/2021 3:45:00 AM 10.26 50.468 0.161 7.33 30.48 10.51
3/24/2021 4:00:00 AM 10.26 50.468 0.162 7.33 31.27 10.52
3/24/2021 4:15:00 AM 10.25 50.45 0.162 7.32 35.57 10.51
3/24/2021 4:30:00 AM 10.25 50.45 0.162 7.32 31.89 10.51
3/24/2021 4:45:00 AM 10.24 50.432 0.162 7.29 25.26 10.43
3/24/2021 5:00:00 AM 10.23 50.414 0.162 7.3 15.8 10.53
3/24/2021 5:15:00 AM 10.22 50.396 0.162 7.29 18.73 10.53
3/24/2021 5:30:00 AM 10.2 50.36 0.161 7.3 12.73 10.53
3/24/2021 5:45:00 AM 10.19 50.342 0.161 7.29 14.62 10.54
3/24/2021 6:00:00 AM 10.17 50.306 0.161 7.29 11.06 10.54
3/24/2021 6:15:00 AM 10.16 50.288 0.161 7.3 14.31 10.56
3/24/2021 6:30:00 AM 10.15 50.27 0.161 7.29 21.47 10.54
3/24/2021 6:45:00 AM 10.13 50.234 0.161 7.3 18.78 10.56
3/24/2021 7:00:00 AM 10.12 50.216 0.161 7.3 15.62 10.57
3/24/2021 7:15:00 AM 10.1 50.18 0.161 7.29 11.52 10.57
3/24/2021 7:30:00 AM 10.09 50.162 0.161 7.3 10.97 10.58
3/24/2021 7:45:00 AM 10.08 50.144 0.161 7.28 11.72 10.59
3/24/2021 8:00:00 AM 10.07 50.126 0.161 7.29 14.6 10.59
3/24/2021 8:15:00 AM 10.06 50.108 0.161 7.29 16.2 10.61
3/24/2021 8:30:00 AM 10.05 50.09 0.161 7.28 21.1 10.63
3/24/2021 8:45:00 AM 10.04 50.072 0.161 7.29 13.17 10.64
3/24/2021 9:00:00 AM 10.03 50.054 0.161 7.29 15.49 10.65
3/24/2021 9:15:00 AM 10.03 50.054 0.16 7.27 19.3 10.69
3/24/2021 9:30:00 AM 10.03 50.054 0.16 7.28 18.75 10.71
3/24/2021 9:45:00 AM 10.03 50.054 0.16 7.28 17.45 10.73
3/24/2021 10:00:00 AM 10.04 50.072 0.159 7.28 25.42 10.77
3/24/2021 10:15:00 AM 10.04 50.072 0.159 7.29 16.23 10.8
3/24/2021 10:30:00 AM 10.06 50.108 0.159 7.28 432.9 10.83
3/24/2021 10:45:00 AM 10.08 50.144 0.159 7.3 15.41 10.86
3/24/2021 11:00:00 AM 10.08 50.144 0.159 7.3 25.96 10.88
3/24/2021 11:15:00 AM 10.09 50.162 0.159 7.29 35.75 10.88
3/24/2021 11:30:00 AM 10.1 50.18 0.159 7.28 24.98 10.87
3/24/2021 11:45:00 AM 10.11 50.198 0.158 7.28 15.79 10.89
3/24/2021 12:00:00 PM 10.13 50.234 0.158 7.28 17.99 10.91
3/24/2021 12:15:00 PM 10.15 50.27 0.158 7.29 21.26 10.94
3/24/2021 12:30:00 PM 10.2 50.36 0.157 7.28 17.16 10.96
3/24/2021 12:45:00 PM 10.23 50.414 0.156 7.28 22.32 10.99
3/24/2021 1:00:00 PM 10.25 50.45 0.155 7.31 17.3 11
3/24/2021 1:15:00 PM 10.26 50.468 0.155 7.31 23.94 11.01
3/24/2021 1:30:00 PM 10.28 50.504 0.155 7.3 15.13 10.98
3/24/2021 1:45:00 PM 10.31 50.558 0.154 7.32 17.77 10.96
3/24/2021 2:00:00 PM 10.33 50.594 0.153 7.32 14.79 10.95
3/24/2021 2:15:00 PM 10.35 50.63 0.152 7.32 28.24 10.95
3/24/2021 2:30:00 PM 10.37 50.666 0.152 7.32 17.26 10.94
3/24/2021 2:45:00 PM 10.38 50.684 0.151 7.31 21.45 10.94
3/24/2021 3:00:00 PM 10.4 50.72 0.151 7.32 19.19 10.91
3/24/2021 3:15:00 PM 10.42 50.756 0.15 7.31 30.17 10.91
3/24/2021 3:30:00 PM 10.45 50.81 0.149 7.31 19.02 10.91
3/24/2021 3:45:00 PM 10.47 50.846 0.149 7.31 19.42 10.88
3/24/2021 4:00:00 PM 10.48 50.864 0.148 7.3 16.56 10.89
3/24/2021 4:15:00 PM 10.49 50.882 0.148 7.31 44.02 10.89
3/24/2021 4:30:00 PM 10.51 50.918 0.147 7.32 18.8 10.86
3/24/2021 4:45:00 PM 10.53 50.954 0.147 7.31 30.66 10.85
3/24/2021 5:00:00 PM 10.54 50.972 0.147 7.3 29.04 10.81
3/24/2021 5:15:00 PM 10.55 50.99 0.147 7.3 48.24 10.8
3/24/2021 5:30:00 PM 10.56 51.008 0.147 7.3 50.38 10.77
3/24/2021 5:45:00 PM 10.57 51.026 0.147 7.29 25.86 10.75
3/24/2021 6:00:00 PM 10.58 51.044 0.148 7.29 40.64 10.74
3/24/2021 6:15:00 PM 10.6 51.08 0.148 7.28 40.97 10.71
3/24/2021 6:30:00 PM 10.61 51.098 0.149 7.28 55.63 10.68
3/24/2021 6:45:00 PM 10.63 51.134 0.149 7.28 50.19 10.66
3/24/2021 7:00:00 PM 10.64 51.152 0.149 7.28 75.6 10.59
3/24/2021 7:15:00 PM 10.65 51.17 0.15 7.27 64.62 10.59
3/24/2021 7:30:00 PM 10.66 51.188 0.15 7.29 63.98 10.57
3/24/2021 7:45:00 PM 10.67 51.206 0.151 7.29 73.96 10.54
3/24/2021 8:00:00 PM 10.68 51.224 0.151 7.27 111.5 10.51
3/24/2021 8:15:00 PM 10.69 51.242 0.152 7.27 93.67 10.49
3/24/2021 8:30:00 PM 10.69 51.242 0.152 7.27 120.4 10.48
3/24/2021 8:45:00 PM 10.69 51.242 0.152 7.27 103.7 10.47
3/24/2021 9:00:00 PM 10.69 51.242 0.152 7.26 105.5 10.47
3/24/2021 9:15:00 PM 10.69 51.242 0.151 7.26 103.9 10.47
3/24/2021 9:30:00 PM 10.69 51.242 0.15 7.26 83.56 10.43
3/24/2021 9:45:00 PM 10.69 51.242 0.15 7.27 99.13 10.46
3/24/2021 10:00:00 PM 10.69 51.242 0.149 7.27 87.41 10.44
3/24/2021 10:15:00 PM 10.68 51.224 0.148 7.26 66.41 10.44
3/24/2021 10:30:00 PM 10.68 51.224 0.148 7.25 76.4 10.44
3/24/2021 10:45:00 PM 10.67 51.206 0.147 7.27 61.36 10.43
3/24/2021 11:00:00 PM 10.67 51.206 0.147 7.25 95.71 10.43
3/24/2021 11:15:00 PM 10.66 51.188 0.146 7.26 60.4 10.44
3/24/2021 11:30:00 PM 10.65 51.17 0.146 7.26 64.25 10.42
3/24/2021 11:45:00 PM 10.65 51.17 0.146 7.26 68.72 10.44
3/25/2021 12:00:00 AM 10.64 51.152 0.146 7.26 68.82 10.44
3/25/2021 12:15:00 AM 10.63 51.134 0.146 7.25 60.28 10.45
3/25/2021 12:30:00 AM 10.62 51.116 0.147 7.25 54.12 10.44
3/25/2021 12:45:00 AM 10.61 51.098 0.147 7.25 58.84 10.44
3/25/2021 1:00:00 AM 10.6 51.08 0.148 7.24 65.23 10.43
3/25/2021 1:15:00 AM 10.59 51.062 0.147 7.24 52.73 10.45
3/25/2021 1:30:00 AM 10.58 51.044 0.147 7.24 48.48 10.45
3/25/2021 1:45:00 AM 10.56 51.008 0.147 7.25 46.13 10.45
3/25/2021 2:00:00 AM 10.55 50.99 0.147 7.24 44.8 10.44
3/25/2021 2:15:00 AM 10.53 50.954 0.147 7.26 54.02 10.46
3/25/2021 2:30:00 AM 10.52 50.936 0.147 7.24 40.54 10.46
3/25/2021 2:45:00 AM 10.51 50.918 0.147 7.25 45.18 10.47
3/25/2021 3:00:00 AM 10.49 50.882 0.147 7.25 40.49 10.46
3/25/2021 3:15:00 AM 10.48 50.864 0.147 7.25 35.13 10.46
3/25/2021 3:30:00 AM 10.47 50.846 0.147 7.24 36.18 10.47
3/25/2021 3:45:00 AM 10.46 50.828 0.148 7.25 36.36 10.48
3/25/2021 4:00:00 AM 10.44 50.792 0.146 7.25 33.58 10.48
3/25/2021 4:15:00 AM 10.43 50.774 0.146 7.24 40.09 10.48
3/25/2021 4:30:00 AM 10.42 50.756 0.146 7.25 37.45 10.49
3/25/2021 4:45:00 AM 10.41 50.738 0.146 7.25 30.69 10.48
3/25/2021 5:00:00 AM 10.4 50.72 0.146 7.24 28.35 10.5
3/25/2021 5:15:00 AM 10.38 50.684 0.146 7.24 30.43 10.5
3/25/2021 5:30:00 AM 10.37 50.666 0.147 7.23 24.1 10.49
3/25/2021 5:45:00 AM 10.36 50.648 0.147 7.23 35.23 10.5
3/25/2021 6:00:00 AM 10.35 50.63 0.147 7.23 25.25 10.51
3/25/2021 6:15:00 AM 10.34 50.612 0.147 7.23 24.35 10.53
3/25/2021 6:30:00 AM 10.32 50.576 0.147 7.21 31.06 10.52
3/25/2021 6:45:00 AM 10.31 50.558 0.148 7.21 23.96 10.54
3/25/2021 7:00:00 AM 10.3 50.54 0.148 7.22 22.61 10.53
3/25/2021 7:15:00 AM 10.29 50.522 0.148 7.22 18.61 10.55
3/25/2021 7:30:00 AM 10.28 50.504 0.148 7.21 20.33 10.55
3/25/2021 7:45:00 AM 10.28 50.504 0.148 7.22 19.68 10.57
3/25/2021 8:00:00 AM 10.28 50.504 0.149 7.22 22.06 10.61
3/25/2021 8:15:00 AM 10.29 50.522 0.149 7.22 20.81 10.63
3/25/2021 8:30:00 AM 10.32 50.576 0.149 7.2 20.41 10.68
3/25/2021 8:45:00 AM 10.34 50.612 0.149 7.21 16.28 10.74
3/25/2021 9:00:00 AM 10.37 50.666 0.149 7.22 17.43 10.77
3/25/2021 9:15:00 AM 10.42 50.756 0.149 7.22 17.7 10.82
3/25/2021 9:30:00 AM 10.45 50.81 0.15 7.23 17.31 10.84
3/25/2021 9:45:00 AM 10.48 50.864 0.15 7.23 17.6 10.85
3/25/2021 10:00:00 AM 10.51 50.918 0.15 7.24 16.22 10.87
3/25/2021 10:15:00 AM 10.57 51.026 0.15 7.24 17.37 10.91
3/25/2021 10:30:00 AM 10.63 51.134 0.151 7.24 16.35 10.94
3/25/2021 10:45:00 AM 10.7 51.26 0.151 7.24 17.26 10.98
3/25/2021 11:00:00 AM 10.78 51.404 0.151 7.26 16.16 11.01
3/25/2021 11:15:00 AM 10.87 51.566 0.151 7.27 13.49 11.04
3/25/2021 11:30:00 AM 10.97 51.746 0.151 7.28 15.64 11.04
3/25/2021 11:45:00 AM 11.04 51.872 0.151 7.28 12.46 11.05
3/25/2021 12:00:00 PM 11.12 52.016 0.151 7.29 12.51 11.07
3/25/2021 12:15:00 PM 11.21 52.178 0.151 7.29 12.58 11.08
3/25/2021 12:30:00 PM 11.29 52.322 0.151 7.3 12.2 11.07
3/25/2021 12:45:00 PM 11.38 52.484 0.151 7.3 11.61 11.08
3/25/2021 1:00:00 PM 11.49 52.682 0.151 7.31 12.2 11.07
3/25/2021 1:15:00 PM 11.59 52.862 0.152 7.31 11.5 11.08
3/25/2021 1:30:00 PM 11.71 53.078 0.152 7.32 11.62 11.06
3/25/2021 1:45:00 PM 11.84 53.312 0.152 7.33 11.9 11.08
3/25/2021 2:00:00 PM 12 53.6 0.152 7.34 27.22 11.06
3/25/2021 2:15:00 PM 12.14 53.852 0.152 7.35 11.17 11.04
3/25/2021 2:30:00 PM 12.27 54.086 0.152 7.35 11.87 11.02
3/25/2021 2:45:00 PM 12.4 54.32 0.152 7.36 12.24 10.99
3/25/2021 3:00:00 PM 12.54 54.572 0.152 7.37 11.41 10.96
3/25/2021 3:15:00 PM 12.66 54.788 0.152 7.37 10.99 10.94
3/25/2021 3:30:00 PM 12.79 55.022 0.152 7.37 9.6 10.9
3/25/2021 3:45:00 PM 12.89 55.202 0.152 7.37 9.95 10.89
3/25/2021 4:00:00 PM 12.92 55.256 0.152 7.37 11.17 10.85
3/25/2021 4:15:00 PM 12.94 55.292 0.152 7.37 9.79 10.82
3/25/2021 4:30:00 PM 12.97 55.346 0.152 7.38 25.24 10.78
3/25/2021 4:45:00 PM 13 55.4 0.153 7.4 10.44 10.72
3/25/2021 5:00:00 PM 13.05 55.49 0.152 7.4 10.36 10.67
3/25/2021 5:15:00 PM 13.08 55.544 0.153 7.4 10.48 10.65
3/25/2021 5:30:00 PM 13.08 55.544 0.153 7.41 9.44 10.6
3/25/2021 5:45:00 PM 13.06 55.508 0.153 7.4 10.06 10.54
3/25/2021 6:00:00 PM 13.04 55.472 0.153 7.41 9.42 10.48
3/25/2021 6:15:00 PM 13.03 55.454 0.153 7.4 8.98 10.42
3/25/2021 6:30:00 PM 13.02 55.436 0.153 7.4 9.6 10.35
3/25/2021 6:45:00 PM 13.01 55.418 0.153 7.4 13.29 10.3
3/25/2021 7:00:00 PM 12.99 55.382 0.153 7.39 10.12 10.23
3/25/2021 7:15:00 PM 12.97 55.346 0.153 7.38 10.62 10.18
3/25/2021 7:30:00 PM 12.94 55.292 0.153 7.4 8.96 10.14
3/25/2021 7:45:00 PM 12.91 55.238 0.153 7.39 9.47 10.08
3/25/2021 8:00:00 PM 12.89 55.202 0.153 7.38 10.89 10.06
3/25/2021 8:15:00 PM 12.88 55.184 0.153 7.37 9.61 10.01
3/25/2021 8:30:00 PM 12.86 55.148 0.153 7.37 9.8 10
3/25/2021 8:45:00 PM 12.85 55.13 0.153 7.36 9.72 9.97
3/25/2021 9:00:00 PM 12.83 55.094 0.153 7.35 10.85 9.95
3/25/2021 9:15:00 PM 12.81 55.058 0.153 7.35 10.85 9.91
3/25/2021 9:30:00 PM 12.8 55.04 0.153 7.34 10.35 9.91
3/25/2021 9:45:00 PM 12.78 55.004 0.153 7.35 12.13 9.89
3/25/2021 10:00:00 PM 12.77 54.986 0.153 7.33 14.67 9.89
3/25/2021 10:15:00 PM 12.76 54.968 0.153 7.32 10.96 9.88
3/25/2021 10:30:00 PM 12.75 54.95 0.153 7.32 10.39 9.86
3/25/2021 10:45:00 PM 12.74 54.932 0.153 7.32 12.08 9.84
3/25/2021 11:00:00 PM 12.74 54.932 0.153 7.32 13.62 9.84
3/25/2021 11:15:00 PM 12.73 54.914 0.153 7.3 10.21 9.82
3/25/2021 11:30:00 PM 12.73 54.914 0.153 7.29 10.59 9.83
3/25/2021 11:45:00 PM 12.72 54.896 0.153 7.3 11 9.83
3/26/2021 12:00:00 AM 12.72 54.896 0.153 7.3 11.19 9.82
3/26/2021 12:15:00 AM 12.71 54.878 0.153 7.28 15.29 9.82
3/26/2021 12:30:00 AM 12.7 54.86 0.153 7.28 12.44 9.81
3/26/2021 12:45:00 AM 12.68 54.824 0.153 7.27 11.49 9.81
3/26/2021 1:00:00 AM 12.67 54.806 0.153 7.27 10.75 9.81
3/26/2021 1:15:00 AM 12.65 54.77 0.153 7.26 10.33 9.82
3/26/2021 1:30:00 AM 12.63 54.734 0.153 7.26 10 9.82
3/26/2021 1:45:00 AM 12.61 54.698 0.153 7.25 11.78 9.82
3/26/2021 2:00:00 AM 12.6 54.68 0.153 7.26 9.86 9.83
3/26/2021 2:15:00 AM 12.58 54.644 0.154 7.25 10.4 9.83
3/26/2021 2:30:00 AM 12.55 54.59 0.153 7.25 10.91 9.84
3/26/2021 2:45:00 AM 12.53 54.554 0.153 7.24 9.51 9.84
3/26/2021 3:00:00 AM 12.51 54.518 0.153 7.25 9.92 9.83
3/26/2021 3:15:00 AM 12.5 54.5 0.153 7.25 10.43 9.86
3/26/2021 3:30:00 AM 12.48 54.464 0.153 7.25 13.14 9.85
3/26/2021 3:45:00 AM 12.45 54.41 0.154 7.24 12.93 9.85
3/26/2021 4:00:00 AM 12.44 54.392 0.154 7.24 11.33 9.87
3/26/2021 4:15:00 AM 12.42 54.356 0.154 7.24 12.84 9.87
3/26/2021 4:30:00 AM 12.39 54.302 0.154 7.24 10.24 9.87
3/26/2021 4:45:00 AM 12.36 54.248 0.154 7.24 12.24 9.87
3/26/2021 5:00:00 AM 12.34 54.212 0.154 7.24 13.76 9.87
3/26/2021 5:15:00 AM 12.31 54.158 0.154 7.23 11.33 9.89
3/26/2021 5:30:00 AM 12.27 54.086 0.154 7.23 12.88 9.89
3/26/2021 5:45:00 AM 12.22 53.996 0.154 7.23 12.5 9.9
3/26/2021 6:00:00 AM 12.18 53.924 0.154 7.24 15.73 9.9
3/26/2021 6:15:00 AM 12.13 53.834 0.154 7.23 9.61 9.9
3/26/2021 6:30:00 AM 12.11 53.798 0.154 7.23 11.08 9.92
3/26/2021 6:45:00 AM 12.09 53.762 0.154 7.23 10.69 9.93
3/26/2021 7:00:00 AM 12.07 53.726 0.154 7.23 10.01 9.93
3/26/2021 7:15:00 AM 12.04 53.672 0.154 7.22 13.07 9.93
3/26/2021 7:30:00 AM 12.02 53.636 0.154 7.23 9.93 9.95
3/26/2021 7:45:00 AM 12.02 53.636 0.154 7.23 11.1 9.98
3/26/2021 8:00:00 AM 12.02 53.636 0.154 7.23 10.52 10.02
3/26/2021 8:15:00 AM 12.03 53.654 0.154 7.23 10.1 10.02
3/26/2021 8:30:00 AM 12.06 53.708 0.154 7.23 9.29 10.03
3/26/2021 8:45:00 AM 12.09 53.762 0.154 7.23 10.15 10.1
3/26/2021 9:00:00 AM 12.14 53.852 0.154 7.23 10.2 10.16
3/26/2021 9:15:00 AM 12.21 53.978 0.154 7.23 9.5 10.21
3/26/2021 9:30:00 AM 12.25 54.05 0.154 7.24 10.12 10.25
3/26/2021 9:45:00 AM 12.33 54.194 0.154 7.25 9.77 10.29
3/26/2021 10:00:00 AM 12.41 54.338 0.154 7.26 12.51 10.33
3/26/2021 10:15:00 AM 12.52 54.536 0.154 7.26 13.03 10.36
3/26/2021 10:30:00 AM 12.67 54.806 0.154 7.25 9.68 10.39
3/26/2021 10:45:00 AM 12.84 55.112 0.153 7.26 10.16 10.4
3/26/2021 11:00:00 AM 13.05 55.49 0.153 7.27 9.22 10.43
3/26/2021 11:15:00 AM 13.25 55.85 0.153 7.29 10.8 10.43
3/26/2021 11:30:00 AM 13.54 56.372 0.153 7.27 13.43 10.43
3/26/2021 11:45:00 AM 13.79 56.822 0.153 7.28 11.43 10.44
3/26/2021 12:00:00 PM 14.04 57.272 0.153 7.3 12.02 10.42
3/26/2021 12:15:00 PM 14.33 57.794 0.153 7.29 10.59 10.39
3/26/2021 12:30:00 PM 14.6 58.28 0.153 7.29 10.66 10.39
3/26/2021 12:45:00 PM 14.88 58.784 0.152 7.3 11.28 10.37
3/26/2021 1:00:00 PM 15.13 59.234 0.153 7.31 10.74 10.33
3/26/2021 1:15:00 PM 15.41 59.738 0.153 7.29 14.11 10.29
3/26/2021 1:30:00 PM 15.69 60.242 0.153 7.31 11.5 10.28
3/26/2021 1:45:00 PM 15.97 60.746 0.153 7.32 10.2 10.23
3/26/2021 2:00:00 PM 16.23 61.214 0.153 7.3 11.69 10.18
3/26/2021 2:15:00 PM 16.44 61.592 0.153 7.32 10.53 10.18
3/26/2021 2:30:00 PM 16.63 61.934 0.153 7.34 8.78 10.15
3/26/2021 2:45:00 PM 16.78 62.204 0.153 7.33 8.42 10.11
3/26/2021 3:00:00 PM 16.9 62.42 0.153 7.35 9.36 10.06
3/26/2021 3:15:00 PM 16.96 62.528 0.153 7.38 13.76 10.04
3/26/2021 3:30:00 PM 17.04 62.672 0.153 7.35 10.2 10
3/26/2021 3:45:00 PM 17.08 62.744 0.153 7.37 10.45 9.96
3/26/2021 4:00:00 PM 17.09 62.762 0.153 7.37 9.02 9.9
3/26/2021 4:15:00 PM 17.05 62.69 0.153 7.38 9.79 9.86
3/26/2021 4:30:00 PM 17.01 62.618 0.153 7.39 12.03 9.83
3/26/2021 4:45:00 PM 16.96 62.528 0.153 7.39 9.33 9.8
3/26/2021 5:00:00 PM 16.85 62.33 0.153 7.39 8.76 9.73
3/26/2021 5:15:00 PM 16.76 62.168 0.153 7.42 10.45 9.69
3/26/2021 5:30:00 PM 16.69 62.042 0.153 7.42 10.34 9.65
3/26/2021 5:45:00 PM 16.56 61.808 0.153 7.38 10.35 9.62
3/26/2021 6:00:00 PM 16.45 61.61 0.153 7.42 10.8 9.55
3/26/2021 6:15:00 PM 16.34 61.412 0.153 7.4 35.14 9.47
3/26/2021 6:30:00 PM 16.23 61.214 0.153 7.44 11.02 9.46
3/26/2021 6:45:00 PM 16.1 60.98 0.153 7.44 12.17 9.37
3/26/2021 7:00:00 PM 15.99 60.782 0.154 7.4 53.98 9.3
3/26/2021 7:15:00 PM 15.86 60.548 0.154 7.41 15.39 9.35
3/26/2021 7:30:00 PM 15.74 60.332 0.154 7.38 76.62 9.34
3/26/2021 7:45:00 PM 15.65 60.17 0.154 7.37 190 9.27
3/26/2021 8:00:00 PM 15.55 59.99 0.153 7.37 99.67 9.24
3/26/2021 8:15:00 PM 15.45 59.81 0.153 7.35 16.09 9.24
3/26/2021 8:30:00 PM 15.36 59.648 0.153 7.37 8.31 9.21
3/26/2021 8:45:00 PM 15.29 59.522 0.153 7.35 12.06 9.18
3/26/2021 9:00:00 PM 15.22 59.396 0.153 7.36 9.23 9.17
3/26/2021 9:15:00 PM 15.12 59.216 0.153 7.33 14.72 9.19
3/26/2021 9:30:00 PM 15.03 59.054 0.153 7.32 16.76 9.19
3/26/2021 9:45:00 PM 14.94 58.892 0.153 7.33 11.98 9.2
3/26/2021 10:00:00 PM 14.84 58.712 0.153 7.32 8.84 9.19
3/26/2021 10:15:00 PM 14.76 58.568 0.153 7.32 8.61 9.19
3/26/2021 10:30:00 PM 14.66 58.388 0.153 7.31 8.36 9.19
3/26/2021 10:45:00 PM 14.56 58.208 0.153 7.3 8.64 9.21
3/26/2021 11:00:00 PM 14.46 58.028 0.153 7.28 10.16 9.23
3/26/2021 11:15:00 PM 14.37 57.866 0.153 7.28 7.92 9.27
3/26/2021 11:30:00 PM 14.29 57.722 0.154 7.29 9.04 9.28
3/26/2021 11:45:00 PM 14.19 57.542 0.154 7.27 12.03 9.28
3/27/2021 12:00:00 AM 14.09 57.362 0.154 7.26 21.8 9.32
3/27/2021 12:15:00 AM 14 57.2 0.153 7.26 10.86 9.35
3/27/2021 12:30:00 AM 13.9 57.02 0.153 7.24 12.36 9.38
3/27/2021 12:45:00 AM 13.81 56.858 0.153 7.22 207.1 9.44
3/27/2021 1:00:00 AM 13.71 56.678 0.153 7.23 10.63 9.45
3/27/2021 1:15:00 AM 13.62 56.516 0.153 7.22 16.69 9.48
3/27/2021 1:30:00 AM 13.53 56.354 0.153 7.24 12.41 9.5
3/27/2021 1:45:00 AM 13.44 56.192 0.153 7.22 13.83 9.53
3/27/2021 2:00:00 AM 13.34 56.012 0.153 7.23 14 9.55
3/27/2021 2:15:00 AM 13.25 55.85 0.153 7.22 12.95 9.58
3/27/2021 2:30:00 AM 13.15 55.67 0.153 7.22 16.57 9.62
3/27/2021 2:45:00 AM 13.06 55.508 0.153 7.22 12.78 9.63
3/27/2021 3:00:00 AM 12.96 55.328 0.153 7.22 15.36 9.66
3/27/2021 3:15:00 AM 12.85 55.13 0.153 7.23 22.04 9.69
3/27/2021 3:30:00 AM 12.75 54.95 0.153 7.22 28.08 9.71
3/27/2021 3:45:00 AM 12.65 54.77 0.153 7.22 18.89 9.75
3/27/2021 4:00:00 AM 12.54 54.572 0.153 7.22 12.31 9.78
3/27/2021 4:15:00 AM 12.43 54.374 0.153 7.23 14.21 9.81
3/27/2021 4:30:00 AM 12.32 54.176 0.153 7.22 13.26 9.84
3/27/2021 4:45:00 AM 12.21 53.978 0.153 7.22 10.79 9.88
3/27/2021 5:00:00 AM 12.1 53.78 0.153 7.21 10.75 9.9
3/27/2021 5:15:00 AM 11.99 53.582 0.153 7.21 14.43 9.92
3/27/2021 5:30:00 AM 11.88 53.384 0.154 7.21 13.74 9.96
3/27/2021 5:45:00 AM 11.78 53.204 0.154 7.21 16.19 10
3/27/2021 6:00:00 AM 11.68 53.024 0.154 7.2 16.03 10.03
3/27/2021 6:15:00 AM 11.58 52.844 0.154 7.21 15.01 10.06
3/27/2021 6:30:00 AM 11.48 52.664 0.153 7.21 17.62 10.09
3/27/2021 6:45:00 AM 11.37 52.466 0.153 7.22 13.74 10.12
3/27/2021 7:00:00 AM 11.27 52.286 0.153 7.22 14.77 10.16
3/27/2021 7:15:00 AM 11.17 52.106 0.153 7.21 15.14 10.19
3/27/2021 7:30:00 AM 11.08 51.944 0.153 7.22 13.79 10.23
3/27/2021 7:45:00 AM 11 51.8 0.153 7.21 13.1 10.29
3/27/2021 8:00:00 AM 10.93 51.674 0.153 7.22 15.02 10.36
3/27/2021 8:15:00 AM 10.87 51.566 0.153 7.21 15.09 10.43
3/27/2021 8:30:00 AM 10.83 51.494 0.153 7.21 14.66 10.51
3/27/2021 8:45:00 AM 10.79 51.422 0.153 7.22 13.12 10.58
3/27/2021 9:00:00 AM 10.75 51.35 0.153 7.23 11.69 10.64
3/27/2021 9:15:00 AM 10.73 51.314 0.153 7.23 16.92 10.67
3/27/2021 9:30:00 AM 10.74 51.332 0.153 7.23 13.83 10.74
3/27/2021 9:45:00 AM 10.76 51.368 0.153 7.24 12.13 10.78
3/27/2021 10:00:00 AM 10.81 51.458 0.153 7.24 12 10.83
3/27/2021 10:15:00 AM 10.89 51.602 0.153 7.25 14.61 10.87
3/27/2021 10:30:00 AM 11.01 51.818 0.153 7.25 14.72 10.93
3/27/2021 10:45:00 AM 11.16 52.088 0.153 7.25 14.37 10.96
3/27/2021 11:00:00 AM 11.35 52.43 0.153 7.26 13.27 11
3/27/2021 11:15:00 AM 11.56 52.808 0.153 7.26 12.21 11.03
3/27/2021 11:30:00 AM 11.79 53.222 0.153 7.27 14.25 11.05
3/27/2021 11:45:00 AM 12.06 53.708 0.152 7.26 13.1 11.05
3/27/2021 12:00:00 PM 12.33 54.194 0.152 7.26 11.46 11.03
3/27/2021 12:15:00 PM 12.62 54.716 0.152 7.27 14.34 11.03
3/27/2021 12:30:00 PM 12.95 55.31 0.152 7.27 567.3 11
3/27/2021 12:45:00 PM 13.27 55.886 0.152 7.27 12.9 10.97
3/27/2021 1:00:00 PM 13.58 56.444 0.152 7.29 10.88 10.94
3/27/2021 1:15:00 PM 13.86 56.948 0.152 7.28 13.58 10.91
3/27/2021 1:30:00 PM 14.12 57.416 0.152 7.29 17.19 10.88
3/27/2021 1:45:00 PM 14.35 57.83 0.152 7.29 16.5 10.84
3/27/2021 2:00:00 PM 14.55 58.19 0.152 7.31 14.41 10.81
3/27/2021 2:15:00 PM 14.69 58.442 0.152 7.31 12.62 10.79
3/27/2021 2:30:00 PM 14.79 58.622 0.152 7.31 10.53 10.74
3/27/2021 2:45:00 PM 14.9 58.82 0.152 7.31 16.76 10.71
3/27/2021 3:00:00 PM 14.96 58.928 0.152 7.33 11.37 10.68
3/27/2021 3:15:00 PM 14.99 58.982 0.152 7.33 9.65 10.64
3/27/2021 3:30:00 PM 14.98 58.964 0.152 7.34 11.19 10.61
3/27/2021 3:45:00 PM 14.95 58.91 0.152 7.35 12.81 10.58
3/27/2021 4:00:00 PM 14.9 58.82 0.152 7.37 10.77 10.53
3/27/2021 4:15:00 PM 14.84 58.712 0.152 7.37 12.82 10.48
3/27/2021 4:30:00 PM 14.79 58.622 0.152 7.39 11.03 10.44
3/27/2021 4:45:00 PM 14.74 58.532 0.152 7.37 11.03 10.42
3/27/2021 5:00:00 PM 14.69 58.442 0.152 7.38 10.09 10.39
3/27/2021 5:15:00 PM 14.63 58.334 0.152 7.38 10.33 10.34
3/27/2021 5:30:00 PM 14.57 58.226 0.152 7.38 9.35 10.3
3/27/2021 5:45:00 PM 14.51 58.118 0.152 7.38 12.15 10.26
3/27/2021 6:00:00 PM 14.45 58.01 0.152 7.38 9.27 10.22
3/27/2021 6:15:00 PM 14.39 57.902 0.152 7.39 10.74 10.16
3/27/2021 6:30:00 PM 14.33 57.794 0.152 7.39 10.2 10.12
3/27/2021 6:45:00 PM 14.28 57.704 0.152 7.39 10.96 10.06
3/27/2021 7:00:00 PM 14.21 57.578 0.152 7.38 10.91 10
3/27/2021 7:15:00 PM 14.14 57.452 0.152 7.38 10.59 9.95
3/27/2021 7:30:00 PM 14.08 57.344 0.152 7.37 14.32 9.9
3/27/2021 7:45:00 PM 14.02 57.236 0.152 7.37 8.53 9.84
3/27/2021 8:00:00 PM 13.97 57.146 0.152 7.37 9 9.81
3/27/2021 8:15:00 PM 13.92 57.056 0.152 7.36 8.6 9.78
3/27/2021 8:30:00 PM 13.86 56.948 0.152 7.35 10.67 9.74
3/27/2021 8:45:00 PM 13.81 56.858 0.152 7.34 9.69 9.73
3/27/2021 9:00:00 PM 13.76 56.768 0.152 7.33 12.72 9.71
3/27/2021 9:15:00 PM 13.72 56.696 0.152 7.33 11.74 9.7
3/27/2021 9:30:00 PM 13.67 56.606 0.152 7.33 11.97 9.67
3/27/2021 9:45:00 PM 13.62 56.516 0.152 7.33 9.81 9.67
3/27/2021 10:00:00 PM 13.57 56.426 0.152 7.31 10.83 9.66
3/27/2021 10:15:00 PM 13.53 56.354 0.152 7.3 14.91 9.65
3/27/2021 10:30:00 PM 13.49 56.282 0.152 7.29 13.39 9.65
3/27/2021 10:45:00 PM 13.45 56.21 0.152 7.3 13.67 9.64
3/27/2021 11:00:00 PM 13.41 56.138 0.152 7.29 10.79 9.63
3/27/2021 11:15:00 PM 13.37 56.066 0.152 7.29 15.5 9.64
3/27/2021 11:30:00 PM 13.33 55.994 0.152 7.28 15 9.64
3/27/2021 11:45:00 PM 13.28 55.904 0.152 7.28 10.72 9.65
3/28/2021 12:00:00 AM 13.23 55.814 0.152 7.27 22.91 9.65
3/28/2021 12:15:00 AM 13.18 55.724 0.152 7.25 202.2 9.65
3/28/2021 12:30:00 AM 13.12 55.616 0.152 7.25 14.47 9.66
3/28/2021 12:45:00 AM 13.07 55.526 0.153 7.27 15.11 9.67
3/28/2021 1:00:00 AM 13.01 55.418 0.153 7.25 12.21 9.68
3/28/2021 1:15:00 AM 12.95 55.31 0.153 7.24 12.66 9.68
3/28/2021 1:30:00 AM 12.89 55.202 0.153 7.25 12.04 9.69
3/28/2021 1:45:00 AM 12.82 55.076 0.153 7.23 11.31 9.72
3/28/2021 2:00:00 AM 12.77 54.986 0.153 7.24 12.81 9.74
3/28/2021 2:15:00 AM 12.72 54.896 0.153 7.24 67.37 9.75
3/28/2021 2:30:00 AM 12.66 54.788 0.153 7.23 13.03 9.77
3/28/2021 2:45:00 AM 12.6 54.68 0.153 7.22 39.72 9.79
3/28/2021 3:00:00 AM 12.55 54.59 0.153 7.22 65.94 9.8
3/28/2021 3:15:00 AM 12.5 54.5 0.153 7.22 18.76 9.82
3/28/2021 3:30:00 AM 12.45 54.41 0.153 7.22 108.6 9.82
3/28/2021 3:45:00 AM 12.41 54.338 0.153 7.22 124.9 9.83
3/28/2021 4:00:00 AM 12.37 54.266 0.153 7.22 15.94 9.85
3/28/2021 4:15:00 AM 12.34 54.212 0.153 7.22 13 9.86
3/28/2021 4:30:00 AM 12.3 54.14 0.153 7.22 122.5 9.86
3/28/2021 4:45:00 AM 12.27 54.086 0.153 7.2 15.24 9.89
3/28/2021 5:00:00 AM 12.24 54.032 0.154 7.23 12.46 9.88
3/28/2021 5:15:00 AM 12.2 53.96 0.153 7.21 17.58 9.9
3/28/2021 5:30:00 AM 12.16 53.888 0.153 7.22 14.7 9.92
3/28/2021 5:45:00 AM 12.13 53.834 0.153 7.22 14.79 9.93
3/28/2021 6:00:00 AM 12.09 53.762 0.153 7.21 350.4 9.94
3/28/2021 6:15:00 AM 12.06 53.708 0.153 7.21 12.21 9.95
3/28/2021 6:30:00 AM 12.02 53.636 0.153 7.21 10.21 9.94
3/28/2021 6:45:00 AM 11.99 53.582 0.153 7.2 110.1 9.97
3/28/2021 7:00:00 AM 11.96 53.528 0.153 7.2 12.19 9.97
3/28/2021 7:15:00 AM 11.93 53.474 0.153 7.2 285.6 9.99
3/28/2021 7:30:00 AM 11.89 53.402 0.153 7.21 11.07 9.99
3/28/2021 7:45:00 AM 11.86 53.348 0.153 7.21 11.85 10.01
3/28/2021 8:00:00 AM 11.83 53.294 0.153 7.22 12.83 10.03
3/28/2021 8:15:00 AM 11.8 53.24 0.152 7.21 201.7 10.04
3/28/2021 8:30:00 AM 11.77 53.186 0.152 7.22 12.59 10.06
3/28/2021 8:45:00 AM 11.74 53.132 0.152 7.22 10.5 10.09
3/28/2021 9:00:00 AM 11.72 53.096 0.152 7.22 13.63 10.12
3/28/2021 9:15:00 AM 11.7 53.06 0.152 7.21 13.92 10.15
3/28/2021 9:30:00 AM 11.69 53.042 0.152 7.2 11.79 10.16
3/28/2021 9:45:00 AM 11.67 53.006 0.151 7.2 12.54 10.21
3/28/2021 10:00:00 AM 11.65 52.97 0.151 7.21 11.5 10.25
3/28/2021 10:15:00 AM 11.64 52.952 0.151 7.2 69.21 10.24
3/28/2021 10:30:00 AM 11.63 52.934 0.151 7.21 35 10.27
3/28/2021 10:45:00 AM 11.62 52.916 0.151 7.22 11.99 10.3
3/28/2021 11:00:00 AM 11.61 52.898 0.151 7.21 20.62 10.33
3/28/2021 11:15:00 AM 11.61 52.898 0.151 7.23 112.3 10.33
3/28/2021 11:30:00 AM 11.6 52.88 0.151 7.22 16.72 10.35
3/28/2021 11:45:00 AM 11.61 52.898 0.151 7.23 13 10.38
3/28/2021 12:00:00 PM 11.62 52.916 0.151 7.24 12.14 10.41
3/28/2021 12:15:00 PM 11.62 52.916 0.15 7.23 56.95 10.42
3/28/2021 12:30:00 PM 11.63 52.934 0.15 7.24 11.7 10.43
3/28/2021 12:45:00 PM 11.65 52.97 0.15 7.25 12.31 10.43
3/28/2021 1:00:00 PM 11.67 53.006 0.15 7.25 10 10.47
3/28/2021 1:15:00 PM 11.71 53.078 0.15 7.28 10.28 10.46
3/28/2021 1:30:00 PM 11.74 53.132 0.15 7.25 12.4 10.53
3/28/2021 1:45:00 PM 11.77 53.186 0.15 7.25 17.71 10.53
3/28/2021 2:00:00 PM 11.82 53.276 0.15 7.26 15.09 10.54
3/28/2021 2:15:00 PM 11.86 53.348 0.15 7.27 17.82 10.56
3/28/2021 2:30:00 PM 11.91 53.438 0.15 7.27 14.68 10.58
3/28/2021 2:45:00 PM 11.96 53.528 0.15 7.27 11.56 10.59
3/28/2021 3:00:00 PM 12 53.6 0.15 7.28 11.18 10.59
3/28/2021 3:15:00 PM 12.05 53.69 0.15 7.28 9.57 10.57
3/28/2021 3:30:00 PM 12.12 53.816 0.15 7.28 9.99 10.58
3/28/2021 3:45:00 PM 12.2 53.96 0.15 7.28 8.85 10.59
3/28/2021 4:00:00 PM 12.28 54.104 0.15 7.28 10.14 10.61
3/28/2021 4:15:00 PM 12.37 54.266 0.15 7.29 13.47 10.6
3/28/2021 4:30:00 PM 12.46 54.428 0.15 7.28 11.91 10.61
3/28/2021 4:45:00 PM 12.53 54.554 0.15 7.28 43.85 10.6
3/28/2021 5:00:00 PM 12.58 54.644 0.149 7.29 16 10.58
3/28/2021 5:15:00 PM 12.62 54.716 0.149 7.3 8.53 10.55
3/28/2021 5:30:00 PM 12.65 54.77 0.149 7.3 9.96 10.49
3/28/2021 5:45:00 PM 12.68 54.824 0.149 7.3 10.64 10.41
3/28/2021 6:00:00 PM 12.67 54.806 0.148 7.3 20.24 10.32
3/28/2021 6:15:00 PM 12.65 54.77 0.148 7.3 11.56 10.25
3/28/2021 6:30:00 PM 12.64 54.752 0.148 7.32 11.58 10.23
3/28/2021 6:45:00 PM 12.62 54.716 0.148 7.3 18.49 10.19
3/28/2021 7:00:00 PM 12.61 54.698 0.148 7.31 11.62 10.16
3/28/2021 7:15:00 PM 12.6 54.68 0.148 7.3 10.83 10.13
3/28/2021 7:30:00 PM 12.57 54.626 0.148 7.3 10.96 10.1
3/28/2021 7:45:00 PM 12.54 54.572 0.148 7.3 9.91 10.07
3/28/2021 8:00:00 PM 12.51 54.518 0.148 7.28 9.81 10.02
3/28/2021 8:15:00 PM 12.47 54.446 0.148 7.29 15.02 9.98
3/28/2021 8:30:00 PM 12.44 54.392 0.148 7.28 14.96 9.96
3/28/2021 8:45:00 PM 12.39 54.302 0.148 7.28 14.82 9.94
3/28/2021 9:00:00 PM 12.35 54.23 0.148 7.27 11.7 9.92
3/28/2021 9:15:00 PM 12.29 54.122 0.148 7.27 33.73 9.91
3/28/2021 9:30:00 PM 12.22 53.996 0.148 7.27 11.47 9.89
3/28/2021 9:45:00 PM 12.14 53.852 0.148 7.27 17.54 9.9
3/28/2021 10:00:00 PM 12.08 53.744 0.148 7.25 20.14 9.91
3/28/2021 10:15:00 PM 11.99 53.582 0.148 7.25 19.27 9.91
3/28/2021 10:30:00 PM 11.91 53.438 0.148 7.26 18.26 9.92
3/28/2021 10:45:00 PM 11.81 53.258 0.149 7.23 21.53 9.94
3/28/2021 11:00:00 PM 11.74 53.132 0.149 7.25 23.96 9.96
3/28/2021 11:15:00 PM 11.66 52.988 0.15 7.24 27.48 9.97
3/28/2021 11:30:00 PM 11.58 52.844 0.15 7.24 34.64 9.98
3/28/2021 11:45:00 PM 11.51 52.718 0.151 7.24 38.32 10
3/29/2021 12:00:00 AM 11.44 52.592 0.151 7.24 28.45 10.02
3/29/2021 12:15:00 AM 11.37 52.466 0.152 7.25 27.82 10.02
3/29/2021 12:30:00 AM 11.28 52.304 0.152 7.25 17.36 10.05
3/29/2021 12:45:00 AM 11.18 52.124 0.152 7.25 15.49 10.07
3/29/2021 1:00:00 AM 11.11 51.998 0.152 7.25 35.75 10.1
3/29/2021 1:15:00 AM 11.03 51.854 0.152 7.27 15.8 10.11
3/29/2021 1:30:00 AM 10.95 51.71 0.152 7.26 31.59 10.14
3/29/2021 1:45:00 AM 10.87 51.566 0.152 7.26 21.7 10.15
3/29/2021 2:00:00 AM 10.78 51.404 0.152 7.28 24.52 10.16
3/29/2021 2:15:00 AM 10.7 51.26 0.151 7.25 19.85 10.21
3/29/2021 2:30:00 AM 10.62 51.116 0.151 7.26 17.71 10.23
3/29/2021 2:45:00 AM 10.52 50.936 0.151 7.27 21.2 10.26
3/29/2021 3:00:00 AM 10.43 50.774 0.152 7.26 19.64 10.28
3/29/2021 3:15:00 AM 10.33 50.594 0.152 7.26 17.03 10.31
3/29/2021 3:30:00 AM 10.26 50.468 0.151 7.26 24.64 10.35
3/29/2021 3:45:00 AM 10.17 50.306 0.151 7.25 29.1 10.38
3/29/2021 4:00:00 AM 10.09 50.162 0.151 7.26 27.03 10.4
3/29/2021 4:15:00 AM 10 50 0.151 7.25 25.22 10.43
3/29/2021 4:30:00 AM 9.93 49.874 0.15 7.28 26.7 10.46
3/29/2021 4:45:00 AM 9.84 49.712 0.151 7.27 29.9 10.47
3/29/2021 5:00:00 AM 9.76 49.568 0.15 7.28 23.03 10.5
3/29/2021 5:15:00 AM 9.69 49.442 0.15 7.29 28.57 10.53
3/29/2021 5:30:00 AM 9.62 49.316 0.151 7.28 25.2 10.56
3/29/2021 5:45:00 AM 9.56 49.208 0.151 7.28 31.13 10.59
3/29/2021 6:00:00 AM 9.5 49.1 0.151 7.28 26.71 10.62
3/29/2021 6:15:00 AM 9.44 48.992 0.151 7.28 28.18 10.64
3/29/2021 6:30:00 AM 9.38 48.884 0.151 7.28 24.79 10.68
3/29/2021 6:45:00 AM 9.31 48.758 0.151 7.28 26.82 10.69
3/29/2021 7:00:00 AM 9.24 48.632 0.151 7.28 24.53 10.72
3/29/2021 7:15:00 AM 9.16 48.488 0.151 7.28 20.84 10.76
3/29/2021 7:30:00 AM 9.08 48.344 0.151 7.29 17.98 10.79
3/29/2021 7:45:00 AM 9 48.2 0.151 7.29 31.61 10.83
3/29/2021 8:00:00 AM 8.91 48.038 0.151 7.29 27.03 10.9
3/29/2021 8:15:00 AM 8.84 47.912 0.151 7.29 23.03 10.96
3/29/2021 8:30:00 AM 8.78 47.804 0.151 7.3 19.89 11.02
3/29/2021 8:45:00 AM 8.7 47.66 0.151 7.31 23.85 11.06
3/29/2021 9:00:00 AM 8.62 47.516 0.151 7.3 62.87 11.13
3/29/2021 9:15:00 AM 8.6 47.48 0.152 7.32 19.64 11.17
3/29/2021 9:30:00 AM 8.59 47.462 0.152 7.3 20.8 11.26
3/29/2021 9:45:00 AM 8.59 47.462 0.152 7.3 17.44 11.35
3/29/2021 10:00:00 AM 8.62 47.516 0.152 7.3 41.66 11.43
3/29/2021 10:15:00 AM 8.64 47.552 0.153 7.3 33.8 11.48
3/29/2021 10:30:00 AM 8.71 47.678 0.153 7.31 44.02 11.53
3/29/2021 10:45:00 AM 8.81 47.858 0.153 7.33 16.51 11.56
3/29/2021 11:00:00 AM 8.98 48.164 0.153 7.35 16.18 11.59
3/29/2021 11:15:00 AM 9.13 48.434 0.153 7.37 19.11 11.62
3/29/2021 11:30:00 AM 9.32 48.776 0.153 7.36 16.73 11.65
3/29/2021 11:45:00 AM 9.54 49.172 0.153 7.34 19.99 11.65
3/29/2021 12:00:00 PM 9.79 49.622 0.153 7.33 16.04 11.65
3/29/2021 12:15:00 PM 10.02 50.036 0.152 7.34 45.7 11.66
3/29/2021 12:30:00 PM 10.27 50.486 0.152 7.35 15.36 11.64
3/29/2021 12:45:00 PM 10.55 50.99 0.152 7.36 14.08 11.61
3/29/2021 1:00:00 PM 10.84 51.512 0.152 7.39 11.21 11.58
3/29/2021 1:15:00 PM 11.12 52.016 0.151 7.36 11.61 11.55
3/29/2021 1:30:00 PM 11.4 52.52 0.151 7.36 12 11.51
3/29/2021 1:45:00 PM 11.65 52.97 0.151 7.39 10.78 11.5
3/29/2021 2:00:00 PM 11.88 53.384 0.151 7.39 12.72 11.45
3/29/2021 2:15:00 PM 12.1 53.78 0.151 7.4 11.1 11.41
3/29/2021 2:30:00 PM 12.29 54.122 0.15 7.4 10.98 11.39
3/29/2021 2:45:00 PM 12.44 54.392 0.15 7.41 10.34 11.35
3/29/2021 3:00:00 PM 12.54 54.572 0.15 7.41 19.9 11.32
3/29/2021 3:15:00 PM 12.63 54.734 0.15 7.41 9.67 11.26
3/29/2021 3:30:00 PM 12.68 54.824 0.15 7.41 11.6 11.24
3/29/2021 3:45:00 PM 12.73 54.914 0.15 7.41 9.52 11.2
3/29/2021 4:00:00 PM 12.75 54.95 0.15 7.41 14.45 11.17
3/29/2021 4:15:00 PM 12.72 54.896 0.149 7.41 11.15 11.12
3/29/2021 4:30:00 PM 12.67 54.806 0.15 7.43 8.96 11.06
3/29/2021 4:45:00 PM 12.61 54.698 0.149 7.44 11.49 11.04
3/29/2021 5:00:00 PM 12.53 54.554 0.15 7.45 9.47 10.99
3/29/2021 5:15:00 PM 12.43 54.374 0.15 7.43 8.82 10.95
3/29/2021 5:30:00 PM 12.36 54.248 0.149 7.45 9.42 10.9
3/29/2021 5:45:00 PM 12.27 54.086 0.15 7.45 10.48 10.87
3/29/2021 6:00:00 PM 12.18 53.924 0.15 7.44 9.68 10.79
3/29/2021 6:15:00 PM 12.12 53.816 0.15 7.46 9.91 10.75
3/29/2021 6:30:00 PM 12.03 53.654 0.15 7.46 8.34 10.69
3/29/2021 6:45:00 PM 11.92 53.456 0.15 7.47 8.92 10.68
3/29/2021 7:00:00 PM 11.81 53.258 0.15 7.46 8.62 10.63
3/29/2021 7:15:00 PM 11.72 53.096 0.15 7.47 8.9 10.58
3/29/2021 7:30:00 PM 11.62 52.916 0.15 7.46 9.31 10.52
3/29/2021 7:45:00 PM 11.54 52.772 0.15 7.46 8.67 10.51
3/29/2021 8:00:00 PM 11.45 52.61 0.15 7.44 15.53 10.46
3/29/2021 8:15:00 PM 11.37 52.466 0.151 7.43 9.6 10.44
3/29/2021 8:30:00 PM 11.3 52.34 0.151 7.43 9.67 10.42
3/29/2021 8:45:00 PM 11.23 52.214 0.151 7.43 9.38 10.39
3/29/2021 9:00:00 PM 11.16 52.088 0.151 7.43 9.56 10.38
3/29/2021 9:15:00 PM 11.09 51.962 0.151 7.43 11.89 10.38
3/29/2021 9:30:00 PM 11 51.8 0.151 7.41 8.94 10.38
3/29/2021 9:45:00 PM 10.91 51.638 0.151 7.4 9.6 10.4
3/29/2021 10:00:00 PM 10.82 51.476 0.151 7.41 10.2 10.4
3/29/2021 10:15:00 PM 10.72 51.296 0.152 7.39 9.06 10.4
3/29/2021 10:30:00 PM 10.63 51.134 0.152 7.38 10.07 10.43
3/29/2021 10:45:00 PM 10.54 50.972 0.152 7.37 10.28 10.44
3/29/2021 11:00:00 PM 10.45 50.81 0.152 7.36 12.65 10.44
3/29/2021 11:15:00 PM 10.36 50.648 0.152 7.36 11.79 10.46
3/29/2021 11:30:00 PM 10.28 50.504 0.152 7.36 12.54 10.49
3/29/2021 11:45:00 PM 10.2 50.36 0.152 7.36 9.28 10.49
3/30/2021 12:00:00 AM 10.12 50.216 0.152 7.36 10.61 10.51
3/30/2021 12:15:00 AM 10.05 50.09 0.153 7.36 12.03 10.53
3/30/2021 12:30:00 AM 9.98 49.964 0.153 7.35 10.95 10.53
3/30/2021 12:45:00 AM 9.9 49.82 0.153 7.34 10.03 10.56
3/30/2021 1:00:00 AM 9.83 49.694 0.153 7.33 10.34 10.57
3/30/2021 1:15:00 AM 9.75 49.55 0.153 7.34 9.8 10.59
3/30/2021 1:30:00 AM 9.68 49.424 0.153 7.33 10.9 10.62
3/30/2021 1:45:00 AM 9.6 49.28 0.153 7.33 10.93 10.64
3/30/2021 2:00:00 AM 9.52 49.136 0.153 7.32 10.08 10.66
3/30/2021 2:15:00 AM 9.44 48.992 0.153 7.31 14.09 10.7
3/30/2021 2:30:00 AM 9.36 48.848 0.153 7.32 13.71 10.72
3/30/2021 2:45:00 AM 9.27 48.686 0.153 7.33 13.91 10.75
3/30/2021 3:00:00 AM 9.18 48.524 0.153 7.33 11.28 10.78
3/30/2021 3:15:00 AM 9.09 48.362 0.153 7.31 15.05 10.8
3/30/2021 3:30:00 AM 9.01 48.218 0.154 7.31 15.64 10.83
3/30/2021 3:45:00 AM 8.91 48.038 0.154 7.3 22.37 10.87
3/30/2021 4:00:00 AM 8.82 47.876 0.154 7.29 19.04 10.91
3/30/2021 4:15:00 AM 8.73 47.714 0.154 7.31 17.87 10.93
3/30/2021 4:30:00 AM 8.63 47.534 0.154 7.3 18.94 10.96
3/30/2021 4:45:00 AM 8.55 47.39 0.154 7.3 16.47 11
3/30/2021 5:00:00 AM 8.46 47.228 0.154 7.31 14.98 11.03
3/30/2021 5:15:00 AM 8.36 47.048 0.154 7.3 17.88 11.06
3/30/2021 5:30:00 AM 8.28 46.904 0.154 7.3 14.3 11.09
3/30/2021 5:45:00 AM 8.19 46.742 0.154 7.29 16.69 11.12
3/30/2021 6:00:00 AM 8.1 46.58 0.154 7.3 14.06 11.16
3/30/2021 6:15:00 AM 8.01 46.418 0.155 7.28 15 11.19
3/30/2021 6:30:00 AM 7.94 46.292 0.155 7.3 16.21 11.21
3/30/2021 6:45:00 AM 7.85 46.13 0.155 7.3 17.2 11.23
3/30/2021 7:00:00 AM 7.76 45.968 0.155 7.3 14.74 11.29
3/30/2021 7:15:00 AM 7.68 45.824 0.155 7.31 13.68 11.32
3/30/2021 7:30:00 AM 7.6 45.68 0.155 7.29 13.44 11.35
3/30/2021 7:45:00 AM 7.52 45.536 0.155 7.3 12.03 11.41
3/30/2021 8:00:00 AM 7.45 45.41 0.155 7.29 13.49 11.47
3/30/2021 8:15:00 AM 7.39 45.302 0.155 7.3 13.64 11.52
3/30/2021 8:30:00 AM 7.32 45.176 0.155 7.3 11.37 11.58
3/30/2021 8:45:00 AM 7.28 45.104 0.155 7.3 13.11 11.64
3/30/2021 9:00:00 AM 7.24 45.032 0.155 7.3 10.23 11.7
3/30/2021 9:15:00 AM 7.23 45.014 0.155 7.31 10.38 11.74
3/30/2021 9:30:00 AM 7.25 45.05 0.155 7.3 12.39 11.8
3/30/2021 9:45:00 AM 7.29 45.122 0.155 7.3 10.37 11.85
3/30/2021 10:00:00 AM 7.37 45.266 0.155 7.31 10.37 11.91
3/30/2021 10:15:00 AM 7.49 45.482 0.155 7.31 12.32 11.95
3/30/2021 10:30:00 AM 7.64 45.752 0.155 7.32 13.45 11.97
3/30/2021 10:45:00 AM 7.84 46.112 0.155 7.31 11.52 12.01
3/30/2021 11:00:00 AM 8.07 46.526 0.155 7.31 11.33 12.04
3/30/2021 11:15:00 AM 8.34 47.012 0.154 7.32 12.31 12.03
3/30/2021 11:30:00 AM 8.62 47.516 0.155 7.31 13.03 12.02
3/30/2021 11:45:00 AM 8.91 48.038 0.154 7.31 10.22 12.03
3/30/2021 12:00:00 PM 9.22 48.596 0.154 7.31 10.78 11.99
3/30/2021 12:15:00 PM 9.57 49.226 0.154 7.31 10.59 11.96
3/30/2021 12:30:00 PM 9.93 49.874 0.155 7.32 10.21 11.92
3/30/2021 12:45:00 PM 10.32 50.576 0.155 7.32 9.3 11.86
3/30/2021 1:00:00 PM 10.68 51.224 0.155 7.33 11.53 11.81
3/30/2021 1:15:00 PM 11.03 51.854 0.154 7.31 12.71 11.77
3/30/2021 1:30:00 PM 11.38 52.484 0.155 7.32 11.85 11.72
3/30/2021 1:45:00 PM 11.74 53.132 0.155 7.32 9.03 11.64
3/30/2021 2:00:00 PM 12.05 53.69 0.155 7.32 9.03 11.6
3/30/2021 2:15:00 PM 12.33 54.194 0.155 7.33 9.81 11.54
3/30/2021 2:30:00 PM 12.59 54.662 0.155 7.32 9.84 11.48
3/30/2021 2:45:00 PM 12.79 55.022 0.156 7.33 8.92 11.43
3/30/2021 3:00:00 PM 12.94 55.292 0.155 7.34 10.33 11.38
3/30/2021 3:15:00 PM 13.04 55.472 0.155 7.34 9.44 11.32
3/30/2021 3:30:00 PM 13.14 55.652 0.155 7.34 10.04 11.28
3/30/2021 3:45:00 PM 13.21 55.778 0.155 7.35 10.04 11.22
3/30/2021 4:00:00 PM 13.26 55.868 0.155 7.34 10.24 11.16
3/30/2021 4:15:00 PM 13.27 55.886 0.156 7.35 10.26 11.13
3/30/2021 4:30:00 PM 13.25 55.85 0.156 7.36 9.95 11.06
3/30/2021 4:45:00 PM 13.23 55.814 0.155 7.37 9.86 11.03
3/30/2021 5:00:00 PM 13.17 55.706 0.155 7.38 9.93 10.95
3/30/2021 5:15:00 PM 13.1 55.58 0.155 7.38 10 10.89
3/30/2021 5:30:00 PM 13.05 55.49 0.155 7.39 10.48 10.84
3/30/2021 5:45:00 PM 12.99 55.382 0.155 7.4 11.12 10.78
3/30/2021 6:00:00 PM 12.93 55.274 0.155 7.4 9.8 10.74
3/30/2021 6:15:00 PM 12.85 55.13 0.155 7.39 10.48 10.69
3/30/2021 6:30:00 PM 12.77 54.986 0.155 7.4 9.17 10.64
3/30/2021 6:45:00 PM 12.66 54.788 0.155 7.41 9.37 10.57
3/30/2021 7:00:00 PM 12.57 54.626 0.155 7.41 9.93 10.51
3/30/2021 7:15:00 PM 12.47 54.446 0.155 7.4 9.63 10.46
3/30/2021 7:30:00 PM 12.39 54.302 0.155 7.4 9.56 10.42
3/30/2021 7:45:00 PM 12.32 54.176 0.155 7.4 10.69 10.36
3/30/2021 8:00:00 PM 12.25 54.05 0.155 7.4 10.03 10.32
3/30/2021 8:15:00 PM 12.2 53.96 0.155 7.39 11.04 10.26
3/30/2021 8:30:00 PM 12.15 53.87 0.155 7.38 9.64 10.23
3/30/2021 8:45:00 PM 12.11 53.798 0.155 7.38 12.64 10.2
3/30/2021 9:00:00 PM 12.07 53.726 0.155 7.38 11.09 10.18
3/30/2021 9:15:00 PM 12.02 53.636 0.155 7.37 12.66 10.17
3/30/2021 9:30:00 PM 11.98 53.564 0.155 7.37 13.55 10.15
3/30/2021 9:45:00 PM 11.93 53.474 0.155 7.36 12.62 10.14
3/30/2021 10:00:00 PM 11.88 53.384 0.155 7.36 19.28 10.08
3/30/2021 10:15:00 PM 11.83 53.294 0.155 7.36 13.17 10.12
3/30/2021 10:30:00 PM 11.78 53.204 0.155 7.36 11.83 10.13
3/30/2021 10:45:00 PM 11.73 53.114 0.155 7.35 12.51 10.13
3/30/2021 11:00:00 PM 11.69 53.042 0.155 7.35 13.31 10.12
3/30/2021 11:15:00 PM 11.64 52.952 0.155 7.34 11.45 10.14
3/30/2021 11:30:00 PM 11.6 52.88 0.155 7.33 12.95 10.12
3/30/2021 11:45:00 PM 11.57 52.826 0.155 7.33 11.08 10.13
3/31/2021 12:00:00 AM 11.53 52.754 0.155 7.33 14.16 10.13
3/31/2021 12:15:00 AM 11.5 52.7 0.155 7.33 12.61 10.13
3/31/2021 12:30:00 AM 11.48 52.664 0.155 7.32 12.13 10.12
3/31/2021 12:45:00 AM 11.45 52.61 0.155 7.31 11.97 10.13
3/31/2021 1:00:00 AM 11.43 52.574 0.155 7.31 12.82 10.13
3/31/2021 1:15:00 AM 11.39 52.502 0.155 7.3 23.02 10.13
3/31/2021 1:30:00 AM 11.37 52.466 0.156 7.31 13.31 10.16
3/31/2021 1:45:00 AM 11.34 52.412 0.156 7.3 13.5 10.15
3/31/2021 2:00:00 AM 11.31 52.358 0.156 7.31 12.75 10.15
3/31/2021 2:15:00 AM 11.27 52.286 0.156 7.3 12.7 10.16
3/31/2021 2:30:00 AM 11.23 52.214 0.156 7.3 13.76 10.17
3/31/2021 2:45:00 AM 11.18 52.124 0.156 7.3 12.7 10.19
3/31/2021 3:00:00 AM 11.13 52.034 0.156 7.3 10.92 10.21
3/31/2021 3:15:00 AM 11.08 51.944 0.156 7.29 11.77 10.22
3/31/2021 3:30:00 AM 11.03 51.854 0.156 7.29 11.93 10.24
3/31/2021 3:45:00 AM 10.97 51.746 0.156 7.28 12.91 10.24
3/31/2021 4:00:00 AM 10.91 51.638 0.156 7.28 13.14 10.26
3/31/2021 4:15:00 AM 10.86 51.548 0.156 7.28 12.96 10.27
3/31/2021 4:30:00 AM 10.8 51.44 0.156 7.28 13.77 10.3
3/31/2021 4:45:00 AM 10.74 51.332 0.156 7.28 12.73 10.32
3/31/2021 5:00:00 AM 10.68 51.224 0.156 7.28 13.12 10.33
3/31/2021 5:15:00 AM 10.61 51.098 0.156 7.28 12.52 10.35
3/31/2021 5:30:00 AM 10.55 50.99 0.156 7.28 12.51 10.36
3/31/2021 5:45:00 AM 10.48 50.864 0.157 7.27 11.57 10.38
3/31/2021 6:00:00 AM 10.42 50.756 0.157 7.27 11.47 10.41
3/31/2021 6:15:00 AM 10.36 50.648 0.157 7.27 11.89 10.42
3/31/2021 6:30:00 AM 10.3 50.54 0.157 7.27 14.79 10.44
3/31/2021 6:45:00 AM 10.25 50.45 0.157 7.27 12.89 10.45
3/31/2021 7:00:00 AM 10.19 50.342 0.157 7.27 12.77 10.48
3/31/2021 7:15:00 AM 10.14 50.252 0.157 7.26 14 10.49
3/31/2021 7:30:00 AM 10.11 50.198 0.157 7.27 10.99 10.53
3/31/2021 7:45:00 AM 10.1 50.18 0.157 7.27 11.86 10.58
3/31/2021 8:00:00 AM 10.1 50.18 0.157 7.26 12.92 10.64
3/31/2021 8:15:00 AM 10.1 50.18 0.157 7.26 11.43 10.7
3/31/2021 8:30:00 AM 10.12 50.216 0.157 7.26 12.08 10.74
3/31/2021 8:45:00 AM 10.15 50.27 0.157 7.26 11.97 10.81
3/31/2021 9:00:00 AM 10.2 50.36 0.157 7.27 11.9 10.84
3/31/2021 9:15:00 AM 10.24 50.432 0.157 7.28 13.24 10.89
3/31/2021 9:30:00 AM 10.3 50.54 0.157 7.28 10.91 10.94
3/31/2021 9:45:00 AM 10.35 50.63 0.157 7.28 13.31 10.98
3/31/2021 10:00:00 AM 10.41 50.738 0.157 7.28 13.35 11.02
3/31/2021 10:15:00 AM 10.48 50.864 0.157 7.29 11.96 11.05
3/31/2021 10:30:00 AM 10.54 50.972 0.157 7.3 12.91 11.09
3/31/2021 10:45:00 AM 10.6 51.08 0.156 7.3 12.5 11.1
3/31/2021 11:00:00 AM 10.65 51.17